<?xml version="1.0" encoding="UTF-8" standalone="no" ?>
<gpx xmlns="http://www.topografix.com/GPX/1/1" xmlns:xsi="http://www.w3.org/2001/XMLSchema-instance" xsi:schemaLocation="http://www.topografix.com/GPX/1/1 http://www.topografix.com/GPX/1/1/gpx.xsd" version="1.1" creator="VisuGPX - https://www.visugpx.com">
  <metadata>
    <name>cirque d\'archiane</name>
    <desc><![CDATA[vire du pas Sambardou - vire d\'Archiane]]></desc>
  </metadata>
  <trk>
    <name><![CDATA[2015-06-28-01_ARCHIANE]]></name>
    <trkseg>
      <trkpt lat="44.74643" lon="5.50801">
        <ele>776.5</ele>
        <time>2015-06-28T06:46:50Z</time>
      </trkpt>
      <trkpt lat="44.74637" lon="5.5076">
        <ele>671</ele>
        <time>2015-06-28T06:46:54Z</time>
      </trkpt>
      <trkpt lat="44.74637" lon="5.50746">
        <ele>576.8</ele>
        <time>2015-06-28T06:47:00Z</time>
      </trkpt>
      <trkpt lat="44.74633" lon="5.50734">
        <ele>514.8</ele>
        <time>2015-06-28T06:47:06Z</time>
      </trkpt>
      <trkpt lat="44.74629" lon="5.50723">
        <ele>472.8</ele>
        <time>2015-06-28T06:47:12Z</time>
      </trkpt>
      <trkpt lat="44.74625" lon="5.50711">
        <ele>444.3</ele>
        <time>2015-06-28T06:47:18Z</time>
      </trkpt>
      <trkpt lat="44.74621" lon="5.50697">
        <ele>425.1</ele>
        <time>2015-06-28T06:47:24Z</time>
      </trkpt>
      <trkpt lat="44.7462" lon="5.50684">
        <ele>412.1</ele>
        <time>2015-06-28T06:47:30Z</time>
      </trkpt>
      <trkpt lat="44.74616" lon="5.5067">
        <ele>402.2</ele>
        <time>2015-06-28T06:47:37Z</time>
      </trkpt>
      <trkpt lat="44.74611" lon="5.50659">
        <ele>395.3</ele>
        <time>2015-06-28T06:47:45Z</time>
      </trkpt>
      <trkpt lat="44.74613" lon="5.50646">
        <ele>393</ele>
        <time>2015-06-28T06:47:49Z</time>
      </trkpt>
      <trkpt lat="44.74611" lon="5.50631">
        <ele>391.2</ele>
        <time>2015-06-28T06:47:53Z</time>
      </trkpt>
      <trkpt lat="44.74613" lon="5.50618">
        <ele>389.8</ele>
        <time>2015-06-28T06:47:57Z</time>
      </trkpt>
      <trkpt lat="44.74616" lon="5.50604">
        <ele>388.7</ele>
        <time>2015-06-28T06:48:02Z</time>
      </trkpt>
      <trkpt lat="44.74621" lon="5.50592">
        <ele>387.9</ele>
        <time>2015-06-28T06:48:07Z</time>
      </trkpt>
      <trkpt lat="44.74628" lon="5.50581">
        <ele>387.3</ele>
        <time>2015-06-28T06:48:12Z</time>
      </trkpt>
      <trkpt lat="44.74629" lon="5.50568">
        <ele>386.8</ele>
        <time>2015-06-28T06:48:20Z</time>
      </trkpt>
      <trkpt lat="44.7462" lon="5.50564">
        <ele>386.6</ele>
        <time>2015-06-28T06:48:31Z</time>
      </trkpt>
      <trkpt lat="44.7461" lon="5.50563">
        <ele>386.9</ele>
        <time>2015-06-28T06:48:35Z</time>
      </trkpt>
      <trkpt lat="44.746" lon="5.50557">
        <ele>387.2</ele>
        <time>2015-06-28T06:48:39Z</time>
      </trkpt>
      <trkpt lat="44.74595" lon="5.50546">
        <ele>387.2</ele>
        <time>2015-06-28T06:48:58Z</time>
      </trkpt>
      <trkpt lat="44.7459" lon="5.50534">
        <ele>387.1</ele>
        <time>2015-06-28T06:49:03Z</time>
      </trkpt>
      <trkpt lat="44.74585" lon="5.50523">
        <ele>386.7</ele>
        <time>2015-06-28T06:49:13Z</time>
      </trkpt>
      <trkpt lat="44.7458" lon="5.50511">
        <ele>386.5</ele>
        <time>2015-06-28T06:49:17Z</time>
      </trkpt>
      <trkpt lat="44.74578" lon="5.50498">
        <ele>386</ele>
        <time>2015-06-28T06:49:24Z</time>
      </trkpt>
      <trkpt lat="44.74576" lon="5.50485">
        <ele>385.5</ele>
        <time>2015-06-28T06:49:30Z</time>
      </trkpt>
      <trkpt lat="44.74574" lon="5.50471">
        <ele>385.1</ele>
        <time>2015-06-28T06:49:35Z</time>
      </trkpt>
      <trkpt lat="44.74573" lon="5.50457">
        <ele>384.7</ele>
        <time>2015-06-28T06:49:41Z</time>
      </trkpt>
      <trkpt lat="44.7457" lon="5.50443">
        <ele>383.7</ele>
        <time>2015-06-28T06:49:54Z</time>
      </trkpt>
      <trkpt lat="44.74574" lon="5.5043">
        <ele>383</ele>
        <time>2015-06-28T06:49:58Z</time>
      </trkpt>
      <trkpt lat="44.74578" lon="5.50416">
        <ele>382.2</ele>
        <time>2015-06-28T06:50:03Z</time>
      </trkpt>
      <trkpt lat="44.74579" lon="5.50403">
        <ele>380.5</ele>
        <time>2015-06-28T06:50:13Z</time>
      </trkpt>
      <trkpt lat="44.74582" lon="5.50388">
        <ele>378.9</ele>
        <time>2015-06-28T06:50:22Z</time>
      </trkpt>
      <trkpt lat="44.74589" lon="5.50377">
        <ele>378</ele>
        <time>2015-06-28T06:50:29Z</time>
      </trkpt>
      <trkpt lat="44.74593" lon="5.50365">
        <ele>377.2</ele>
        <time>2015-06-28T06:50:37Z</time>
      </trkpt>
      <trkpt lat="44.74599" lon="5.50354">
        <ele>376.7</ele>
        <time>2015-06-28T06:50:45Z</time>
      </trkpt>
      <trkpt lat="44.74592" lon="5.50345">
        <ele>377</ele>
        <time>2015-06-28T06:51:02Z</time>
      </trkpt>
      <trkpt lat="44.74584" lon="5.50337">
        <ele>377.5</ele>
        <time>2015-06-28T06:51:14Z</time>
      </trkpt>
      <trkpt lat="44.74576" lon="5.50332">
        <ele>379.9</ele>
        <time>2015-06-28T06:51:31Z</time>
      </trkpt>
      <trkpt lat="44.74567" lon="5.5033">
        <ele>384.2</ele>
        <time>2015-06-28T06:51:47Z</time>
      </trkpt>
      <trkpt lat="44.74558" lon="5.50326">
        <ele>386.8</ele>
        <time>2015-06-28T06:52:00Z</time>
      </trkpt>
      <trkpt lat="44.74549" lon="5.50323">
        <ele>390.1</ele>
        <time>2015-06-28T06:52:16Z</time>
      </trkpt>
      <trkpt lat="44.74541" lon="5.50315">
        <ele>392.1</ele>
        <time>2015-06-28T06:52:26Z</time>
      </trkpt>
      <trkpt lat="44.74548" lon="5.50306">
        <ele>395.2</ele>
        <time>2015-06-28T06:52:42Z</time>
      </trkpt>
      <trkpt lat="44.74552" lon="5.50294">
        <ele>397.5</ele>
        <time>2015-06-28T06:52:54Z</time>
      </trkpt>
      <trkpt lat="44.74556" lon="5.50283">
        <ele>400.1</ele>
        <time>2015-06-28T06:53:08Z</time>
      </trkpt>
      <trkpt lat="44.74558" lon="5.50269">
        <ele>402.1</ele>
        <time>2015-06-28T06:53:20Z</time>
      </trkpt>
      <trkpt lat="44.7456" lon="5.50257">
        <ele>403.6</ele>
        <time>2015-06-28T06:53:30Z</time>
      </trkpt>
      <trkpt lat="44.74563" lon="5.50245">
        <ele>404.9</ele>
        <time>2015-06-28T06:53:40Z</time>
      </trkpt>
      <trkpt lat="44.74567" lon="5.50233">
        <ele>406.5</ele>
        <time>2015-06-28T06:53:50Z</time>
      </trkpt>
      <trkpt lat="44.74569" lon="5.50221">
        <ele>408</ele>
        <time>2015-06-28T06:53:59Z</time>
      </trkpt>
      <trkpt lat="44.74569" lon="5.50207">
        <ele>409.7</ele>
        <time>2015-06-28T06:54:08Z</time>
      </trkpt>
      <trkpt lat="44.7457" lon="5.50193">
        <ele>410.8</ele>
        <time>2015-06-28T06:54:16Z</time>
      </trkpt>
      <trkpt lat="44.74572" lon="5.5018">
        <ele>411.8</ele>
        <time>2015-06-28T06:54:25Z</time>
      </trkpt>
      <trkpt lat="44.74574" lon="5.50167">
        <ele>413.1</ele>
        <time>2015-06-28T06:54:34Z</time>
      </trkpt>
      <trkpt lat="44.74573" lon="5.50153">
        <ele>414.8</ele>
        <time>2015-06-28T06:54:45Z</time>
      </trkpt>
      <trkpt lat="44.74573" lon="5.5014">
        <ele>417.4</ele>
        <time>2015-06-28T06:55:05Z</time>
      </trkpt>
      <trkpt lat="44.7457" lon="5.50128">
        <ele>418.2</ele>
        <time>2015-06-28T06:55:54Z</time>
      </trkpt>
      <trkpt lat="44.74573" lon="5.50114">
        <ele>418.4</ele>
        <time>2015-06-28T06:56:04Z</time>
      </trkpt>
      <trkpt lat="44.74576" lon="5.50102">
        <ele>419.3</ele>
        <time>2015-06-28T06:56:13Z</time>
      </trkpt>
      <trkpt lat="44.74577" lon="5.50088">
        <ele>420.6</ele>
        <time>2015-06-28T06:56:23Z</time>
      </trkpt>
      <trkpt lat="44.74578" lon="5.50075">
        <ele>422</ele>
        <time>2015-06-28T06:56:33Z</time>
      </trkpt>
      <trkpt lat="44.7458" lon="5.50063">
        <ele>423.4</ele>
        <time>2015-06-28T06:56:43Z</time>
      </trkpt>
      <trkpt lat="44.74584" lon="5.5005">
        <ele>425.4</ele>
        <time>2015-06-28T06:56:54Z</time>
      </trkpt>
      <trkpt lat="44.74584" lon="5.50036">
        <ele>426.9</ele>
        <time>2015-06-28T06:57:03Z</time>
      </trkpt>
      <trkpt lat="44.74585" lon="5.50021">
        <ele>428.5</ele>
        <time>2015-06-28T06:57:12Z</time>
      </trkpt>
      <trkpt lat="44.74582" lon="5.50009">
        <ele>430</ele>
        <time>2015-06-28T06:57:20Z</time>
      </trkpt>
      <trkpt lat="44.74586" lon="5.49997">
        <ele>431.3</ele>
        <time>2015-06-28T06:57:28Z</time>
      </trkpt>
      <trkpt lat="44.74586" lon="5.49984">
        <ele>432.5</ele>
        <time>2015-06-28T06:57:36Z</time>
      </trkpt>
      <trkpt lat="44.74587" lon="5.49972">
        <ele>433.5</ele>
        <time>2015-06-28T06:57:44Z</time>
      </trkpt>
      <trkpt lat="44.7459" lon="5.49958">
        <ele>434.7</ele>
        <time>2015-06-28T06:57:52Z</time>
      </trkpt>
      <trkpt lat="44.74593" lon="5.49945">
        <ele>436.1</ele>
        <time>2015-06-28T06:57:59Z</time>
      </trkpt>
      <trkpt lat="44.74598" lon="5.49934">
        <ele>437.5</ele>
        <time>2015-06-28T06:58:08Z</time>
      </trkpt>
      <trkpt lat="44.746" lon="5.4992">
        <ele>439</ele>
        <time>2015-06-28T06:58:18Z</time>
      </trkpt>
      <trkpt lat="44.74604" lon="5.49909">
        <ele>440.9</ele>
        <time>2015-06-28T06:58:27Z</time>
      </trkpt>
      <trkpt lat="44.74599" lon="5.49898">
        <ele>441.6</ele>
        <time>2015-06-28T06:58:31Z</time>
      </trkpt>
      <trkpt lat="44.74598" lon="5.49884">
        <ele>443.8</ele>
        <time>2015-06-28T06:58:42Z</time>
      </trkpt>
      <trkpt lat="44.74599" lon="5.49871">
        <ele>445.4</ele>
        <time>2015-06-28T06:58:51Z</time>
      </trkpt>
      <trkpt lat="44.74602" lon="5.49857">
        <ele>446.6</ele>
        <time>2015-06-28T06:58:59Z</time>
      </trkpt>
      <trkpt lat="44.74604" lon="5.49844">
        <ele>448.1</ele>
        <time>2015-06-28T06:59:07Z</time>
      </trkpt>
      <trkpt lat="44.7461" lon="5.49833">
        <ele>449.9</ele>
        <time>2015-06-28T06:59:18Z</time>
      </trkpt>
      <trkpt lat="44.74615" lon="5.49822">
        <ele>451.3</ele>
        <time>2015-06-28T06:59:27Z</time>
      </trkpt>
      <trkpt lat="44.74617" lon="5.49809">
        <ele>453.1</ele>
        <time>2015-06-28T06:59:37Z</time>
      </trkpt>
      <trkpt lat="44.74621" lon="5.49797">
        <ele>455.9</ele>
        <time>2015-06-28T06:59:50Z</time>
      </trkpt>
      <trkpt lat="44.74626" lon="5.49786">
        <ele>457.5</ele>
        <time>2015-06-28T06:59:58Z</time>
      </trkpt>
      <trkpt lat="44.74633" lon="5.49777">
        <ele>459.3</ele>
        <time>2015-06-28T07:00:06Z</time>
      </trkpt>
      <trkpt lat="44.74638" lon="5.49767">
        <ele>461.6</ele>
        <time>2015-06-28T07:00:16Z</time>
      </trkpt>
      <trkpt lat="44.74641" lon="5.49755">
        <ele>463.1</ele>
        <time>2015-06-28T07:00:25Z</time>
      </trkpt>
      <trkpt lat="44.74646" lon="5.49744">
        <ele>465.4</ele>
        <time>2015-06-28T07:00:36Z</time>
      </trkpt>
      <trkpt lat="44.7465" lon="5.49732">
        <ele>467.6</ele>
        <time>2015-06-28T07:00:46Z</time>
      </trkpt>
      <trkpt lat="44.74654" lon="5.4972">
        <ele>469.6</ele>
        <time>2015-06-28T07:00:57Z</time>
      </trkpt>
      <trkpt lat="44.74653" lon="5.49707">
        <ele>471.9</ele>
        <time>2015-06-28T07:01:07Z</time>
      </trkpt>
      <trkpt lat="44.74655" lon="5.49693">
        <ele>474.3</ele>
        <time>2015-06-28T07:01:19Z</time>
      </trkpt>
      <trkpt lat="44.74657" lon="5.49679">
        <ele>475.6</ele>
        <time>2015-06-28T07:01:27Z</time>
      </trkpt>
      <trkpt lat="44.74662" lon="5.49667">
        <ele>476.8</ele>
        <time>2015-06-28T07:01:35Z</time>
      </trkpt>
      <trkpt lat="44.74665" lon="5.49655">
        <ele>478.1</ele>
        <time>2015-06-28T07:01:43Z</time>
      </trkpt>
      <trkpt lat="44.74669" lon="5.49642">
        <ele>479.8</ele>
        <time>2015-06-28T07:01:53Z</time>
      </trkpt>
      <trkpt lat="44.74667" lon="5.49629">
        <ele>481.5</ele>
        <time>2015-06-28T07:02:02Z</time>
      </trkpt>
      <trkpt lat="44.74668" lon="5.49616">
        <ele>483.2</ele>
        <time>2015-06-28T07:02:11Z</time>
      </trkpt>
      <trkpt lat="44.7467" lon="5.49604">
        <ele>485.4</ele>
        <time>2015-06-28T07:02:22Z</time>
      </trkpt>
      <trkpt lat="44.74674" lon="5.49591">
        <ele>487.4</ele>
        <time>2015-06-28T07:02:34Z</time>
      </trkpt>
      <trkpt lat="44.74677" lon="5.49579">
        <ele>489</ele>
        <time>2015-06-28T07:02:42Z</time>
      </trkpt>
      <trkpt lat="44.74681" lon="5.49568">
        <ele>490.7</ele>
        <time>2015-06-28T07:02:50Z</time>
      </trkpt>
      <trkpt lat="44.74686" lon="5.49556">
        <ele>492.6</ele>
        <time>2015-06-28T07:03:00Z</time>
      </trkpt>
      <trkpt lat="44.74685" lon="5.49543">
        <ele>494.5</ele>
        <time>2015-06-28T07:03:10Z</time>
      </trkpt>
      <trkpt lat="44.74694" lon="5.49548">
        <ele>500.3</ele>
        <time>2015-06-28T07:03:39Z</time>
      </trkpt>
      <trkpt lat="44.74689" lon="5.49537">
        <ele>507.6</ele>
        <time>2015-06-28T07:04:19Z</time>
      </trkpt>
      <trkpt lat="44.74683" lon="5.49528">
        <ele>509.9</ele>
        <time>2015-06-28T07:04:37Z</time>
      </trkpt>
      <trkpt lat="44.74674" lon="5.49532">
        <ele>511</ele>
        <time>2015-06-28T07:04:47Z</time>
      </trkpt>
      <trkpt lat="44.74665" lon="5.49537">
        <ele>512.6</ele>
        <time>2015-06-28T07:05:00Z</time>
      </trkpt>
      <trkpt lat="44.7466" lon="5.49549">
        <ele>515</ele>
        <time>2015-06-28T07:05:15Z</time>
      </trkpt>
      <trkpt lat="44.74651" lon="5.49553">
        <ele>516.1</ele>
        <time>2015-06-28T07:05:22Z</time>
      </trkpt>
      <trkpt lat="44.74644" lon="5.49563">
        <ele>517.5</ele>
        <time>2015-06-28T07:05:30Z</time>
      </trkpt>
      <trkpt lat="44.74638" lon="5.49574">
        <ele>520</ele>
        <time>2015-06-28T07:05:46Z</time>
      </trkpt>
      <trkpt lat="44.74633" lon="5.49585">
        <ele>521.8</ele>
        <time>2015-06-28T07:05:57Z</time>
      </trkpt>
      <trkpt lat="44.74628" lon="5.49596">
        <ele>523.3</ele>
        <time>2015-06-28T07:06:07Z</time>
      </trkpt>
      <trkpt lat="44.74621" lon="5.49605">
        <ele>524.5</ele>
        <time>2015-06-28T07:06:15Z</time>
      </trkpt>
      <trkpt lat="44.74613" lon="5.49611">
        <ele>526.1</ele>
        <time>2015-06-28T07:06:23Z</time>
      </trkpt>
      <trkpt lat="44.74607" lon="5.49622">
        <ele>528.1</ele>
        <time>2015-06-28T07:06:32Z</time>
      </trkpt>
      <trkpt lat="44.746" lon="5.49631">
        <ele>530</ele>
        <time>2015-06-28T07:06:41Z</time>
      </trkpt>
      <trkpt lat="44.74596" lon="5.49643">
        <ele>532.5</ele>
        <time>2015-06-28T07:06:52Z</time>
      </trkpt>
      <trkpt lat="44.74588" lon="5.49649">
        <ele>538.2</ele>
        <time>2015-06-28T07:07:14Z</time>
      </trkpt>
      <trkpt lat="44.7458" lon="5.49657">
        <ele>540.1</ele>
        <time>2015-06-28T07:07:23Z</time>
      </trkpt>
      <trkpt lat="44.74573" lon="5.49665">
        <ele>541.5</ele>
        <time>2015-06-28T07:07:31Z</time>
      </trkpt>
      <trkpt lat="44.74564" lon="5.49671">
        <ele>543</ele>
        <time>2015-06-28T07:07:40Z</time>
      </trkpt>
      <trkpt lat="44.74555" lon="5.49676">
        <ele>544.3</ele>
        <time>2015-06-28T07:07:48Z</time>
      </trkpt>
      <trkpt lat="44.74547" lon="5.49682">
        <ele>545.7</ele>
        <time>2015-06-28T07:07:57Z</time>
      </trkpt>
      <trkpt lat="44.74538" lon="5.49686">
        <ele>547.3</ele>
        <time>2015-06-28T07:08:08Z</time>
      </trkpt>
      <trkpt lat="44.74529" lon="5.49691">
        <ele>548.5</ele>
        <time>2015-06-28T07:08:17Z</time>
      </trkpt>
      <trkpt lat="44.74521" lon="5.49698">
        <ele>550.1</ele>
        <time>2015-06-28T07:08:26Z</time>
      </trkpt>
      <trkpt lat="44.74514" lon="5.49706">
        <ele>551.9</ele>
        <time>2015-06-28T07:08:37Z</time>
      </trkpt>
      <trkpt lat="44.74506" lon="5.49714">
        <ele>554.7</ele>
        <time>2015-06-28T07:08:52Z</time>
      </trkpt>
      <trkpt lat="44.74498" lon="5.49722">
        <ele>556.7</ele>
        <time>2015-06-28T07:09:02Z</time>
      </trkpt>
      <trkpt lat="44.7449" lon="5.49731">
        <ele>558.7</ele>
        <time>2015-06-28T07:09:11Z</time>
      </trkpt>
      <trkpt lat="44.74482" lon="5.49737">
        <ele>560.7</ele>
        <time>2015-06-28T07:09:21Z</time>
      </trkpt>
      <trkpt lat="44.74477" lon="5.49747">
        <ele>562.5</ele>
        <time>2015-06-28T07:09:30Z</time>
      </trkpt>
      <trkpt lat="44.74471" lon="5.49758">
        <ele>564.9</ele>
        <time>2015-06-28T07:09:42Z</time>
      </trkpt>
      <trkpt lat="44.74464" lon="5.49766">
        <ele>566.3</ele>
        <time>2015-06-28T07:09:50Z</time>
      </trkpt>
      <trkpt lat="44.74456" lon="5.49774">
        <ele>568.3</ele>
        <time>2015-06-28T07:09:59Z</time>
      </trkpt>
      <trkpt lat="44.74451" lon="5.49785">
        <ele>570.8</ele>
        <time>2015-06-28T07:10:11Z</time>
      </trkpt>
      <trkpt lat="44.74445" lon="5.49796">
        <ele>572.7</ele>
        <time>2015-06-28T07:10:21Z</time>
      </trkpt>
      <trkpt lat="44.74437" lon="5.49802">
        <ele>574.6</ele>
        <time>2015-06-28T07:10:29Z</time>
      </trkpt>
      <trkpt lat="44.74429" lon="5.4981">
        <ele>576.6</ele>
        <time>2015-06-28T07:10:38Z</time>
      </trkpt>
      <trkpt lat="44.74421" lon="5.49817">
        <ele>578.4</ele>
        <time>2015-06-28T07:10:47Z</time>
      </trkpt>
      <trkpt lat="44.74413" lon="5.49823">
        <ele>579.6</ele>
        <time>2015-06-28T07:10:55Z</time>
      </trkpt>
      <trkpt lat="44.74404" lon="5.49829">
        <ele>580.7</ele>
        <time>2015-06-28T07:11:04Z</time>
      </trkpt>
      <trkpt lat="44.74395" lon="5.49833">
        <ele>582.2</ele>
        <time>2015-06-28T07:11:15Z</time>
      </trkpt>
      <trkpt lat="44.74386" lon="5.49834">
        <ele>583.2</ele>
        <time>2015-06-28T07:11:23Z</time>
      </trkpt>
      <trkpt lat="44.74376" lon="5.49834">
        <ele>584.4</ele>
        <time>2015-06-28T07:11:32Z</time>
      </trkpt>
      <trkpt lat="44.74366" lon="5.49835">
        <ele>586.1</ele>
        <time>2015-06-28T07:11:43Z</time>
      </trkpt>
      <trkpt lat="44.74358" lon="5.49837">
        <ele>588.9</ele>
        <time>2015-06-28T07:11:59Z</time>
      </trkpt>
      <trkpt lat="44.74352" lon="5.49847">
        <ele>590.3</ele>
        <time>2015-06-28T07:12:09Z</time>
      </trkpt>
      <trkpt lat="44.74347" lon="5.4986">
        <ele>591.1</ele>
        <time>2015-06-28T07:12:17Z</time>
      </trkpt>
      <trkpt lat="44.74342" lon="5.49872">
        <ele>591.7</ele>
        <time>2015-06-28T07:12:25Z</time>
      </trkpt>
      <trkpt lat="44.74337" lon="5.49883">
        <ele>593.2</ele>
        <time>2015-06-28T07:12:37Z</time>
      </trkpt>
      <trkpt lat="44.74331" lon="5.49893">
        <ele>595.4</ele>
        <time>2015-06-28T07:12:49Z</time>
      </trkpt>
      <trkpt lat="44.74325" lon="5.49903">
        <ele>597.3</ele>
        <time>2015-06-28T07:12:59Z</time>
      </trkpt>
      <trkpt lat="44.74318" lon="5.49913">
        <ele>598.9</ele>
        <time>2015-06-28T07:13:07Z</time>
      </trkpt>
      <trkpt lat="44.74312" lon="5.49922">
        <ele>600.8</ele>
        <time>2015-06-28T07:13:15Z</time>
      </trkpt>
      <trkpt lat="44.74308" lon="5.49935">
        <ele>602.8</ele>
        <time>2015-06-28T07:13:25Z</time>
      </trkpt>
      <trkpt lat="44.74303" lon="5.49946">
        <ele>604.5</ele>
        <time>2015-06-28T07:13:34Z</time>
      </trkpt>
      <trkpt lat="44.74297" lon="5.49956">
        <ele>606</ele>
        <time>2015-06-28T07:13:45Z</time>
      </trkpt>
      <trkpt lat="44.74291" lon="5.49966">
        <ele>606.7</ele>
        <time>2015-06-28T07:13:57Z</time>
      </trkpt>
      <trkpt lat="44.74282" lon="5.4997">
        <ele>607</ele>
        <time>2015-06-28T07:14:05Z</time>
      </trkpt>
      <trkpt lat="44.74274" lon="5.49977">
        <ele>607.1</ele>
        <time>2015-06-28T07:14:13Z</time>
      </trkpt>
      <trkpt lat="44.74264" lon="5.49982">
        <ele>607.3</ele>
        <time>2015-06-28T07:14:22Z</time>
      </trkpt>
      <trkpt lat="44.74254" lon="5.49989">
        <ele>607.8</ele>
        <time>2015-06-28T07:14:30Z</time>
      </trkpt>
      <trkpt lat="44.74245" lon="5.49995">
        <ele>608.1</ele>
        <time>2015-06-28T07:14:35Z</time>
      </trkpt>
      <trkpt lat="44.74235" lon="5.49998">
        <ele>608.5</ele>
        <time>2015-06-28T07:14:42Z</time>
      </trkpt>
      <trkpt lat="44.74227" lon="5.50006">
        <ele>609.5</ele>
        <time>2015-06-28T07:14:51Z</time>
      </trkpt>
      <trkpt lat="44.74219" lon="5.50012">
        <ele>610.2</ele>
        <time>2015-06-28T07:14:58Z</time>
      </trkpt>
      <trkpt lat="44.74211" lon="5.50018">
        <ele>610.6</ele>
        <time>2015-06-28T07:15:04Z</time>
      </trkpt>
      <trkpt lat="44.74202" lon="5.50023">
        <ele>612</ele>
        <time>2015-06-28T07:15:17Z</time>
      </trkpt>
      <trkpt lat="44.74193" lon="5.50026">
        <ele>613</ele>
        <time>2015-06-28T07:15:25Z</time>
      </trkpt>
      <trkpt lat="44.74183" lon="5.50028">
        <ele>613.8</ele>
        <time>2015-06-28T07:15:33Z</time>
      </trkpt>
      <trkpt lat="44.74174" lon="5.50027">
        <ele>614.3</ele>
        <time>2015-06-28T07:15:39Z</time>
      </trkpt>
      <trkpt lat="44.74164" lon="5.5003">
        <ele>615.4</ele>
        <time>2015-06-28T07:15:47Z</time>
      </trkpt>
      <trkpt lat="44.74154" lon="5.50028">
        <ele>616.4</ele>
        <time>2015-06-28T07:15:55Z</time>
      </trkpt>
      <trkpt lat="44.74145" lon="5.50025">
        <ele>617.7</ele>
        <time>2015-06-28T07:16:06Z</time>
      </trkpt>
      <trkpt lat="44.74139" lon="5.50016">
        <ele>618.4</ele>
        <time>2015-06-28T07:16:13Z</time>
      </trkpt>
      <trkpt lat="44.7413" lon="5.50009">
        <ele>619</ele>
        <time>2015-06-28T07:16:20Z</time>
      </trkpt>
      <trkpt lat="44.74121" lon="5.50003">
        <ele>619.9</ele>
        <time>2015-06-28T07:16:29Z</time>
      </trkpt>
      <trkpt lat="44.74112" lon="5.49997">
        <ele>620.5</ele>
        <time>2015-06-28T07:16:36Z</time>
      </trkpt>
      <trkpt lat="44.74104" lon="5.4999">
        <ele>620.9</ele>
        <time>2015-06-28T07:16:43Z</time>
      </trkpt>
      <trkpt lat="44.74096" lon="5.49984">
        <ele>621.2</ele>
        <time>2015-06-28T07:16:52Z</time>
      </trkpt>
      <trkpt lat="44.74087" lon="5.49978">
        <ele>621.3</ele>
        <time>2015-06-28T07:16:58Z</time>
      </trkpt>
      <trkpt lat="44.74079" lon="5.49973">
        <ele>621.4</ele>
        <time>2015-06-28T07:17:05Z</time>
      </trkpt>
      <trkpt lat="44.74068" lon="5.4997">
        <ele>621.4</ele>
        <time>2015-06-28T07:17:15Z</time>
      </trkpt>
      <trkpt lat="44.74058" lon="5.4997">
        <ele>621.8</ele>
        <time>2015-06-28T07:17:23Z</time>
      </trkpt>
      <trkpt lat="44.7405" lon="5.49964">
        <ele>622.9</ele>
        <time>2015-06-28T07:17:34Z</time>
      </trkpt>
      <trkpt lat="44.74042" lon="5.49957">
        <ele>623.5</ele>
        <time>2015-06-28T07:17:39Z</time>
      </trkpt>
      <trkpt lat="44.74035" lon="5.4995">
        <ele>624.3</ele>
        <time>2015-06-28T07:17:46Z</time>
      </trkpt>
      <trkpt lat="44.74026" lon="5.49942">
        <ele>625.3</ele>
        <time>2015-06-28T07:17:58Z</time>
      </trkpt>
      <trkpt lat="44.74018" lon="5.49932">
        <ele>626.4</ele>
        <time>2015-06-28T07:18:05Z</time>
      </trkpt>
      <trkpt lat="44.74008" lon="5.49927">
        <ele>627.3</ele>
        <time>2015-06-28T07:18:12Z</time>
      </trkpt>
      <trkpt lat="44.74" lon="5.4992">
        <ele>628</ele>
        <time>2015-06-28T07:18:21Z</time>
      </trkpt>
      <trkpt lat="44.73991" lon="5.49913">
        <ele>628.4</ele>
        <time>2015-06-28T07:18:28Z</time>
      </trkpt>
      <trkpt lat="44.73983" lon="5.49904">
        <ele>629.2</ele>
        <time>2015-06-28T07:18:38Z</time>
      </trkpt>
      <trkpt lat="44.73975" lon="5.49898">
        <ele>629.9</ele>
        <time>2015-06-28T07:18:47Z</time>
      </trkpt>
      <trkpt lat="44.73968" lon="5.4989">
        <ele>630.7</ele>
        <time>2015-06-28T07:18:56Z</time>
      </trkpt>
      <trkpt lat="44.73959" lon="5.49884">
        <ele>631.5</ele>
        <time>2015-06-28T07:19:04Z</time>
      </trkpt>
      <trkpt lat="44.73949" lon="5.49883">
        <ele>632.5</ele>
        <time>2015-06-28T07:19:13Z</time>
      </trkpt>
      <trkpt lat="44.73943" lon="5.49872">
        <ele>633.4</ele>
        <time>2015-06-28T07:19:20Z</time>
      </trkpt>
      <trkpt lat="44.73934" lon="5.49866">
        <ele>633.7</ele>
        <time>2015-06-28T07:19:23Z</time>
      </trkpt>
      <trkpt lat="44.73926" lon="5.49861">
        <ele>634.6</ele>
        <time>2015-06-28T07:19:28Z</time>
      </trkpt>
      <trkpt lat="44.73917" lon="5.49853">
        <ele>635.4</ele>
        <time>2015-06-28T07:19:33Z</time>
      </trkpt>
      <trkpt lat="44.73909" lon="5.49845">
        <ele>636</ele>
        <time>2015-06-28T07:19:38Z</time>
      </trkpt>
      <trkpt lat="44.73901" lon="5.49837">
        <ele>636.7</ele>
        <time>2015-06-28T07:19:44Z</time>
      </trkpt>
      <trkpt lat="44.73893" lon="5.49829">
        <ele>637.2</ele>
        <time>2015-06-28T07:19:50Z</time>
      </trkpt>
      <trkpt lat="44.73884" lon="5.49824">
        <ele>637.7</ele>
        <time>2015-06-28T07:19:56Z</time>
      </trkpt>
      <trkpt lat="44.73875" lon="5.49816">
        <ele>638.4</ele>
        <time>2015-06-28T07:20:09Z</time>
      </trkpt>
      <trkpt lat="44.73869" lon="5.49806">
        <ele>638.8</ele>
        <time>2015-06-28T07:20:18Z</time>
      </trkpt>
      <trkpt lat="44.73864" lon="5.49796">
        <ele>639.4</ele>
        <time>2015-06-28T07:20:31Z</time>
      </trkpt>
      <trkpt lat="44.73857" lon="5.49788">
        <ele>639.6</ele>
        <time>2015-06-28T07:20:39Z</time>
      </trkpt>
      <trkpt lat="44.73847" lon="5.49786">
        <ele>639.7</ele>
        <time>2015-06-28T07:20:47Z</time>
      </trkpt>
      <trkpt lat="44.73837" lon="5.49784">
        <ele>640.4</ele>
        <time>2015-06-28T07:20:58Z</time>
      </trkpt>
      <trkpt lat="44.73829" lon="5.49777">
        <ele>640.7</ele>
        <time>2015-06-28T07:21:04Z</time>
      </trkpt>
      <trkpt lat="44.73821" lon="5.49773">
        <ele>641</ele>
        <time>2015-06-28T07:21:11Z</time>
      </trkpt>
      <trkpt lat="44.73812" lon="5.49766">
        <ele>641.2</ele>
        <time>2015-06-28T07:21:19Z</time>
      </trkpt>
      <trkpt lat="44.73803" lon="5.49761">
        <ele>641.3</ele>
        <time>2015-06-28T07:21:26Z</time>
      </trkpt>
      <trkpt lat="44.73794" lon="5.49755">
        <ele>641.4</ele>
        <time>2015-06-28T07:21:35Z</time>
      </trkpt>
      <trkpt lat="44.73785" lon="5.49749">
        <ele>641.7</ele>
        <time>2015-06-28T07:21:43Z</time>
      </trkpt>
      <trkpt lat="44.73777" lon="5.49754">
        <ele>643</ele>
        <time>2015-06-28T07:22:09Z</time>
      </trkpt>
      <trkpt lat="44.73772" lon="5.49765">
        <ele>645</ele>
        <time>2015-06-28T07:22:21Z</time>
      </trkpt>
      <trkpt lat="44.73765" lon="5.49774">
        <ele>646.4</ele>
        <time>2015-06-28T07:22:29Z</time>
      </trkpt>
      <trkpt lat="44.73756" lon="5.49778">
        <ele>647.6</ele>
        <time>2015-06-28T07:22:35Z</time>
      </trkpt>
      <trkpt lat="44.73747" lon="5.49782">
        <ele>648.9</ele>
        <time>2015-06-28T07:22:43Z</time>
      </trkpt>
      <trkpt lat="44.73743" lon="5.49771">
        <ele>654.1</ele>
        <time>2015-06-28T07:23:09Z</time>
      </trkpt>
      <trkpt lat="44.73737" lon="5.49761">
        <ele>659.3</ele>
        <time>2015-06-28T07:23:34Z</time>
      </trkpt>
      <trkpt lat="44.73734" lon="5.49749">
        <ele>662.8</ele>
        <time>2015-06-28T07:23:57Z</time>
      </trkpt>
      <trkpt lat="44.73739" lon="5.49738">
        <ele>663.4</ele>
        <time>2015-06-28T07:24:07Z</time>
      </trkpt>
      <trkpt lat="44.73743" lon="5.49726">
        <ele>664.1</ele>
        <time>2015-06-28T07:24:16Z</time>
      </trkpt>
      <trkpt lat="44.73745" lon="5.49714">
        <ele>664.8</ele>
        <time>2015-06-28T07:24:27Z</time>
      </trkpt>
      <trkpt lat="44.73746" lon="5.49701">
        <ele>665.4</ele>
        <time>2015-06-28T07:24:38Z</time>
      </trkpt>
      <trkpt lat="44.73751" lon="5.4969">
        <ele>667.4</ele>
        <time>2015-06-28T07:24:53Z</time>
      </trkpt>
      <trkpt lat="44.73758" lon="5.4968">
        <ele>667.9</ele>
        <time>2015-06-28T07:25:01Z</time>
      </trkpt>
      <trkpt lat="44.73767" lon="5.49681">
        <ele>668.1</ele>
        <time>2015-06-28T07:25:06Z</time>
      </trkpt>
      <trkpt lat="44.73777" lon="5.49686">
        <ele>668.2</ele>
        <time>2015-06-28T07:25:11Z</time>
      </trkpt>
      <trkpt lat="44.73786" lon="5.49689">
        <ele>668.3</ele>
        <time>2015-06-28T07:25:17Z</time>
      </trkpt>
      <trkpt lat="44.73795" lon="5.49693">
        <ele>668.4</ele>
        <time>2015-06-28T07:25:26Z</time>
      </trkpt>
      <trkpt lat="44.73804" lon="5.49697">
        <ele>668.5</ele>
        <time>2015-06-28T07:25:36Z</time>
      </trkpt>
      <trkpt lat="44.73814" lon="5.497">
        <ele>668.7</ele>
        <time>2015-06-28T07:25:45Z</time>
      </trkpt>
      <trkpt lat="44.73823" lon="5.49702">
        <ele>668.8</ele>
        <time>2015-06-28T07:25:51Z</time>
      </trkpt>
      <trkpt lat="44.73833" lon="5.49705">
        <ele>669.4</ele>
        <time>2015-06-28T07:26:00Z</time>
      </trkpt>
      <trkpt lat="44.73842" lon="5.49703">
        <ele>669.8</ele>
        <time>2015-06-28T07:26:08Z</time>
      </trkpt>
      <trkpt lat="44.73852" lon="5.49701">
        <ele>670.3</ele>
        <time>2015-06-28T07:26:14Z</time>
      </trkpt>
      <trkpt lat="44.7386" lon="5.49696">
        <ele>671</ele>
        <time>2015-06-28T07:26:21Z</time>
      </trkpt>
      <trkpt lat="44.7387" lon="5.49698">
        <ele>672.1</ele>
        <time>2015-06-28T07:26:30Z</time>
      </trkpt>
      <trkpt lat="44.73878" lon="5.49704">
        <ele>672.7</ele>
        <time>2015-06-28T07:26:37Z</time>
      </trkpt>
      <trkpt lat="44.73888" lon="5.4971">
        <ele>673.2</ele>
        <time>2015-06-28T07:26:45Z</time>
      </trkpt>
      <trkpt lat="44.73897" lon="5.49712">
        <ele>673.7</ele>
        <time>2015-06-28T07:26:53Z</time>
      </trkpt>
      <trkpt lat="44.73906" lon="5.49713">
        <ele>674.5</ele>
        <time>2015-06-28T07:27:00Z</time>
      </trkpt>
      <trkpt lat="44.73916" lon="5.49714">
        <ele>675.2</ele>
        <time>2015-06-28T07:27:08Z</time>
      </trkpt>
      <trkpt lat="44.73926" lon="5.49716">
        <ele>676.2</ele>
        <time>2015-06-28T07:27:18Z</time>
      </trkpt>
      <trkpt lat="44.73934" lon="5.49723">
        <ele>677</ele>
        <time>2015-06-28T07:27:25Z</time>
      </trkpt>
      <trkpt lat="44.73943" lon="5.49728">
        <ele>677.8</ele>
        <time>2015-06-28T07:27:31Z</time>
      </trkpt>
      <trkpt lat="44.73952" lon="5.49734">
        <ele>678.7</ele>
        <time>2015-06-28T07:27:40Z</time>
      </trkpt>
      <trkpt lat="44.73962" lon="5.49738">
        <ele>679.3</ele>
        <time>2015-06-28T07:27:48Z</time>
      </trkpt>
      <trkpt lat="44.73971" lon="5.49741">
        <ele>679.8</ele>
        <time>2015-06-28T07:27:55Z</time>
      </trkpt>
      <trkpt lat="44.7398" lon="5.49745">
        <ele>680.1</ele>
        <time>2015-06-28T07:28:03Z</time>
      </trkpt>
      <trkpt lat="44.73989" lon="5.49748">
        <ele>680.3</ele>
        <time>2015-06-28T07:28:11Z</time>
      </trkpt>
      <trkpt lat="44.73998" lon="5.49751">
        <ele>681.1</ele>
        <time>2015-06-28T07:28:18Z</time>
      </trkpt>
      <trkpt lat="44.74007" lon="5.49757">
        <ele>681.9</ele>
        <time>2015-06-28T07:28:25Z</time>
      </trkpt>
      <trkpt lat="44.74015" lon="5.49764">
        <ele>682.7</ele>
        <time>2015-06-28T07:28:32Z</time>
      </trkpt>
      <trkpt lat="44.74024" lon="5.49769">
        <ele>683.2</ele>
        <time>2015-06-28T07:28:38Z</time>
      </trkpt>
      <trkpt lat="44.74032" lon="5.49774">
        <ele>683.8</ele>
        <time>2015-06-28T07:28:45Z</time>
      </trkpt>
      <trkpt lat="44.74042" lon="5.49776">
        <ele>684.4</ele>
        <time>2015-06-28T07:28:52Z</time>
      </trkpt>
      <trkpt lat="44.7405" lon="5.49782">
        <ele>685</ele>
        <time>2015-06-28T07:29:01Z</time>
      </trkpt>
      <trkpt lat="44.74059" lon="5.49784">
        <ele>685.4</ele>
        <time>2015-06-28T07:29:09Z</time>
      </trkpt>
      <trkpt lat="44.74068" lon="5.49784">
        <ele>685.8</ele>
        <time>2015-06-28T07:29:17Z</time>
      </trkpt>
      <trkpt lat="44.74077" lon="5.49776">
        <ele>686.8</ele>
        <time>2015-06-28T07:29:27Z</time>
      </trkpt>
      <trkpt lat="44.74086" lon="5.49772">
        <ele>687.4</ele>
        <time>2015-06-28T07:29:35Z</time>
      </trkpt>
      <trkpt lat="44.74095" lon="5.49769">
        <ele>687.9</ele>
        <time>2015-06-28T07:29:42Z</time>
      </trkpt>
      <trkpt lat="44.74103" lon="5.49763">
        <ele>688.7</ele>
        <time>2015-06-28T07:29:50Z</time>
      </trkpt>
      <trkpt lat="44.7411" lon="5.49755">
        <ele>689.2</ele>
        <time>2015-06-28T07:29:57Z</time>
      </trkpt>
      <trkpt lat="44.74119" lon="5.49747">
        <ele>689.9</ele>
        <time>2015-06-28T07:30:05Z</time>
      </trkpt>
      <trkpt lat="44.74129" lon="5.49741">
        <ele>690.5</ele>
        <time>2015-06-28T07:30:11Z</time>
      </trkpt>
      <trkpt lat="44.74136" lon="5.49731">
        <ele>691.3</ele>
        <time>2015-06-28T07:30:20Z</time>
      </trkpt>
      <trkpt lat="44.74144" lon="5.49722">
        <ele>692</ele>
        <time>2015-06-28T07:30:27Z</time>
      </trkpt>
      <trkpt lat="44.7415" lon="5.49712">
        <ele>692.8</ele>
        <time>2015-06-28T07:30:35Z</time>
      </trkpt>
      <trkpt lat="44.74158" lon="5.49702">
        <ele>693.6</ele>
        <time>2015-06-28T07:30:43Z</time>
      </trkpt>
      <trkpt lat="44.74163" lon="5.49691">
        <ele>694.4</ele>
        <time>2015-06-28T07:30:53Z</time>
      </trkpt>
      <trkpt lat="44.74166" lon="5.49679">
        <ele>695.4</ele>
        <time>2015-06-28T07:31:05Z</time>
      </trkpt>
      <trkpt lat="44.74163" lon="5.49666">
        <ele>696.4</ele>
        <time>2015-06-28T07:31:15Z</time>
      </trkpt>
      <trkpt lat="44.7416" lon="5.49653">
        <ele>697.4</ele>
        <time>2015-06-28T07:31:23Z</time>
      </trkpt>
      <trkpt lat="44.74158" lon="5.49639">
        <ele>698.6</ele>
        <time>2015-06-28T07:31:33Z</time>
      </trkpt>
      <trkpt lat="44.74155" lon="5.49625">
        <ele>699.5</ele>
        <time>2015-06-28T07:31:41Z</time>
      </trkpt>
      <trkpt lat="44.74154" lon="5.49611">
        <ele>700.4</ele>
        <time>2015-06-28T07:31:48Z</time>
      </trkpt>
      <trkpt lat="44.74152" lon="5.49598">
        <ele>701.5</ele>
        <time>2015-06-28T07:31:57Z</time>
      </trkpt>
      <trkpt lat="44.74155" lon="5.49586">
        <ele>701.9</ele>
        <time>2015-06-28T07:32:11Z</time>
      </trkpt>
      <trkpt lat="44.74147" lon="5.49581">
        <ele>703.5</ele>
        <time>2015-06-28T07:33:55Z</time>
      </trkpt>
      <trkpt lat="44.74151" lon="5.4957">
        <ele>704.9</ele>
        <time>2015-06-28T07:34:05Z</time>
      </trkpt>
      <trkpt lat="44.74157" lon="5.4956">
        <ele>706.2</ele>
        <time>2015-06-28T07:34:14Z</time>
      </trkpt>
      <trkpt lat="44.74164" lon="5.49551">
        <ele>707.3</ele>
        <time>2015-06-28T07:34:23Z</time>
      </trkpt>
      <trkpt lat="44.7417" lon="5.49539">
        <ele>708.6</ele>
        <time>2015-06-28T07:34:32Z</time>
      </trkpt>
      <trkpt lat="44.74174" lon="5.49526">
        <ele>710.1</ele>
        <time>2015-06-28T07:34:42Z</time>
      </trkpt>
      <trkpt lat="44.74176" lon="5.49513">
        <ele>711.6</ele>
        <time>2015-06-28T07:34:51Z</time>
      </trkpt>
      <trkpt lat="44.74181" lon="5.49501">
        <ele>713</ele>
        <time>2015-06-28T07:35:02Z</time>
      </trkpt>
      <trkpt lat="44.74184" lon="5.49488">
        <ele>714.4</ele>
        <time>2015-06-28T07:35:13Z</time>
      </trkpt>
      <trkpt lat="44.74186" lon="5.49475">
        <ele>716.9</ele>
        <time>2015-06-28T07:35:28Z</time>
      </trkpt>
      <trkpt lat="44.7419" lon="5.49463">
        <ele>720.5</ele>
        <time>2015-06-28T07:35:46Z</time>
      </trkpt>
      <trkpt lat="44.74187" lon="5.4945">
        <ele>722.8</ele>
        <time>2015-06-28T07:35:56Z</time>
      </trkpt>
      <trkpt lat="44.74193" lon="5.4944">
        <ele>726.7</ele>
        <time>2015-06-28T07:36:12Z</time>
      </trkpt>
      <trkpt lat="44.74195" lon="5.49427">
        <ele>729.3</ele>
        <time>2015-06-28T07:36:24Z</time>
      </trkpt>
      <trkpt lat="44.74202" lon="5.49419">
        <ele>733.2</ele>
        <time>2015-06-28T07:36:41Z</time>
      </trkpt>
      <trkpt lat="44.74208" lon="5.49409">
        <ele>736.6</ele>
        <time>2015-06-28T07:37:00Z</time>
      </trkpt>
      <trkpt lat="44.74216" lon="5.49404">
        <ele>738.9</ele>
        <time>2015-06-28T07:37:12Z</time>
      </trkpt>
      <trkpt lat="44.74221" lon="5.49393">
        <ele>743.9</ele>
        <time>2015-06-28T07:37:40Z</time>
      </trkpt>
      <trkpt lat="44.74221" lon="5.4938">
        <ele>747.5</ele>
        <time>2015-06-28T07:38:01Z</time>
      </trkpt>
      <trkpt lat="44.74226" lon="5.49369">
        <ele>753</ele>
        <time>2015-06-28T07:38:33Z</time>
      </trkpt>
      <trkpt lat="44.74231" lon="5.49358">
        <ele>756.8</ele>
        <time>2015-06-28T07:38:56Z</time>
      </trkpt>
      <trkpt lat="44.74233" lon="5.49345">
        <ele>759.6</ele>
        <time>2015-06-28T07:39:14Z</time>
      </trkpt>
      <trkpt lat="44.74236" lon="5.49333">
        <ele>762.2</ele>
        <time>2015-06-28T07:39:27Z</time>
      </trkpt>
      <trkpt lat="44.74244" lon="5.49324">
        <ele>766.2</ele>
        <time>2015-06-28T07:39:48Z</time>
      </trkpt>
      <trkpt lat="44.74253" lon="5.49321">
        <ele>768.5</ele>
        <time>2015-06-28T07:40:01Z</time>
      </trkpt>
      <trkpt lat="44.74257" lon="5.49309">
        <ele>771</ele>
        <time>2015-06-28T07:40:15Z</time>
      </trkpt>
      <trkpt lat="44.74263" lon="5.49298">
        <ele>774.1</ele>
        <time>2015-06-28T07:40:31Z</time>
      </trkpt>
      <trkpt lat="44.74267" lon="5.49286">
        <ele>777</ele>
        <time>2015-06-28T07:40:48Z</time>
      </trkpt>
      <trkpt lat="44.74271" lon="5.49274">
        <ele>779.2</ele>
        <time>2015-06-28T07:41:01Z</time>
      </trkpt>
      <trkpt lat="44.74277" lon="5.49263">
        <ele>781.8</ele>
        <time>2015-06-28T07:41:16Z</time>
      </trkpt>
      <trkpt lat="44.74284" lon="5.49254">
        <ele>784.9</ele>
        <time>2015-06-28T07:41:34Z</time>
      </trkpt>
      <trkpt lat="44.74289" lon="5.49243">
        <ele>787.1</ele>
        <time>2015-06-28T07:41:47Z</time>
      </trkpt>
      <trkpt lat="44.74293" lon="5.49231">
        <ele>789</ele>
        <time>2015-06-28T07:41:59Z</time>
      </trkpt>
      <trkpt lat="44.74297" lon="5.49219">
        <ele>791.2</ele>
        <time>2015-06-28T07:42:12Z</time>
      </trkpt>
      <trkpt lat="44.74306" lon="5.49213">
        <ele>792.7</ele>
        <time>2015-06-28T07:42:22Z</time>
      </trkpt>
      <trkpt lat="44.7431" lon="5.49201">
        <ele>795.2</ele>
        <time>2015-06-28T07:42:37Z</time>
      </trkpt>
      <trkpt lat="44.74314" lon="5.49189">
        <ele>798.5</ele>
        <time>2015-06-28T07:42:53Z</time>
      </trkpt>
      <trkpt lat="44.7432" lon="5.49179">
        <ele>802.7</ele>
        <time>2015-06-28T07:43:14Z</time>
      </trkpt>
      <trkpt lat="44.74317" lon="5.49166">
        <ele>805.8</ele>
        <time>2015-06-28T07:45:36Z</time>
      </trkpt>
      <trkpt lat="44.74319" lon="5.49154">
        <ele>806</ele>
        <time>2015-06-28T07:45:46Z</time>
      </trkpt>
      <trkpt lat="44.74324" lon="5.49143">
        <ele>807.7</ele>
        <time>2015-06-28T07:45:58Z</time>
      </trkpt>
      <trkpt lat="44.74328" lon="5.4913">
        <ele>809.2</ele>
        <time>2015-06-28T07:46:08Z</time>
      </trkpt>
      <trkpt lat="44.74332" lon="5.49119">
        <ele>810.8</ele>
        <time>2015-06-28T07:46:17Z</time>
      </trkpt>
      <trkpt lat="44.74337" lon="5.49108">
        <ele>813.3</ele>
        <time>2015-06-28T07:46:28Z</time>
      </trkpt>
      <trkpt lat="44.74345" lon="5.49103">
        <ele>815.9</ele>
        <time>2015-06-28T07:46:40Z</time>
      </trkpt>
      <trkpt lat="44.74347" lon="5.4909">
        <ele>818.9</ele>
        <time>2015-06-28T07:46:54Z</time>
      </trkpt>
      <trkpt lat="44.74354" lon="5.49082">
        <ele>821.4</ele>
        <time>2015-06-28T07:47:05Z</time>
      </trkpt>
      <trkpt lat="44.74356" lon="5.4907">
        <ele>824.5</ele>
        <time>2015-06-28T07:47:18Z</time>
      </trkpt>
      <trkpt lat="44.74362" lon="5.49059">
        <ele>827.4</ele>
        <time>2015-06-28T07:47:30Z</time>
      </trkpt>
      <trkpt lat="44.74362" lon="5.49046">
        <ele>830.7</ele>
        <time>2015-06-28T07:47:44Z</time>
      </trkpt>
      <trkpt lat="44.74366" lon="5.49034">
        <ele>834.5</ele>
        <time>2015-06-28T07:47:58Z</time>
      </trkpt>
      <trkpt lat="44.74371" lon="5.49023">
        <ele>838.1</ele>
        <time>2015-06-28T07:48:11Z</time>
      </trkpt>
      <trkpt lat="44.74379" lon="5.49017">
        <ele>841</ele>
        <time>2015-06-28T07:48:22Z</time>
      </trkpt>
      <trkpt lat="44.74384" lon="5.49006">
        <ele>844.9</ele>
        <time>2015-06-28T07:48:38Z</time>
      </trkpt>
      <trkpt lat="44.74387" lon="5.48994">
        <ele>848.2</ele>
        <time>2015-06-28T07:48:52Z</time>
      </trkpt>
      <trkpt lat="44.74392" lon="5.48982">
        <ele>852</ele>
        <time>2015-06-28T07:49:07Z</time>
      </trkpt>
      <trkpt lat="44.74397" lon="5.4897">
        <ele>855.3</ele>
        <time>2015-06-28T07:49:20Z</time>
      </trkpt>
      <trkpt lat="44.74401" lon="5.48958">
        <ele>859</ele>
        <time>2015-06-28T07:49:34Z</time>
      </trkpt>
      <trkpt lat="44.74405" lon="5.48947">
        <ele>862.4</ele>
        <time>2015-06-28T07:49:48Z</time>
      </trkpt>
      <trkpt lat="44.7441" lon="5.48935">
        <ele>867</ele>
        <time>2015-06-28T07:50:04Z</time>
      </trkpt>
      <trkpt lat="44.74414" lon="5.48924">
        <ele>871.3</ele>
        <time>2015-06-28T07:50:21Z</time>
      </trkpt>
      <trkpt lat="44.74419" lon="5.48912">
        <ele>874.9</ele>
        <time>2015-06-28T07:50:35Z</time>
      </trkpt>
      <trkpt lat="44.74424" lon="5.489">
        <ele>879.1</ele>
        <time>2015-06-28T07:50:52Z</time>
      </trkpt>
      <trkpt lat="44.74431" lon="5.48892">
        <ele>881.7</ele>
        <time>2015-06-28T07:51:02Z</time>
      </trkpt>
      <trkpt lat="44.74438" lon="5.48883">
        <ele>884.8</ele>
        <time>2015-06-28T07:51:14Z</time>
      </trkpt>
      <trkpt lat="44.74446" lon="5.48874">
        <ele>887.5</ele>
        <time>2015-06-28T07:51:25Z</time>
      </trkpt>
      <trkpt lat="44.74453" lon="5.48866">
        <ele>889</ele>
        <time>2015-06-28T07:51:32Z</time>
      </trkpt>
      <trkpt lat="44.74461" lon="5.48858">
        <ele>892.1</ele>
        <time>2015-06-28T07:51:50Z</time>
      </trkpt>
      <trkpt lat="44.74467" lon="5.48849">
        <ele>894.5</ele>
        <time>2015-06-28T07:52:03Z</time>
      </trkpt>
      <trkpt lat="44.74476" lon="5.48842">
        <ele>898.7</ele>
        <time>2015-06-28T07:52:24Z</time>
      </trkpt>
      <trkpt lat="44.74483" lon="5.48833">
        <ele>900.1</ele>
        <time>2015-06-28T07:52:31Z</time>
      </trkpt>
      <trkpt lat="44.74491" lon="5.48825">
        <ele>901.6</ele>
        <time>2015-06-28T07:52:42Z</time>
      </trkpt>
      <trkpt lat="44.74499" lon="5.48818">
        <ele>902.3</ele>
        <time>2015-06-28T07:52:50Z</time>
      </trkpt>
      <trkpt lat="44.74508" lon="5.4882">
        <ele>903.5</ele>
        <time>2015-06-28T07:53:06Z</time>
      </trkpt>
      <trkpt lat="44.74518" lon="5.48818">
        <ele>905.4</ele>
        <time>2015-06-28T07:53:24Z</time>
      </trkpt>
      <trkpt lat="44.74527" lon="5.48817">
        <ele>908.2</ele>
        <time>2015-06-28T07:53:40Z</time>
      </trkpt>
      <trkpt lat="44.74537" lon="5.48819">
        <ele>910.3</ele>
        <time>2015-06-28T07:53:49Z</time>
      </trkpt>
      <trkpt lat="44.74546" lon="5.48821">
        <ele>912</ele>
        <time>2015-06-28T07:54:03Z</time>
      </trkpt>
      <trkpt lat="44.74556" lon="5.48824">
        <ele>913.4</ele>
        <time>2015-06-28T07:54:14Z</time>
      </trkpt>
      <trkpt lat="44.74564" lon="5.48829">
        <ele>914.6</ele>
        <time>2015-06-28T07:54:22Z</time>
      </trkpt>
      <trkpt lat="44.74574" lon="5.48828">
        <ele>915.5</ele>
        <time>2015-06-28T07:54:29Z</time>
      </trkpt>
      <trkpt lat="44.74584" lon="5.48829">
        <ele>917</ele>
        <time>2015-06-28T07:54:38Z</time>
      </trkpt>
      <trkpt lat="44.74593" lon="5.48834">
        <ele>919</ele>
        <time>2015-06-28T07:54:52Z</time>
      </trkpt>
      <trkpt lat="44.74601" lon="5.48839">
        <ele>922.7</ele>
        <time>2015-06-28T07:55:10Z</time>
      </trkpt>
      <trkpt lat="44.7461" lon="5.48846">
        <ele>926.3</ele>
        <time>2015-06-28T07:55:28Z</time>
      </trkpt>
      <trkpt lat="44.74619" lon="5.48843">
        <ele>929.4</ele>
        <time>2015-06-28T07:55:43Z</time>
      </trkpt>
      <trkpt lat="44.74629" lon="5.48843">
        <ele>932.2</ele>
        <time>2015-06-28T07:55:57Z</time>
      </trkpt>
      <trkpt lat="44.74639" lon="5.4884">
        <ele>933.9</ele>
        <time>2015-06-28T07:56:06Z</time>
      </trkpt>
      <trkpt lat="44.74647" lon="5.48835">
        <ele>939.9</ele>
        <time>2015-06-28T07:56:38Z</time>
      </trkpt>
      <trkpt lat="44.74651" lon="5.48823">
        <ele>944.6</ele>
        <time>2015-06-28T07:57:04Z</time>
      </trkpt>
      <trkpt lat="44.74659" lon="5.48818">
        <ele>947</ele>
        <time>2015-06-28T07:57:18Z</time>
      </trkpt>
      <trkpt lat="44.74669" lon="5.48813">
        <ele>949</ele>
        <time>2015-06-28T07:57:30Z</time>
      </trkpt>
      <trkpt lat="44.74677" lon="5.48806">
        <ele>951.6</ele>
        <time>2015-06-28T07:57:44Z</time>
      </trkpt>
      <trkpt lat="44.74685" lon="5.48797">
        <ele>953.3</ele>
        <time>2015-06-28T07:57:57Z</time>
      </trkpt>
      <trkpt lat="44.7469" lon="5.48786">
        <ele>953.9</ele>
        <time>2015-06-28T07:58:05Z</time>
      </trkpt>
      <trkpt lat="44.74694" lon="5.48772">
        <ele>954.7</ele>
        <time>2015-06-28T07:58:19Z</time>
      </trkpt>
      <trkpt lat="44.74693" lon="5.48759">
        <ele>956.1</ele>
        <time>2015-06-28T07:58:30Z</time>
      </trkpt>
      <trkpt lat="44.74696" lon="5.48747">
        <ele>958</ele>
        <time>2015-06-28T07:58:46Z</time>
      </trkpt>
      <trkpt lat="44.74698" lon="5.48734">
        <ele>960.4</ele>
        <time>2015-06-28T07:59:05Z</time>
      </trkpt>
      <trkpt lat="44.74707" lon="5.48735">
        <ele>962.2</ele>
        <time>2015-06-28T07:59:27Z</time>
      </trkpt>
      <trkpt lat="44.74717" lon="5.48736">
        <ele>962.6</ele>
        <time>2015-06-28T07:59:36Z</time>
      </trkpt>
      <trkpt lat="44.74727" lon="5.48738">
        <ele>963.1</ele>
        <time>2015-06-28T07:59:52Z</time>
      </trkpt>
      <trkpt lat="44.74736" lon="5.48737">
        <ele>963.3</ele>
        <time>2015-06-28T07:59:57Z</time>
      </trkpt>
      <trkpt lat="44.74745" lon="5.48736">
        <ele>963.7</ele>
        <time>2015-06-28T08:00:06Z</time>
      </trkpt>
      <trkpt lat="44.74752" lon="5.48745">
        <ele>964.1</ele>
        <time>2015-06-28T08:00:31Z</time>
      </trkpt>
      <trkpt lat="44.74761" lon="5.48743">
        <ele>966.4</ele>
        <time>2015-06-28T08:00:53Z</time>
      </trkpt>
      <trkpt lat="44.7477" lon="5.48748">
        <ele>971.4</ele>
        <time>2015-06-28T08:01:24Z</time>
      </trkpt>
      <trkpt lat="44.74779" lon="5.48749">
        <ele>973.5</ele>
        <time>2015-06-28T08:01:39Z</time>
      </trkpt>
      <trkpt lat="44.74787" lon="5.48756">
        <ele>974.2</ele>
        <time>2015-06-28T08:01:44Z</time>
      </trkpt>
      <trkpt lat="44.74795" lon="5.48761">
        <ele>975.3</ele>
        <time>2015-06-28T08:01:52Z</time>
      </trkpt>
      <trkpt lat="44.74805" lon="5.48762">
        <ele>977</ele>
        <time>2015-06-28T08:02:06Z</time>
      </trkpt>
      <trkpt lat="44.74813" lon="5.48767">
        <ele>977.9</ele>
        <time>2015-06-28T08:02:16Z</time>
      </trkpt>
      <trkpt lat="44.74823" lon="5.48765">
        <ele>980</ele>
        <time>2015-06-28T08:02:31Z</time>
      </trkpt>
      <trkpt lat="44.74831" lon="5.48759">
        <ele>981.2</ele>
        <time>2015-06-28T08:02:43Z</time>
      </trkpt>
      <trkpt lat="44.74839" lon="5.48755">
        <ele>983.2</ele>
        <time>2015-06-28T08:02:58Z</time>
      </trkpt>
      <trkpt lat="44.74848" lon="5.48753">
        <ele>985</ele>
        <time>2015-06-28T08:03:10Z</time>
      </trkpt>
      <trkpt lat="44.74857" lon="5.48748">
        <ele>986.2</ele>
        <time>2015-06-28T08:03:19Z</time>
      </trkpt>
      <trkpt lat="44.74866" lon="5.48743">
        <ele>987.1</ele>
        <time>2015-06-28T08:03:27Z</time>
      </trkpt>
      <trkpt lat="44.7487" lon="5.48731">
        <ele>988.7</ele>
        <time>2015-06-28T08:03:40Z</time>
      </trkpt>
      <trkpt lat="44.74874" lon="5.48719">
        <ele>989.7</ele>
        <time>2015-06-28T08:03:49Z</time>
      </trkpt>
      <trkpt lat="44.7488" lon="5.48707">
        <ele>990.7</ele>
        <time>2015-06-28T08:03:57Z</time>
      </trkpt>
      <trkpt lat="44.7488" lon="5.48694">
        <ele>991.7</ele>
        <time>2015-06-28T08:04:07Z</time>
      </trkpt>
      <trkpt lat="44.74881" lon="5.48681">
        <ele>993.4</ele>
        <time>2015-06-28T08:04:21Z</time>
      </trkpt>
      <trkpt lat="44.74885" lon="5.48668">
        <ele>995.2</ele>
        <time>2015-06-28T08:04:33Z</time>
      </trkpt>
      <trkpt lat="44.74889" lon="5.48657">
        <ele>996.8</ele>
        <time>2015-06-28T08:04:45Z</time>
      </trkpt>
      <trkpt lat="44.74898" lon="5.48654">
        <ele>997.8</ele>
        <time>2015-06-28T08:04:57Z</time>
      </trkpt>
      <trkpt lat="44.74891" lon="5.48646">
        <ele>998.8</ele>
        <time>2015-06-28T08:06:23Z</time>
      </trkpt>
      <trkpt lat="44.74888" lon="5.48634">
        <ele>998.8</ele>
        <time>2015-06-28T08:06:37Z</time>
      </trkpt>
      <trkpt lat="44.74885" lon="5.48622">
        <ele>999.5</ele>
        <time>2015-06-28T08:06:57Z</time>
      </trkpt>
      <trkpt lat="44.7489" lon="5.48612">
        <ele>1001.7</ele>
        <time>2015-06-28T08:07:38Z</time>
      </trkpt>
      <trkpt lat="44.74899" lon="5.48615">
        <ele>1002.8</ele>
        <time>2015-06-28T08:07:47Z</time>
      </trkpt>
      <trkpt lat="44.74911" lon="5.4862">
        <ele>1003.4</ele>
        <time>2015-06-28T08:07:51Z</time>
      </trkpt>
      <trkpt lat="44.7492" lon="5.48623">
        <ele>1005.4</ele>
        <time>2015-06-28T08:08:12Z</time>
      </trkpt>
      <trkpt lat="44.74929" lon="5.48624">
        <ele>1008.6</ele>
        <time>2015-06-28T08:08:31Z</time>
      </trkpt>
      <trkpt lat="44.74938" lon="5.48624">
        <ele>1010.1</ele>
        <time>2015-06-28T08:08:39Z</time>
      </trkpt>
      <trkpt lat="44.74948" lon="5.48623">
        <ele>1012</ele>
        <time>2015-06-28T08:08:51Z</time>
      </trkpt>
      <trkpt lat="44.74957" lon="5.4862">
        <ele>1014.2</ele>
        <time>2015-06-28T08:09:05Z</time>
      </trkpt>
      <trkpt lat="44.74963" lon="5.48609">
        <ele>1016.4</ele>
        <time>2015-06-28T08:09:19Z</time>
      </trkpt>
      <trkpt lat="44.74966" lon="5.48597">
        <ele>1019</ele>
        <time>2015-06-28T08:09:30Z</time>
      </trkpt>
      <trkpt lat="44.74972" lon="5.48588">
        <ele>1022.6</ele>
        <time>2015-06-28T08:09:46Z</time>
      </trkpt>
      <trkpt lat="44.74977" lon="5.48576">
        <ele>1025.1</ele>
        <time>2015-06-28T08:10:00Z</time>
      </trkpt>
      <trkpt lat="44.74981" lon="5.48563">
        <ele>1027.3</ele>
        <time>2015-06-28T08:10:15Z</time>
      </trkpt>
      <trkpt lat="44.74987" lon="5.48553">
        <ele>1029.9</ele>
        <time>2015-06-28T08:10:30Z</time>
      </trkpt>
      <trkpt lat="44.74994" lon="5.48546">
        <ele>1033.8</ele>
        <time>2015-06-28T08:11:05Z</time>
      </trkpt>
      <trkpt lat="44.7499" lon="5.48534">
        <ele>1035</ele>
        <time>2015-06-28T08:11:45Z</time>
      </trkpt>
      <trkpt lat="44.74987" lon="5.48521">
        <ele>1035.4</ele>
        <time>2015-06-28T08:11:57Z</time>
      </trkpt>
      <trkpt lat="44.74984" lon="5.48509">
        <ele>1036.5</ele>
        <time>2015-06-28T08:12:08Z</time>
      </trkpt>
      <trkpt lat="44.74983" lon="5.48496">
        <ele>1037.8</ele>
        <time>2015-06-28T08:12:22Z</time>
      </trkpt>
      <trkpt lat="44.74985" lon="5.48484">
        <ele>1040</ele>
        <time>2015-06-28T08:12:37Z</time>
      </trkpt>
      <trkpt lat="44.74993" lon="5.48475">
        <ele>1042.2</ele>
        <time>2015-06-28T08:12:51Z</time>
      </trkpt>
      <trkpt lat="44.74999" lon="5.48465">
        <ele>1043.5</ele>
        <time>2015-06-28T08:13:01Z</time>
      </trkpt>
      <trkpt lat="44.75004" lon="5.48453">
        <ele>1045.6</ele>
        <time>2015-06-28T08:13:14Z</time>
      </trkpt>
      <trkpt lat="44.75009" lon="5.48442">
        <ele>1047.7</ele>
        <time>2015-06-28T08:13:27Z</time>
      </trkpt>
      <trkpt lat="44.75014" lon="5.48431">
        <ele>1049</ele>
        <time>2015-06-28T08:13:37Z</time>
      </trkpt>
      <trkpt lat="44.75017" lon="5.48419">
        <ele>1051.3</ele>
        <time>2015-06-28T08:13:58Z</time>
      </trkpt>
      <trkpt lat="44.75021" lon="5.48407">
        <ele>1052.6</ele>
        <time>2015-06-28T08:14:07Z</time>
      </trkpt>
      <trkpt lat="44.75028" lon="5.48399">
        <ele>1054.7</ele>
        <time>2015-06-28T08:14:21Z</time>
      </trkpt>
      <trkpt lat="44.75035" lon="5.48391">
        <ele>1057.4</ele>
        <time>2015-06-28T08:14:40Z</time>
      </trkpt>
      <trkpt lat="44.75041" lon="5.48382">
        <ele>1059.5</ele>
        <time>2015-06-28T08:14:56Z</time>
      </trkpt>
      <trkpt lat="44.75048" lon="5.48374">
        <ele>1061.6</ele>
        <time>2015-06-28T08:15:08Z</time>
      </trkpt>
      <trkpt lat="44.7505" lon="5.4836">
        <ele>1063.7</ele>
        <time>2015-06-28T08:15:22Z</time>
      </trkpt>
      <trkpt lat="44.75056" lon="5.48352">
        <ele>1067.3</ele>
        <time>2015-06-28T08:15:41Z</time>
      </trkpt>
      <trkpt lat="44.75063" lon="5.48343">
        <ele>1068.8</ele>
        <time>2015-06-28T08:15:53Z</time>
      </trkpt>
      <trkpt lat="44.75069" lon="5.48333">
        <ele>1071.2</ele>
        <time>2015-06-28T08:16:09Z</time>
      </trkpt>
      <trkpt lat="44.75078" lon="5.48327">
        <ele>1072.7</ele>
        <time>2015-06-28T08:16:20Z</time>
      </trkpt>
      <trkpt lat="44.75084" lon="5.48316">
        <ele>1074.5</ele>
        <time>2015-06-28T08:16:32Z</time>
      </trkpt>
      <trkpt lat="44.75084" lon="5.48303">
        <ele>1077</ele>
        <time>2015-06-28T08:16:48Z</time>
      </trkpt>
      <trkpt lat="44.75085" lon="5.4829">
        <ele>1078.8</ele>
        <time>2015-06-28T08:17:00Z</time>
      </trkpt>
      <trkpt lat="44.75087" lon="5.48277">
        <ele>1082.9</ele>
        <time>2015-06-28T08:17:33Z</time>
      </trkpt>
      <trkpt lat="44.75092" lon="5.48266">
        <ele>1084.8</ele>
        <time>2015-06-28T08:17:54Z</time>
      </trkpt>
      <trkpt lat="44.75101" lon="5.48263">
        <ele>1084.9</ele>
        <time>2015-06-28T08:18:12Z</time>
      </trkpt>
      <trkpt lat="44.75111" lon="5.48269">
        <ele>1084.7</ele>
        <time>2015-06-28T08:18:20Z</time>
      </trkpt>
      <trkpt lat="44.75119" lon="5.48263">
        <ele>1084.2</ele>
        <time>2015-06-28T08:18:34Z</time>
      </trkpt>
      <trkpt lat="44.7513" lon="5.48261">
        <ele>1083.8</ele>
        <time>2015-06-28T08:18:44Z</time>
      </trkpt>
      <trkpt lat="44.75139" lon="5.48258">
        <ele>1083.8</ele>
        <time>2015-06-28T08:19:02Z</time>
      </trkpt>
      <trkpt lat="44.75147" lon="5.48251">
        <ele>1085.3</ele>
        <time>2015-06-28T08:19:17Z</time>
      </trkpt>
      <trkpt lat="44.75156" lon="5.48246">
        <ele>1086.4</ele>
        <time>2015-06-28T08:19:32Z</time>
      </trkpt>
      <trkpt lat="44.75165" lon="5.48245">
        <ele>1087.2</ele>
        <time>2015-06-28T08:19:45Z</time>
      </trkpt>
      <trkpt lat="44.75173" lon="5.48241">
        <ele>1090.1</ele>
        <time>2015-06-28T08:20:29Z</time>
      </trkpt>
      <trkpt lat="44.7517" lon="5.48226">
        <ele>1090.6</ele>
        <time>2015-06-28T08:21:11Z</time>
      </trkpt>
      <trkpt lat="44.75175" lon="5.48237">
        <ele>1090.6</ele>
        <time>2015-06-28T08:21:23Z</time>
      </trkpt>
      <trkpt lat="44.75176" lon="5.48221">
        <ele>1090.8</ele>
        <time>2015-06-28T08:21:34Z</time>
      </trkpt>
      <trkpt lat="44.75172" lon="5.4821">
        <ele>1092.6</ele>
        <time>2015-06-28T08:21:53Z</time>
      </trkpt>
      <trkpt lat="44.75168" lon="5.48198">
        <ele>1093.3</ele>
        <time>2015-06-28T08:22:05Z</time>
      </trkpt>
      <trkpt lat="44.75165" lon="5.48185">
        <ele>1094.7</ele>
        <time>2015-06-28T08:23:12Z</time>
      </trkpt>
      <trkpt lat="44.75157" lon="5.48182">
        <ele>1100.2</ele>
        <time>2015-06-28T08:23:45Z</time>
      </trkpt>
      <trkpt lat="44.7516" lon="5.4817">
        <ele>1105.7</ele>
        <time>2015-06-28T08:24:16Z</time>
      </trkpt>
      <trkpt lat="44.75169" lon="5.48164">
        <ele>1109.3</ele>
        <time>2015-06-28T08:25:14Z</time>
      </trkpt>
      <trkpt lat="44.75179" lon="5.48162">
        <ele>1110.7</ele>
        <time>2015-06-28T08:25:26Z</time>
      </trkpt>
      <trkpt lat="44.75188" lon="5.48161">
        <ele>1111.9</ele>
        <time>2015-06-28T08:25:41Z</time>
      </trkpt>
      <trkpt lat="44.75194" lon="5.4815">
        <ele>1113.6</ele>
        <time>2015-06-28T08:25:54Z</time>
      </trkpt>
      <trkpt lat="44.75201" lon="5.48142">
        <ele>1115.7</ele>
        <time>2015-06-28T08:26:10Z</time>
      </trkpt>
      <trkpt lat="44.75209" lon="5.48135">
        <ele>1117.5</ele>
        <time>2015-06-28T08:26:23Z</time>
      </trkpt>
      <trkpt lat="44.75218" lon="5.48136">
        <ele>1118.9</ele>
        <time>2015-06-28T08:26:37Z</time>
      </trkpt>
      <trkpt lat="44.75227" lon="5.48132">
        <ele>1120.2</ele>
        <time>2015-06-28T08:26:49Z</time>
      </trkpt>
      <trkpt lat="44.75234" lon="5.48123">
        <ele>1120.9</ele>
        <time>2015-06-28T08:27:01Z</time>
      </trkpt>
      <trkpt lat="44.7524" lon="5.48132">
        <ele>1125.7</ele>
        <time>2015-06-28T08:27:39Z</time>
      </trkpt>
      <trkpt lat="44.75249" lon="5.48128">
        <ele>1127.5</ele>
        <time>2015-06-28T08:27:50Z</time>
      </trkpt>
      <trkpt lat="44.75257" lon="5.48121">
        <ele>1129.1</ele>
        <time>2015-06-28T08:28:01Z</time>
      </trkpt>
      <trkpt lat="44.75267" lon="5.48118">
        <ele>1129.9</ele>
        <time>2015-06-28T08:28:11Z</time>
      </trkpt>
      <trkpt lat="44.75276" lon="5.48119">
        <ele>1131.2</ele>
        <time>2015-06-28T08:28:30Z</time>
      </trkpt>
      <trkpt lat="44.75284" lon="5.48124">
        <ele>1131.7</ele>
        <time>2015-06-28T08:28:47Z</time>
      </trkpt>
      <trkpt lat="44.75291" lon="5.48131">
        <ele>1132.3</ele>
        <time>2015-06-28T08:30:02Z</time>
      </trkpt>
      <trkpt lat="44.75299" lon="5.48138">
        <ele>1133.3</ele>
        <time>2015-06-28T08:30:10Z</time>
      </trkpt>
      <trkpt lat="44.75306" lon="5.48148">
        <ele>1134.1</ele>
        <time>2015-06-28T08:30:18Z</time>
      </trkpt>
      <trkpt lat="44.75303" lon="5.48136">
        <ele>1136.4</ele>
        <time>2015-06-28T08:31:19Z</time>
      </trkpt>
      <trkpt lat="44.75311" lon="5.48129">
        <ele>1144.7</ele>
        <time>2015-06-28T08:32:46Z</time>
      </trkpt>
      <trkpt lat="44.7532" lon="5.48132">
        <ele>1148.5</ele>
        <time>2015-06-28T08:33:09Z</time>
      </trkpt>
      <trkpt lat="44.75324" lon="5.48143">
        <ele>1152.4</ele>
        <time>2015-06-28T08:33:32Z</time>
      </trkpt>
      <trkpt lat="44.75326" lon="5.4813">
        <ele>1153.8</ele>
        <time>2015-06-28T08:34:01Z</time>
      </trkpt>
      <trkpt lat="44.75333" lon="5.48122">
        <ele>1156.8</ele>
        <time>2015-06-28T08:35:17Z</time>
      </trkpt>
      <trkpt lat="44.75338" lon="5.48112">
        <ele>1157</ele>
        <time>2015-06-28T08:35:32Z</time>
      </trkpt>
      <trkpt lat="44.75345" lon="5.48103">
        <ele>1158.4</ele>
        <time>2015-06-28T08:35:51Z</time>
      </trkpt>
      <trkpt lat="44.75348" lon="5.48091">
        <ele>1160.1</ele>
        <time>2015-06-28T08:36:12Z</time>
      </trkpt>
      <trkpt lat="44.75355" lon="5.48082">
        <ele>1160.8</ele>
        <time>2015-06-28T08:36:25Z</time>
      </trkpt>
      <trkpt lat="44.75364" lon="5.48083">
        <ele>1161.6</ele>
        <time>2015-06-28T08:36:50Z</time>
      </trkpt>
      <trkpt lat="44.75374" lon="5.48082">
        <ele>1162</ele>
        <time>2015-06-28T08:37:03Z</time>
      </trkpt>
      <trkpt lat="44.75384" lon="5.48085">
        <ele>1162.3</ele>
        <time>2015-06-28T08:37:11Z</time>
      </trkpt>
      <trkpt lat="44.75392" lon="5.48083">
        <ele>1162.7</ele>
        <time>2015-06-28T08:37:23Z</time>
      </trkpt>
      <trkpt lat="44.75402" lon="5.48082">
        <ele>1164.2</ele>
        <time>2015-06-28T08:37:39Z</time>
      </trkpt>
      <trkpt lat="44.7541" lon="5.48076">
        <ele>1165.1</ele>
        <time>2015-06-28T08:37:51Z</time>
      </trkpt>
      <trkpt lat="44.75419" lon="5.48069">
        <ele>1165.9</ele>
        <time>2015-06-28T08:38:03Z</time>
      </trkpt>
      <trkpt lat="44.75428" lon="5.48065">
        <ele>1166.5</ele>
        <time>2015-06-28T08:38:19Z</time>
      </trkpt>
      <trkpt lat="44.75436" lon="5.48059">
        <ele>1166.8</ele>
        <time>2015-06-28T08:38:30Z</time>
      </trkpt>
      <trkpt lat="44.75439" lon="5.48047">
        <ele>1167</ele>
        <time>2015-06-28T08:38:43Z</time>
      </trkpt>
      <trkpt lat="44.75445" lon="5.48037">
        <ele>1167</ele>
        <time>2015-06-28T08:38:54Z</time>
      </trkpt>
      <trkpt lat="44.75454" lon="5.48034">
        <ele>1169.1</ele>
        <time>2015-06-28T08:39:13Z</time>
      </trkpt>
      <trkpt lat="44.75463" lon="5.4803">
        <ele>1170</ele>
        <time>2015-06-28T08:39:23Z</time>
      </trkpt>
      <trkpt lat="44.75472" lon="5.48025">
        <ele>1171</ele>
        <time>2015-06-28T08:39:39Z</time>
      </trkpt>
      <trkpt lat="44.75476" lon="5.48013">
        <ele>1171.4</ele>
        <time>2015-06-28T08:39:52Z</time>
      </trkpt>
      <trkpt lat="44.75484" lon="5.48006">
        <ele>1171.6</ele>
        <time>2015-06-28T08:40:11Z</time>
      </trkpt>
      <trkpt lat="44.75493" lon="5.48001">
        <ele>1171.6</ele>
        <time>2015-06-28T08:40:28Z</time>
      </trkpt>
      <trkpt lat="44.75501" lon="5.47995">
        <ele>1171.6</ele>
        <time>2015-06-28T08:40:43Z</time>
      </trkpt>
      <trkpt lat="44.75509" lon="5.47987">
        <ele>1171.7</ele>
        <time>2015-06-28T08:41:01Z</time>
      </trkpt>
      <trkpt lat="44.75518" lon="5.47984">
        <ele>1171.7</ele>
        <time>2015-06-28T08:41:13Z</time>
      </trkpt>
      <trkpt lat="44.75528" lon="5.47984">
        <ele>1171.7</ele>
        <time>2015-06-28T08:41:29Z</time>
      </trkpt>
      <trkpt lat="44.75533" lon="5.47973">
        <ele>1172.1</ele>
        <time>2015-06-28T08:41:38Z</time>
      </trkpt>
      <trkpt lat="44.7554" lon="5.47965">
        <ele>1173.7</ele>
        <time>2015-06-28T08:41:56Z</time>
      </trkpt>
      <trkpt lat="44.75549" lon="5.47964">
        <ele>1175.2</ele>
        <time>2015-06-28T08:42:09Z</time>
      </trkpt>
      <trkpt lat="44.75557" lon="5.47957">
        <ele>1177.6</ele>
        <time>2015-06-28T08:42:27Z</time>
      </trkpt>
      <trkpt lat="44.75565" lon="5.4795">
        <ele>1179.8</ele>
        <time>2015-06-28T08:42:43Z</time>
      </trkpt>
      <trkpt lat="44.75571" lon="5.47941">
        <ele>1182</ele>
        <time>2015-06-28T08:42:59Z</time>
      </trkpt>
      <trkpt lat="44.75575" lon="5.47929">
        <ele>1183.6</ele>
        <time>2015-06-28T08:43:15Z</time>
      </trkpt>
      <trkpt lat="44.75583" lon="5.47922">
        <ele>1185.3</ele>
        <time>2015-06-28T08:43:36Z</time>
      </trkpt>
      <trkpt lat="44.75592" lon="5.47918">
        <ele>1185.7</ele>
        <time>2015-06-28T08:43:49Z</time>
      </trkpt>
      <trkpt lat="44.75601" lon="5.47916">
        <ele>1186</ele>
        <time>2015-06-28T08:44:20Z</time>
      </trkpt>
      <trkpt lat="44.75608" lon="5.47907">
        <ele>1185.2</ele>
        <time>2015-06-28T08:44:33Z</time>
      </trkpt>
      <trkpt lat="44.75615" lon="5.47897">
        <ele>1185.2</ele>
        <time>2015-06-28T08:44:53Z</time>
      </trkpt>
      <trkpt lat="44.75614" lon="5.47884">
        <ele>1185.7</ele>
        <time>2015-06-28T08:44:59Z</time>
      </trkpt>
      <trkpt lat="44.75617" lon="5.47871">
        <ele>1188.2</ele>
        <time>2015-06-28T08:45:17Z</time>
      </trkpt>
      <trkpt lat="44.75618" lon="5.47858">
        <ele>1191.3</ele>
        <time>2015-06-28T08:45:38Z</time>
      </trkpt>
      <trkpt lat="44.75627" lon="5.47857">
        <ele>1194.1</ele>
        <time>2015-06-28T08:45:56Z</time>
      </trkpt>
      <trkpt lat="44.75636" lon="5.47854">
        <ele>1197.1</ele>
        <time>2015-06-28T08:46:12Z</time>
      </trkpt>
      <trkpt lat="44.75643" lon="5.47844">
        <ele>1199</ele>
        <time>2015-06-28T08:46:23Z</time>
      </trkpt>
      <trkpt lat="44.75648" lon="5.47834">
        <ele>1202</ele>
        <time>2015-06-28T08:46:37Z</time>
      </trkpt>
      <trkpt lat="44.75657" lon="5.47831">
        <ele>1205.7</ele>
        <time>2015-06-28T08:47:06Z</time>
      </trkpt>
      <trkpt lat="44.75666" lon="5.47825">
        <ele>1206.3</ele>
        <time>2015-06-28T08:47:33Z</time>
      </trkpt>
      <trkpt lat="44.75667" lon="5.47812">
        <ele>1206.6</ele>
        <time>2015-06-28T08:48:23Z</time>
      </trkpt>
      <trkpt lat="44.75672" lon="5.478">
        <ele>1206.8</ele>
        <time>2015-06-28T08:48:29Z</time>
      </trkpt>
      <trkpt lat="44.75676" lon="5.47789">
        <ele>1207.5</ele>
        <time>2015-06-28T08:48:38Z</time>
      </trkpt>
      <trkpt lat="44.7568" lon="5.47777">
        <ele>1208.4</ele>
        <time>2015-06-28T08:48:48Z</time>
      </trkpt>
      <trkpt lat="44.75682" lon="5.47764">
        <ele>1209.6</ele>
        <time>2015-06-28T08:49:02Z</time>
      </trkpt>
      <trkpt lat="44.75686" lon="5.47752">
        <ele>1210.6</ele>
        <time>2015-06-28T08:49:14Z</time>
      </trkpt>
      <trkpt lat="44.75693" lon="5.47742">
        <ele>1211.5</ele>
        <time>2015-06-28T08:49:24Z</time>
      </trkpt>
      <trkpt lat="44.75699" lon="5.47733">
        <ele>1213.4</ele>
        <time>2015-06-28T08:49:36Z</time>
      </trkpt>
      <trkpt lat="44.75706" lon="5.4774">
        <ele>1215.3</ele>
        <time>2015-06-28T08:49:50Z</time>
      </trkpt>
      <trkpt lat="44.75715" lon="5.47745">
        <ele>1216</ele>
        <time>2015-06-28T08:50:01Z</time>
      </trkpt>
      <trkpt lat="44.75724" lon="5.47749">
        <ele>1215.4</ele>
        <time>2015-06-28T08:50:13Z</time>
      </trkpt>
      <trkpt lat="44.75729" lon="5.4776">
        <ele>1214.4</ele>
        <time>2015-06-28T08:50:28Z</time>
      </trkpt>
      <trkpt lat="44.75733" lon="5.47772">
        <ele>1214</ele>
        <time>2015-06-28T08:50:38Z</time>
      </trkpt>
      <trkpt lat="44.75737" lon="5.47784">
        <ele>1213.2</ele>
        <time>2015-06-28T08:50:51Z</time>
      </trkpt>
      <trkpt lat="44.75728" lon="5.47786">
        <ele>1210.5</ele>
        <time>2015-06-28T08:51:39Z</time>
      </trkpt>
      <trkpt lat="44.75723" lon="5.47775">
        <ele>1210.2</ele>
        <time>2015-06-28T08:51:56Z</time>
      </trkpt>
      <trkpt lat="44.7572" lon="5.47763">
        <ele>1210.4</ele>
        <time>2015-06-28T08:52:10Z</time>
      </trkpt>
      <trkpt lat="44.75716" lon="5.47751">
        <ele>1210.8</ele>
        <time>2015-06-28T08:52:28Z</time>
      </trkpt>
      <trkpt lat="44.75707" lon="5.47745">
        <ele>1212.8</ele>
        <time>2015-06-28T08:52:42Z</time>
      </trkpt>
      <trkpt lat="44.75697" lon="5.47749">
        <ele>1214.3</ele>
        <time>2015-06-28T08:52:52Z</time>
      </trkpt>
      <trkpt lat="44.75688" lon="5.47755">
        <ele>1214.9</ele>
        <time>2015-06-28T08:53:02Z</time>
      </trkpt>
      <trkpt lat="44.75684" lon="5.47767">
        <ele>1214</ele>
        <time>2015-06-28T08:53:18Z</time>
      </trkpt>
      <trkpt lat="44.75682" lon="5.4778">
        <ele>1213.1</ele>
        <time>2015-06-28T08:53:30Z</time>
      </trkpt>
      <trkpt lat="44.75678" lon="5.47793">
        <ele>1212.3</ele>
        <time>2015-06-28T08:53:38Z</time>
      </trkpt>
      <trkpt lat="44.75675" lon="5.47805">
        <ele>1211.5</ele>
        <time>2015-06-28T08:53:47Z</time>
      </trkpt>
      <trkpt lat="44.7567" lon="5.47817">
        <ele>1210.5</ele>
        <time>2015-06-28T08:54:03Z</time>
      </trkpt>
      <trkpt lat="44.75664" lon="5.47827">
        <ele>1210.2</ele>
        <time>2015-06-28T08:54:10Z</time>
      </trkpt>
      <trkpt lat="44.75657" lon="5.47835">
        <ele>1209.5</ele>
        <time>2015-06-28T08:54:17Z</time>
      </trkpt>
      <trkpt lat="44.75649" lon="5.47841">
        <ele>1206.1</ele>
        <time>2015-06-28T08:55:02Z</time>
      </trkpt>
      <trkpt lat="44.7564" lon="5.47846">
        <ele>1204.1</ele>
        <time>2015-06-28T08:55:16Z</time>
      </trkpt>
      <trkpt lat="44.75633" lon="5.47856">
        <ele>1198.8</ele>
        <time>2015-06-28T08:55:48Z</time>
      </trkpt>
      <trkpt lat="44.75625" lon="5.47863">
        <ele>1196.2</ele>
        <time>2015-06-28T08:56:04Z</time>
      </trkpt>
      <trkpt lat="44.75618" lon="5.47871">
        <ele>1193.5</ele>
        <time>2015-06-28T08:56:17Z</time>
      </trkpt>
      <trkpt lat="44.75627" lon="5.47871">
        <ele>1185</ele>
        <time>2015-06-28T08:57:04Z</time>
      </trkpt>
      <trkpt lat="44.75638" lon="5.47871">
        <ele>1184.5</ele>
        <time>2015-06-28T08:57:12Z</time>
      </trkpt>
      <trkpt lat="44.75647" lon="5.47871">
        <ele>1184.2</ele>
        <time>2015-06-28T08:57:23Z</time>
      </trkpt>
      <trkpt lat="44.75657" lon="5.4787">
        <ele>1184.1</ele>
        <time>2015-06-28T08:57:33Z</time>
      </trkpt>
      <trkpt lat="44.75666" lon="5.47869">
        <ele>1184</ele>
        <time>2015-06-28T08:57:41Z</time>
      </trkpt>
      <trkpt lat="44.75674" lon="5.47864">
        <ele>1183.8</ele>
        <time>2015-06-28T08:57:51Z</time>
      </trkpt>
      <trkpt lat="44.75679" lon="5.47852">
        <ele>1183.5</ele>
        <time>2015-06-28T08:58:00Z</time>
      </trkpt>
      <trkpt lat="44.75686" lon="5.47844">
        <ele>1183.1</ele>
        <time>2015-06-28T08:58:11Z</time>
      </trkpt>
      <trkpt lat="44.75695" lon="5.47837">
        <ele>1182.7</ele>
        <time>2015-06-28T08:58:21Z</time>
      </trkpt>
      <trkpt lat="44.75697" lon="5.47824">
        <ele>1182.2</ele>
        <time>2015-06-28T08:58:32Z</time>
      </trkpt>
      <trkpt lat="44.75706" lon="5.4782">
        <ele>1181.8</ele>
        <time>2015-06-28T08:58:54Z</time>
      </trkpt>
      <trkpt lat="44.75715" lon="5.47814">
        <ele>1180</ele>
        <time>2015-06-28T08:59:16Z</time>
      </trkpt>
      <trkpt lat="44.75725" lon="5.47814">
        <ele>1179.2</ele>
        <time>2015-06-28T08:59:26Z</time>
      </trkpt>
      <trkpt lat="44.75734" lon="5.47814">
        <ele>1178.5</ele>
        <time>2015-06-28T08:59:48Z</time>
      </trkpt>
      <trkpt lat="44.75743" lon="5.47819">
        <ele>1178.4</ele>
        <time>2015-06-28T08:59:57Z</time>
      </trkpt>
      <trkpt lat="44.75752" lon="5.47825">
        <ele>1178.3</ele>
        <time>2015-06-28T09:00:04Z</time>
      </trkpt>
      <trkpt lat="44.75759" lon="5.47834">
        <ele>1178.3</ele>
        <time>2015-06-28T09:00:14Z</time>
      </trkpt>
      <trkpt lat="44.75766" lon="5.47843">
        <ele>1178.6</ele>
        <time>2015-06-28T09:00:26Z</time>
      </trkpt>
      <trkpt lat="44.7577" lon="5.47855">
        <ele>1179.6</ele>
        <time>2015-06-28T09:00:42Z</time>
      </trkpt>
      <trkpt lat="44.75779" lon="5.47861">
        <ele>1180.7</ele>
        <time>2015-06-28T09:00:56Z</time>
      </trkpt>
      <trkpt lat="44.75777" lon="5.47876">
        <ele>1181.1</ele>
        <time>2015-06-28T09:01:03Z</time>
      </trkpt>
      <trkpt lat="44.75779" lon="5.47888">
        <ele>1181.3</ele>
        <time>2015-06-28T09:01:10Z</time>
      </trkpt>
      <trkpt lat="44.75785" lon="5.47898">
        <ele>1181.4</ele>
        <time>2015-06-28T09:01:18Z</time>
      </trkpt>
      <trkpt lat="44.75785" lon="5.47912">
        <ele>1181.8</ele>
        <time>2015-06-28T09:01:33Z</time>
      </trkpt>
      <trkpt lat="44.75786" lon="5.47925">
        <ele>1182</ele>
        <time>2015-06-28T09:01:40Z</time>
      </trkpt>
      <trkpt lat="44.75792" lon="5.47936">
        <ele>1182.8</ele>
        <time>2015-06-28T09:01:52Z</time>
      </trkpt>
      <trkpt lat="44.75801" lon="5.47941">
        <ele>1183.4</ele>
        <time>2015-06-28T09:01:59Z</time>
      </trkpt>
      <trkpt lat="44.75809" lon="5.47934">
        <ele>1183.9</ele>
        <time>2015-06-28T09:02:10Z</time>
      </trkpt>
      <trkpt lat="44.75813" lon="5.47921">
        <ele>1184.1</ele>
        <time>2015-06-28T09:02:17Z</time>
      </trkpt>
      <trkpt lat="44.75819" lon="5.47912">
        <ele>1184.4</ele>
        <time>2015-06-28T09:02:35Z</time>
      </trkpt>
      <trkpt lat="44.75827" lon="5.47904">
        <ele>1184.4</ele>
        <time>2015-06-28T09:02:50Z</time>
      </trkpt>
      <trkpt lat="44.75829" lon="5.47892">
        <ele>1184.4</ele>
        <time>2015-06-28T09:03:05Z</time>
      </trkpt>
      <trkpt lat="44.75828" lon="5.47878">
        <ele>1183.9</ele>
        <time>2015-06-28T09:03:43Z</time>
      </trkpt>
      <trkpt lat="44.75837" lon="5.47874">
        <ele>1182.6</ele>
        <time>2015-06-28T09:04:04Z</time>
      </trkpt>
      <trkpt lat="44.75847" lon="5.47884">
        <ele>1182.1</ele>
        <time>2015-06-28T09:04:08Z</time>
      </trkpt>
      <trkpt lat="44.75857" lon="5.47889">
        <ele>1180.9</ele>
        <time>2015-06-28T09:04:20Z</time>
      </trkpt>
      <trkpt lat="44.75865" lon="5.47899">
        <ele>1180.4</ele>
        <time>2015-06-28T09:04:24Z</time>
      </trkpt>
      <trkpt lat="44.75871" lon="5.47908">
        <ele>1179.9</ele>
        <time>2015-06-28T09:04:29Z</time>
      </trkpt>
      <trkpt lat="44.75882" lon="5.4792">
        <ele>1179.7</ele>
        <time>2015-06-28T09:04:32Z</time>
      </trkpt>
      <trkpt lat="44.75886" lon="5.47933">
        <ele>1179.1</ele>
        <time>2015-06-28T09:04:44Z</time>
      </trkpt>
      <trkpt lat="44.7589" lon="5.47945">
        <ele>1178.7</ele>
        <time>2015-06-28T09:05:00Z</time>
      </trkpt>
      <trkpt lat="44.75899" lon="5.47939">
        <ele>1178.4</ele>
        <time>2015-06-28T09:05:23Z</time>
      </trkpt>
      <trkpt lat="44.75907" lon="5.47932">
        <ele>1177</ele>
        <time>2015-06-28T09:05:34Z</time>
      </trkpt>
      <trkpt lat="44.75904" lon="5.47916">
        <ele>1176</ele>
        <time>2015-06-28T09:05:50Z</time>
      </trkpt>
      <trkpt lat="44.75898" lon="5.47904">
        <ele>1176</ele>
        <time>2015-06-28T09:05:54Z</time>
      </trkpt>
      <trkpt lat="44.75892" lon="5.47893">
        <ele>1176</ele>
        <time>2015-06-28T09:05:58Z</time>
      </trkpt>
      <trkpt lat="44.75902" lon="5.47889">
        <ele>1174</ele>
        <time>2015-06-28T09:06:22Z</time>
      </trkpt>
      <trkpt lat="44.75911" lon="5.47895">
        <ele>1175</ele>
        <time>2015-06-28T09:06:34Z</time>
      </trkpt>
      <trkpt lat="44.75924" lon="5.47898">
        <ele>1175</ele>
        <time>2015-06-28T09:06:46Z</time>
      </trkpt>
      <trkpt lat="44.75938" lon="5.47903">
        <ele>1175</ele>
        <time>2015-06-28T09:06:58Z</time>
      </trkpt>
      <trkpt lat="44.7595" lon="5.47912">
        <ele>1175</ele>
        <time>2015-06-28T09:07:10Z</time>
      </trkpt>
      <trkpt lat="44.75961" lon="5.47914">
        <ele>1174</ele>
        <time>2015-06-28T09:07:22Z</time>
      </trkpt>
      <trkpt lat="44.75969" lon="5.47919">
        <ele>1175</ele>
        <time>2015-06-28T09:07:34Z</time>
      </trkpt>
      <trkpt lat="44.75978" lon="5.47928">
        <ele>1176.3</ele>
        <time>2015-06-28T09:07:49Z</time>
      </trkpt>
      <trkpt lat="44.75985" lon="5.47937">
        <ele>1176.9</ele>
        <time>2015-06-28T09:08:01Z</time>
      </trkpt>
      <trkpt lat="44.75994" lon="5.47935">
        <ele>1177.5</ele>
        <time>2015-06-28T09:08:14Z</time>
      </trkpt>
      <trkpt lat="44.76004" lon="5.47935">
        <ele>1178.5</ele>
        <time>2015-06-28T09:08:31Z</time>
      </trkpt>
      <trkpt lat="44.76014" lon="5.47933">
        <ele>1179.3</ele>
        <time>2015-06-28T09:08:55Z</time>
      </trkpt>
      <trkpt lat="44.76023" lon="5.47936">
        <ele>1179.4</ele>
        <time>2015-06-28T09:08:59Z</time>
      </trkpt>
      <trkpt lat="44.76013" lon="5.47938">
        <ele>1179.5</ele>
        <time>2015-06-28T09:09:28Z</time>
      </trkpt>
      <trkpt lat="44.76018" lon="5.47928">
        <ele>1179.5</ele>
        <time>2015-06-28T09:09:49Z</time>
      </trkpt>
      <trkpt lat="44.76027" lon="5.47922">
        <ele>1179.3</ele>
        <time>2015-06-28T09:09:57Z</time>
      </trkpt>
      <trkpt lat="44.76032" lon="5.47911">
        <ele>1179.2</ele>
        <time>2015-06-28T09:10:03Z</time>
      </trkpt>
      <trkpt lat="44.76037" lon="5.47899">
        <ele>1178.9</ele>
        <time>2015-06-28T09:10:12Z</time>
      </trkpt>
      <trkpt lat="44.76046" lon="5.47902">
        <ele>1178.8</ele>
        <time>2015-06-28T09:10:18Z</time>
      </trkpt>
      <trkpt lat="44.76057" lon="5.47899">
        <ele>1178.9</ele>
        <time>2015-06-28T09:10:26Z</time>
      </trkpt>
      <trkpt lat="44.76065" lon="5.47904">
        <ele>1179</ele>
        <time>2015-06-28T09:10:29Z</time>
      </trkpt>
      <trkpt lat="44.7607" lon="5.47892">
        <ele>1179.2</ele>
        <time>2015-06-28T09:10:36Z</time>
      </trkpt>
      <trkpt lat="44.76078" lon="5.47882">
        <ele>1179.4</ele>
        <time>2015-06-28T09:10:46Z</time>
      </trkpt>
      <trkpt lat="44.76085" lon="5.47871">
        <ele>1179</ele>
        <time>2015-06-28T09:11:04Z</time>
      </trkpt>
      <trkpt lat="44.76084" lon="5.47885">
        <ele>1179</ele>
        <time>2015-06-28T09:11:12Z</time>
      </trkpt>
      <trkpt lat="44.7608" lon="5.47908">
        <ele>1179</ele>
        <time>2015-06-28T09:11:20Z</time>
      </trkpt>
      <trkpt lat="44.7608" lon="5.47923">
        <ele>1179</ele>
        <time>2015-06-28T09:11:24Z</time>
      </trkpt>
      <trkpt lat="44.76078" lon="5.47938">
        <ele>1179</ele>
        <time>2015-06-28T09:11:28Z</time>
      </trkpt>
      <trkpt lat="44.76065" lon="5.47918">
        <ele>1179</ele>
        <time>2015-06-28T09:11:36Z</time>
      </trkpt>
      <trkpt lat="44.76059" lon="5.47906">
        <ele>1179</ele>
        <time>2015-06-28T09:11:40Z</time>
      </trkpt>
      <trkpt lat="44.76052" lon="5.47897">
        <ele>1178.5</ele>
        <time>2015-06-28T09:11:56Z</time>
      </trkpt>
      <trkpt lat="44.76054" lon="5.47913">
        <ele>1178.4</ele>
        <time>2015-06-28T09:11:58Z</time>
      </trkpt>
      <trkpt lat="44.76058" lon="5.47928">
        <ele>1177.6</ele>
        <time>2015-06-28T09:12:07Z</time>
      </trkpt>
      <trkpt lat="44.76063" lon="5.47942">
        <ele>1177.4</ele>
        <time>2015-06-28T09:12:10Z</time>
      </trkpt>
      <trkpt lat="44.76068" lon="5.47931">
        <ele>1176.9</ele>
        <time>2015-06-28T09:12:21Z</time>
      </trkpt>
      <trkpt lat="44.76074" lon="5.4792">
        <ele>1176.8</ele>
        <time>2015-06-28T09:12:24Z</time>
      </trkpt>
      <trkpt lat="44.76088" lon="5.47932">
        <ele>1176.5</ele>
        <time>2015-06-28T09:12:31Z</time>
      </trkpt>
      <trkpt lat="44.76095" lon="5.47946">
        <ele>1176.4</ele>
        <time>2015-06-28T09:12:35Z</time>
      </trkpt>
      <trkpt lat="44.76104" lon="5.47946">
        <ele>1176.8</ele>
        <time>2015-06-28T09:13:15Z</time>
      </trkpt>
      <trkpt lat="44.76114" lon="5.47945">
        <ele>1177.1</ele>
        <time>2015-06-28T09:13:28Z</time>
      </trkpt>
      <trkpt lat="44.76123" lon="5.47946">
        <ele>1177.6</ele>
        <time>2015-06-28T09:13:40Z</time>
      </trkpt>
      <trkpt lat="44.76133" lon="5.47942">
        <ele>1177.9</ele>
        <time>2015-06-28T09:13:49Z</time>
      </trkpt>
      <trkpt lat="44.7614" lon="5.47933">
        <ele>1178.1</ele>
        <time>2015-06-28T09:13:56Z</time>
      </trkpt>
      <trkpt lat="44.76148" lon="5.47925">
        <ele>1178.1</ele>
        <time>2015-06-28T09:14:24Z</time>
      </trkpt>
      <trkpt lat="44.76156" lon="5.47914">
        <ele>1178.2</ele>
        <time>2015-06-28T09:14:35Z</time>
      </trkpt>
      <trkpt lat="44.76162" lon="5.47904">
        <ele>1178.5</ele>
        <time>2015-06-28T09:14:44Z</time>
      </trkpt>
      <trkpt lat="44.76168" lon="5.47891">
        <ele>1179</ele>
        <time>2015-06-28T09:14:56Z</time>
      </trkpt>
      <trkpt lat="44.76173" lon="5.47878">
        <ele>1178</ele>
        <time>2015-06-28T09:15:08Z</time>
      </trkpt>
      <trkpt lat="44.76177" lon="5.47865">
        <ele>1177</ele>
        <time>2015-06-28T09:15:20Z</time>
      </trkpt>
      <trkpt lat="44.76184" lon="5.47855">
        <ele>1176</ele>
        <time>2015-06-28T09:15:32Z</time>
      </trkpt>
      <trkpt lat="44.76186" lon="5.47843">
        <ele>1174</ele>
        <time>2015-06-28T09:15:56Z</time>
      </trkpt>
      <trkpt lat="44.76193" lon="5.47834">
        <ele>1174</ele>
        <time>2015-06-28T09:16:08Z</time>
      </trkpt>
      <trkpt lat="44.762" lon="5.47824">
        <ele>1175.6</ele>
        <time>2015-06-28T09:16:25Z</time>
      </trkpt>
      <trkpt lat="44.762" lon="5.47809">
        <ele>1175.8</ele>
        <time>2015-06-28T09:16:31Z</time>
      </trkpt>
      <trkpt lat="44.76201" lon="5.47795">
        <ele>1176.1</ele>
        <time>2015-06-28T09:16:47Z</time>
      </trkpt>
      <trkpt lat="44.76208" lon="5.47788">
        <ele>1176.2</ele>
        <time>2015-06-28T09:17:01Z</time>
      </trkpt>
      <trkpt lat="44.7621" lon="5.47775">
        <ele>1176.3</ele>
        <time>2015-06-28T09:17:11Z</time>
      </trkpt>
      <trkpt lat="44.76212" lon="5.47761">
        <ele>1176.3</ele>
        <time>2015-06-28T09:17:21Z</time>
      </trkpt>
      <trkpt lat="44.76218" lon="5.47752">
        <ele>1176.3</ele>
        <time>2015-06-28T09:17:27Z</time>
      </trkpt>
      <trkpt lat="44.7622" lon="5.47766">
        <ele>1176.3</ele>
        <time>2015-06-28T09:17:49Z</time>
      </trkpt>
      <trkpt lat="44.76229" lon="5.47768">
        <ele>1176.4</ele>
        <time>2015-06-28T09:17:55Z</time>
      </trkpt>
      <trkpt lat="44.76238" lon="5.47759">
        <ele>1176.8</ele>
        <time>2015-06-28T09:18:05Z</time>
      </trkpt>
      <trkpt lat="44.76247" lon="5.47752">
        <ele>1177.4</ele>
        <time>2015-06-28T09:18:11Z</time>
      </trkpt>
      <trkpt lat="44.76256" lon="5.47747">
        <ele>1177.9</ele>
        <time>2015-06-28T09:18:16Z</time>
      </trkpt>
      <trkpt lat="44.76265" lon="5.47752">
        <ele>1178.7</ele>
        <time>2015-06-28T09:18:26Z</time>
      </trkpt>
      <trkpt lat="44.76272" lon="5.47734">
        <ele>1176</ele>
        <time>2015-06-28T09:18:56Z</time>
      </trkpt>
      <trkpt lat="44.76285" lon="5.47738">
        <ele>1175</ele>
        <time>2015-06-28T09:19:12Z</time>
      </trkpt>
      <trkpt lat="44.76299" lon="5.47729">
        <ele>1175</ele>
        <time>2015-06-28T09:19:24Z</time>
      </trkpt>
      <trkpt lat="44.76287" lon="5.47728">
        <ele>1175</ele>
        <time>2015-06-28T09:19:38Z</time>
      </trkpt>
      <trkpt lat="44.76277" lon="5.47731">
        <ele>1175</ele>
        <time>2015-06-28T09:19:41Z</time>
      </trkpt>
      <trkpt lat="44.76286" lon="5.47737">
        <ele>1175</ele>
        <time>2015-06-28T09:19:55Z</time>
      </trkpt>
      <trkpt lat="44.76295" lon="5.47733">
        <ele>1175.3</ele>
        <time>2015-06-28T09:20:04Z</time>
      </trkpt>
      <trkpt lat="44.76303" lon="5.47726">
        <ele>1175.5</ele>
        <time>2015-06-28T09:20:13Z</time>
      </trkpt>
      <trkpt lat="44.76311" lon="5.47719">
        <ele>1175.5</ele>
        <time>2015-06-28T09:20:17Z</time>
      </trkpt>
      <trkpt lat="44.76317" lon="5.4771">
        <ele>1174.1</ele>
        <time>2015-06-28T09:20:50Z</time>
      </trkpt>
      <trkpt lat="44.76326" lon="5.47708">
        <ele>1173.8</ele>
        <time>2015-06-28T09:21:19Z</time>
      </trkpt>
      <trkpt lat="44.76336" lon="5.47711">
        <ele>1173.3</ele>
        <time>2015-06-28T09:21:45Z</time>
      </trkpt>
      <trkpt lat="44.76338" lon="5.47699">
        <ele>1168</ele>
        <time>2015-06-28T09:22:36Z</time>
      </trkpt>
      <trkpt lat="44.76334" lon="5.47686">
        <ele>1167.3</ele>
        <time>2015-06-28T09:22:49Z</time>
      </trkpt>
      <trkpt lat="44.76341" lon="5.47678">
        <ele>1167</ele>
        <time>2015-06-28T09:23:03Z</time>
      </trkpt>
      <trkpt lat="44.76349" lon="5.47684">
        <ele>1166.9</ele>
        <time>2015-06-28T09:23:11Z</time>
      </trkpt>
      <trkpt lat="44.76358" lon="5.47691">
        <ele>1166.9</ele>
        <time>2015-06-28T09:23:24Z</time>
      </trkpt>
      <trkpt lat="44.76366" lon="5.47684">
        <ele>1166.9</ele>
        <time>2015-06-28T09:23:35Z</time>
      </trkpt>
      <trkpt lat="44.76375" lon="5.47683">
        <ele>1167</ele>
        <time>2015-06-28T09:23:46Z</time>
      </trkpt>
      <trkpt lat="44.76382" lon="5.47691">
        <ele>1167</ele>
        <time>2015-06-28T09:23:55Z</time>
      </trkpt>
      <trkpt lat="44.7639" lon="5.47685">
        <ele>1167.2</ele>
        <time>2015-06-28T09:24:35Z</time>
      </trkpt>
      <trkpt lat="44.76399" lon="5.4769">
        <ele>1167.5</ele>
        <time>2015-06-28T09:24:56Z</time>
      </trkpt>
      <trkpt lat="44.76407" lon="5.47696">
        <ele>1168.1</ele>
        <time>2015-06-28T09:25:13Z</time>
      </trkpt>
      <trkpt lat="44.76414" lon="5.47706">
        <ele>1168.3</ele>
        <time>2015-06-28T09:25:35Z</time>
      </trkpt>
      <trkpt lat="44.76423" lon="5.47709">
        <ele>1169.5</ele>
        <time>2015-06-28T09:27:02Z</time>
      </trkpt>
      <trkpt lat="44.76431" lon="5.47702">
        <ele>1173.7</ele>
        <time>2015-06-28T09:27:37Z</time>
      </trkpt>
      <trkpt lat="44.76437" lon="5.47693">
        <ele>1178.7</ele>
        <time>2015-06-28T09:28:22Z</time>
      </trkpt>
      <trkpt lat="44.76446" lon="5.477">
        <ele>1181.4</ele>
        <time>2015-06-28T09:28:49Z</time>
      </trkpt>
      <trkpt lat="44.76454" lon="5.47707">
        <ele>1182</ele>
        <time>2015-06-28T09:29:00Z</time>
      </trkpt>
      <trkpt lat="44.76463" lon="5.47712">
        <ele>1182.8</ele>
        <time>2015-06-28T09:29:13Z</time>
      </trkpt>
      <trkpt lat="44.7647" lon="5.47721">
        <ele>1183</ele>
        <time>2015-06-28T09:29:24Z</time>
      </trkpt>
      <trkpt lat="44.76476" lon="5.47731">
        <ele>1183.2</ele>
        <time>2015-06-28T09:29:35Z</time>
      </trkpt>
      <trkpt lat="44.76482" lon="5.47741">
        <ele>1183.3</ele>
        <time>2015-06-28T09:29:46Z</time>
      </trkpt>
      <trkpt lat="44.76488" lon="5.47753">
        <ele>1183.3</ele>
        <time>2015-06-28T09:29:56Z</time>
      </trkpt>
      <trkpt lat="44.76495" lon="5.47765">
        <ele>1183.4</ele>
        <time>2015-06-28T09:30:03Z</time>
      </trkpt>
      <trkpt lat="44.76503" lon="5.47771">
        <ele>1183.4</ele>
        <time>2015-06-28T09:30:39Z</time>
      </trkpt>
      <trkpt lat="44.76511" lon="5.4778">
        <ele>1183.7</ele>
        <time>2015-06-28T09:30:53Z</time>
      </trkpt>
      <trkpt lat="44.76519" lon="5.47788">
        <ele>1183.9</ele>
        <time>2015-06-28T09:31:06Z</time>
      </trkpt>
      <trkpt lat="44.76529" lon="5.47792">
        <ele>1183.9</ele>
        <time>2015-06-28T09:31:17Z</time>
      </trkpt>
      <trkpt lat="44.76538" lon="5.47796">
        <ele>1183.5</ele>
        <time>2015-06-28T09:31:27Z</time>
      </trkpt>
      <trkpt lat="44.76547" lon="5.47799">
        <ele>1182.9</ele>
        <time>2015-06-28T09:31:40Z</time>
      </trkpt>
      <trkpt lat="44.76556" lon="5.478">
        <ele>1181.5</ele>
        <time>2015-06-28T09:31:55Z</time>
      </trkpt>
      <trkpt lat="44.76565" lon="5.47806">
        <ele>1180.6</ele>
        <time>2015-06-28T09:32:06Z</time>
      </trkpt>
      <trkpt lat="44.76574" lon="5.47811">
        <ele>1180</ele>
        <time>2015-06-28T09:32:19Z</time>
      </trkpt>
      <trkpt lat="44.76582" lon="5.47817">
        <ele>1179.9</ele>
        <time>2015-06-28T09:32:30Z</time>
      </trkpt>
      <trkpt lat="44.7659" lon="5.47823">
        <ele>1180.4</ele>
        <time>2015-06-28T09:32:42Z</time>
      </trkpt>
      <trkpt lat="44.76599" lon="5.4783">
        <ele>1181.7</ele>
        <time>2015-06-28T09:32:54Z</time>
      </trkpt>
      <trkpt lat="44.76608" lon="5.47834">
        <ele>1182.6</ele>
        <time>2015-06-28T09:33:03Z</time>
      </trkpt>
      <trkpt lat="44.76616" lon="5.47842">
        <ele>1183.3</ele>
        <time>2015-06-28T09:33:15Z</time>
      </trkpt>
      <trkpt lat="44.76625" lon="5.47847">
        <ele>1183.6</ele>
        <time>2015-06-28T09:33:24Z</time>
      </trkpt>
      <trkpt lat="44.76634" lon="5.47851">
        <ele>1183.8</ele>
        <time>2015-06-28T09:33:35Z</time>
      </trkpt>
      <trkpt lat="44.76643" lon="5.47852">
        <ele>1184</ele>
        <time>2015-06-28T09:33:46Z</time>
      </trkpt>
      <trkpt lat="44.76652" lon="5.47849">
        <ele>1184</ele>
        <time>2015-06-28T09:33:58Z</time>
      </trkpt>
      <trkpt lat="44.76662" lon="5.47846">
        <ele>1184.8</ele>
        <time>2015-06-28T09:34:12Z</time>
      </trkpt>
      <trkpt lat="44.76671" lon="5.47841">
        <ele>1186.2</ele>
        <time>2015-06-28T09:34:26Z</time>
      </trkpt>
      <trkpt lat="44.7668" lon="5.47839">
        <ele>1189</ele>
        <time>2015-06-28T09:34:41Z</time>
      </trkpt>
      <trkpt lat="44.76689" lon="5.47838">
        <ele>1192.3</ele>
        <time>2015-06-28T09:35:12Z</time>
      </trkpt>
      <trkpt lat="44.76693" lon="5.47826">
        <ele>1195.8</ele>
        <time>2015-06-28T09:35:38Z</time>
      </trkpt>
      <trkpt lat="44.76695" lon="5.47813">
        <ele>1197.3</ele>
        <time>2015-06-28T09:35:45Z</time>
      </trkpt>
      <trkpt lat="44.76701" lon="5.47802">
        <ele>1201.8</ele>
        <time>2015-06-28T09:36:06Z</time>
      </trkpt>
      <trkpt lat="44.76702" lon="5.4779">
        <ele>1207.4</ele>
        <time>2015-06-28T09:36:50Z</time>
      </trkpt>
      <trkpt lat="44.76709" lon="5.47781">
        <ele>1212.5</ele>
        <time>2015-06-28T09:37:51Z</time>
      </trkpt>
      <trkpt lat="44.76714" lon="5.4777">
        <ele>1214.3</ele>
        <time>2015-06-28T09:38:09Z</time>
      </trkpt>
      <trkpt lat="44.76719" lon="5.4776">
        <ele>1217.1</ele>
        <time>2015-06-28T09:38:33Z</time>
      </trkpt>
      <trkpt lat="44.76724" lon="5.47748">
        <ele>1227.5</ele>
        <time>2015-06-28T09:39:24Z</time>
      </trkpt>
      <trkpt lat="44.76724" lon="5.47734">
        <ele>1239</ele>
        <time>2015-06-28T09:40:16Z</time>
      </trkpt>
      <trkpt lat="44.76729" lon="5.47721">
        <ele>1241.3</ele>
        <time>2015-06-28T09:40:28Z</time>
      </trkpt>
      <trkpt lat="44.76735" lon="5.47706">
        <ele>1241.9</ele>
        <time>2015-06-28T09:40:33Z</time>
      </trkpt>
      <trkpt lat="44.76734" lon="5.47693">
        <ele>1244.1</ele>
        <time>2015-06-28T09:41:14Z</time>
      </trkpt>
      <trkpt lat="44.76743" lon="5.47696">
        <ele>854.5</ele>
        <time>2015-06-28T09:43:25Z</time>
      </trkpt>
      <trkpt lat="44.76752" lon="5.47699">
        <ele>854.5</ele>
        <time>2015-06-28T09:43:48Z</time>
      </trkpt>
      <trkpt lat="44.76761" lon="5.47702">
        <ele>854.5</ele>
        <time>2015-06-28T09:44:02Z</time>
      </trkpt>
      <trkpt lat="44.76769" lon="5.47708">
        <ele>854.5</ele>
        <time>2015-06-28T09:44:12Z</time>
      </trkpt>
      <trkpt lat="44.76777" lon="5.47715">
        <ele>854.5</ele>
        <time>2015-06-28T09:44:22Z</time>
      </trkpt>
      <trkpt lat="44.7678" lon="5.47726">
        <ele>854.5</ele>
        <time>2015-06-28T09:44:36Z</time>
      </trkpt>
      <trkpt lat="44.76788" lon="5.47734">
        <ele>854.5</ele>
        <time>2015-06-28T09:44:52Z</time>
      </trkpt>
      <trkpt lat="44.76797" lon="5.4774">
        <ele>854.5</ele>
        <time>2015-06-28T09:45:06Z</time>
      </trkpt>
      <trkpt lat="44.76806" lon="5.47737">
        <ele>854.5</ele>
        <time>2015-06-28T09:46:45Z</time>
      </trkpt>
      <trkpt lat="44.76816" lon="5.47737">
        <ele>854.5</ele>
        <time>2015-06-28T09:46:57Z</time>
      </trkpt>
      <trkpt lat="44.76826" lon="5.47738">
        <ele>854.5</ele>
        <time>2015-06-28T09:47:09Z</time>
      </trkpt>
      <trkpt lat="44.76835" lon="5.47735">
        <ele>854.5</ele>
        <time>2015-06-28T09:47:20Z</time>
      </trkpt>
      <trkpt lat="44.76845" lon="5.47733">
        <ele>854.5</ele>
        <time>2015-06-28T09:47:28Z</time>
      </trkpt>
      <trkpt lat="44.76855" lon="5.4773">
        <ele>854.5</ele>
        <time>2015-06-28T09:47:35Z</time>
      </trkpt>
      <trkpt lat="44.76864" lon="5.4773">
        <ele>854.5</ele>
        <time>2015-06-28T09:47:48Z</time>
      </trkpt>
      <trkpt lat="44.76872" lon="5.47738">
        <ele>854.5</ele>
        <time>2015-06-28T09:48:01Z</time>
      </trkpt>
      <trkpt lat="44.76881" lon="5.47736">
        <ele>854.5</ele>
        <time>2015-06-28T09:48:11Z</time>
      </trkpt>
      <trkpt lat="44.7689" lon="5.4773">
        <ele>854.5</ele>
        <time>2015-06-28T09:48:19Z</time>
      </trkpt>
      <trkpt lat="44.76899" lon="5.47728">
        <ele>854.5</ele>
        <time>2015-06-28T09:48:29Z</time>
      </trkpt>
      <trkpt lat="44.76909" lon="5.4773">
        <ele>854.5</ele>
        <time>2015-06-28T09:48:36Z</time>
      </trkpt>
      <trkpt lat="44.76918" lon="5.47735">
        <ele>854.5</ele>
        <time>2015-06-28T09:48:46Z</time>
      </trkpt>
      <trkpt lat="44.76926" lon="5.47741">
        <ele>854.5</ele>
        <time>2015-06-28T09:48:58Z</time>
      </trkpt>
      <trkpt lat="44.76934" lon="5.47749">
        <ele>854.5</ele>
        <time>2015-06-28T09:49:07Z</time>
      </trkpt>
      <trkpt lat="44.76942" lon="5.47756">
        <ele>854.5</ele>
        <time>2015-06-28T09:49:14Z</time>
      </trkpt>
      <trkpt lat="44.76952" lon="5.4776">
        <ele>854.5</ele>
        <time>2015-06-28T09:49:22Z</time>
      </trkpt>
      <trkpt lat="44.76961" lon="5.47765">
        <ele>854.5</ele>
        <time>2015-06-28T09:49:30Z</time>
      </trkpt>
      <trkpt lat="44.76971" lon="5.47767">
        <ele>854.5</ele>
        <time>2015-06-28T09:49:39Z</time>
      </trkpt>
      <trkpt lat="44.76981" lon="5.47762">
        <ele>854.5</ele>
        <time>2015-06-28T09:49:46Z</time>
      </trkpt>
      <trkpt lat="44.7699" lon="5.47758">
        <ele>854.5</ele>
        <time>2015-06-28T09:49:56Z</time>
      </trkpt>
      <trkpt lat="44.76999" lon="5.47756">
        <ele>528.5</ele>
        <time>2015-06-28T09:50:02Z</time>
      </trkpt>
      <trkpt lat="44.77008" lon="5.47751">
        <ele>528.5</ele>
        <time>2015-06-28T09:50:09Z</time>
      </trkpt>
      <trkpt lat="44.77017" lon="5.47744">
        <ele>528.5</ele>
        <time>2015-06-28T09:50:17Z</time>
      </trkpt>
      <trkpt lat="44.77026" lon="5.47743">
        <ele>528.5</ele>
        <time>2015-06-28T09:50:27Z</time>
      </trkpt>
      <trkpt lat="44.77036" lon="5.47743">
        <ele>528.5</ele>
        <time>2015-06-28T09:50:35Z</time>
      </trkpt>
      <trkpt lat="44.77044" lon="5.47738">
        <ele>528.5</ele>
        <time>2015-06-28T09:50:44Z</time>
      </trkpt>
      <trkpt lat="44.77053" lon="5.47738">
        <ele>528.5</ele>
        <time>2015-06-28T09:51:00Z</time>
      </trkpt>
      <trkpt lat="44.77062" lon="5.47739">
        <ele>528.5</ele>
        <time>2015-06-28T09:51:07Z</time>
      </trkpt>
      <trkpt lat="44.77071" lon="5.47745">
        <ele>528.5</ele>
        <time>2015-06-28T09:51:16Z</time>
      </trkpt>
      <trkpt lat="44.7708" lon="5.47746">
        <ele>528.5</ele>
        <time>2015-06-28T09:51:25Z</time>
      </trkpt>
      <trkpt lat="44.77089" lon="5.47743">
        <ele>528.5</ele>
        <time>2015-06-28T09:51:32Z</time>
      </trkpt>
      <trkpt lat="44.77098" lon="5.47744">
        <ele>528.5</ele>
        <time>2015-06-28T09:51:48Z</time>
      </trkpt>
      <trkpt lat="44.77108" lon="5.47744">
        <ele>528.5</ele>
        <time>2015-06-28T09:51:58Z</time>
      </trkpt>
      <trkpt lat="44.77117" lon="5.47747">
        <ele>528.5</ele>
        <time>2015-06-28T09:52:06Z</time>
      </trkpt>
      <trkpt lat="44.77126" lon="5.4775">
        <ele>528.5</ele>
        <time>2015-06-28T09:52:13Z</time>
      </trkpt>
      <trkpt lat="44.77136" lon="5.47751">
        <ele>528.5</ele>
        <time>2015-06-28T09:52:20Z</time>
      </trkpt>
      <trkpt lat="44.77145" lon="5.47749">
        <ele>528.5</ele>
        <time>2015-06-28T09:52:27Z</time>
      </trkpt>
      <trkpt lat="44.77154" lon="5.47747">
        <ele>528.5</ele>
        <time>2015-06-28T09:52:36Z</time>
      </trkpt>
      <trkpt lat="44.77164" lon="5.47749">
        <ele>528.5</ele>
        <time>2015-06-28T09:52:44Z</time>
      </trkpt>
      <trkpt lat="44.77172" lon="5.47742">
        <ele>528.5</ele>
        <time>2015-06-28T09:52:54Z</time>
      </trkpt>
      <trkpt lat="44.77182" lon="5.47739">
        <ele>528.5</ele>
        <time>2015-06-28T09:53:01Z</time>
      </trkpt>
      <trkpt lat="44.77191" lon="5.47743">
        <ele>528.5</ele>
        <time>2015-06-28T09:53:11Z</time>
      </trkpt>
      <trkpt lat="44.77198" lon="5.47752">
        <ele>528.5</ele>
        <time>2015-06-28T09:53:19Z</time>
      </trkpt>
      <trkpt lat="44.77206" lon="5.47759">
        <ele>528.5</ele>
        <time>2015-06-28T09:53:28Z</time>
      </trkpt>
      <trkpt lat="44.77212" lon="5.47768">
        <ele>528.5</ele>
        <time>2015-06-28T09:53:38Z</time>
      </trkpt>
      <trkpt lat="44.77217" lon="5.4778">
        <ele>528.5</ele>
        <time>2015-06-28T09:53:48Z</time>
      </trkpt>
      <trkpt lat="44.77226" lon="5.47782">
        <ele>528.5</ele>
        <time>2015-06-28T09:54:08Z</time>
      </trkpt>
      <trkpt lat="44.77235" lon="5.47781">
        <ele>528.5</ele>
        <time>2015-06-28T09:54:17Z</time>
      </trkpt>
      <trkpt lat="44.77243" lon="5.47778">
        <ele>284.1</ele>
        <time>2015-06-28T09:54:30Z</time>
      </trkpt>
      <trkpt lat="44.77253" lon="5.47774">
        <ele>284.1</ele>
        <time>2015-06-28T09:54:40Z</time>
      </trkpt>
      <trkpt lat="44.77261" lon="5.4778">
        <ele>284.1</ele>
        <time>2015-06-28T09:54:49Z</time>
      </trkpt>
      <trkpt lat="44.7727" lon="5.47785">
        <ele>284.1</ele>
        <time>2015-06-28T09:55:01Z</time>
      </trkpt>
      <trkpt lat="44.77278" lon="5.47794">
        <ele>284.1</ele>
        <time>2015-06-28T09:55:13Z</time>
      </trkpt>
      <trkpt lat="44.7728" lon="5.47808">
        <ele>284.1</ele>
        <time>2015-06-28T09:55:27Z</time>
      </trkpt>
      <trkpt lat="44.7728" lon="5.47822">
        <ele>284.1</ele>
        <time>2015-06-28T09:55:38Z</time>
      </trkpt>
      <trkpt lat="44.77281" lon="5.47836">
        <ele>284.1</ele>
        <time>2015-06-28T09:55:51Z</time>
      </trkpt>
      <trkpt lat="44.77279" lon="5.47849">
        <ele>284.1</ele>
        <time>2015-06-28T09:56:00Z</time>
      </trkpt>
      <trkpt lat="44.77275" lon="5.47861">
        <ele>284.1</ele>
        <time>2015-06-28T09:56:09Z</time>
      </trkpt>
      <trkpt lat="44.77269" lon="5.4787">
        <ele>284.1</ele>
        <time>2015-06-28T09:56:16Z</time>
      </trkpt>
      <trkpt lat="44.77264" lon="5.47882">
        <ele>284.1</ele>
        <time>2015-06-28T09:56:28Z</time>
      </trkpt>
      <trkpt lat="44.77257" lon="5.47891">
        <ele>284.1</ele>
        <time>2015-06-28T09:56:36Z</time>
      </trkpt>
      <trkpt lat="44.77252" lon="5.47902">
        <ele>284.1</ele>
        <time>2015-06-28T09:56:44Z</time>
      </trkpt>
      <trkpt lat="44.77242" lon="5.47907">
        <ele>284.1</ele>
        <time>2015-06-28T09:56:53Z</time>
      </trkpt>
      <trkpt lat="44.77235" lon="5.47917">
        <ele>284.1</ele>
        <time>2015-06-28T09:57:04Z</time>
      </trkpt>
      <trkpt lat="44.77226" lon="5.47919">
        <ele>284.1</ele>
        <time>2015-06-28T09:57:18Z</time>
      </trkpt>
      <trkpt lat="44.77217" lon="5.47923">
        <ele>284.1</ele>
        <time>2015-06-28T09:57:31Z</time>
      </trkpt>
      <trkpt lat="44.77207" lon="5.47923">
        <ele>100.6</ele>
        <time>2015-06-28T09:57:51Z</time>
      </trkpt>
      <trkpt lat="44.77199" lon="5.47917">
        <ele>100.6</ele>
        <time>2015-06-28T09:58:13Z</time>
      </trkpt>
      <trkpt lat="44.7719" lon="5.47912">
        <ele>100.6</ele>
        <time>2015-06-28T09:58:26Z</time>
      </trkpt>
      <trkpt lat="44.77182" lon="5.47905">
        <ele>100.6</ele>
        <time>2015-06-28T09:58:39Z</time>
      </trkpt>
      <trkpt lat="44.77175" lon="5.47897">
        <ele>100.6</ele>
        <time>2015-06-28T09:58:51Z</time>
      </trkpt>
      <trkpt lat="44.77166" lon="5.47892">
        <ele>100.6</ele>
        <time>2015-06-28T09:59:01Z</time>
      </trkpt>
      <trkpt lat="44.77157" lon="5.47885">
        <ele>100.6</ele>
        <time>2015-06-28T09:59:17Z</time>
      </trkpt>
      <trkpt lat="44.77149" lon="5.47878">
        <ele>100.6</ele>
        <time>2015-06-28T09:59:27Z</time>
      </trkpt>
      <trkpt lat="44.7714" lon="5.47875">
        <ele>100.6</ele>
        <time>2015-06-28T09:59:39Z</time>
      </trkpt>
      <trkpt lat="44.77131" lon="5.47873">
        <ele>100.6</ele>
        <time>2015-06-28T09:59:49Z</time>
      </trkpt>
      <trkpt lat="44.77121" lon="5.47869">
        <ele>100.6</ele>
        <time>2015-06-28T10:00:01Z</time>
      </trkpt>
      <trkpt lat="44.77112" lon="5.47865">
        <ele>100.6</ele>
        <time>2015-06-28T10:00:09Z</time>
      </trkpt>
      <trkpt lat="44.77103" lon="5.4786">
        <ele>-36.9</ele>
        <time>2015-06-28T10:00:17Z</time>
      </trkpt>
      <trkpt lat="44.77093" lon="5.47859">
        <ele>-36.9</ele>
        <time>2015-06-28T10:00:30Z</time>
      </trkpt>
      <trkpt lat="44.77099" lon="5.47869">
        <ele>-36.9</ele>
        <time>2015-06-28T10:01:00Z</time>
      </trkpt>
      <trkpt lat="44.77105" lon="5.47879">
        <ele>-36.9</ele>
        <time>2015-06-28T10:01:17Z</time>
      </trkpt>
      <trkpt lat="44.77108" lon="5.47892">
        <ele>-36.9</ele>
        <time>2015-06-28T10:01:36Z</time>
      </trkpt>
      <trkpt lat="44.77115" lon="5.47901">
        <ele>-140.1</ele>
        <time>2015-06-28T10:02:11Z</time>
      </trkpt>
      <trkpt lat="44.7712" lon="5.47913">
        <ele>-140.1</ele>
        <time>2015-06-28T10:02:24Z</time>
      </trkpt>
      <trkpt lat="44.77126" lon="5.47924">
        <ele>-140.1</ele>
        <time>2015-06-28T10:02:34Z</time>
      </trkpt>
      <trkpt lat="44.77129" lon="5.47937">
        <ele>-140.1</ele>
        <time>2015-06-28T10:02:45Z</time>
      </trkpt>
      <trkpt lat="44.7712" lon="5.47943">
        <ele>-140.1</ele>
        <time>2015-06-28T10:03:06Z</time>
      </trkpt>
      <trkpt lat="44.7711" lon="5.47941">
        <ele>-140.1</ele>
        <time>2015-06-28T10:03:19Z</time>
      </trkpt>
      <trkpt lat="44.77101" lon="5.47937">
        <ele>-140.1</ele>
        <time>2015-06-28T10:03:28Z</time>
      </trkpt>
      <trkpt lat="44.77092" lon="5.47936">
        <ele>-217.5</ele>
        <time>2015-06-28T10:03:38Z</time>
      </trkpt>
      <trkpt lat="44.77082" lon="5.47937">
        <ele>-217.5</ele>
        <time>2015-06-28T10:03:49Z</time>
      </trkpt>
      <trkpt lat="44.77073" lon="5.47938">
        <ele>-217.5</ele>
        <time>2015-06-28T10:04:01Z</time>
      </trkpt>
      <trkpt lat="44.77063" lon="5.47941">
        <ele>-217.5</ele>
        <time>2015-06-28T10:04:16Z</time>
      </trkpt>
      <trkpt lat="44.77054" lon="5.47944">
        <ele>-217.5</ele>
        <time>2015-06-28T10:04:29Z</time>
      </trkpt>
      <trkpt lat="44.7706" lon="5.47955">
        <ele>-275.5</ele>
        <time>2015-06-28T10:05:02Z</time>
      </trkpt>
      <trkpt lat="44.77067" lon="5.47963">
        <ele>-319.1</ele>
        <time>2015-06-28T10:05:22Z</time>
      </trkpt>
      <trkpt lat="44.77059" lon="5.47971">
        <ele>-319.1</ele>
        <time>2015-06-28T10:05:40Z</time>
      </trkpt>
      <trkpt lat="44.77051" lon="5.47973">
        <ele>-319.1</ele>
        <time>2015-06-28T10:05:54Z</time>
      </trkpt>
      <trkpt lat="44.77055" lon="5.47985">
        <ele>-351.7</ele>
        <time>2015-06-28T10:06:20Z</time>
      </trkpt>
      <trkpt lat="44.77049" lon="5.47994">
        <ele>-394.6</ele>
        <time>2015-06-28T10:06:44Z</time>
      </trkpt>
      <trkpt lat="44.7704" lon="5.48">
        <ele>-408.3</ele>
        <time>2015-06-28T10:06:58Z</time>
      </trkpt>
      <trkpt lat="44.77031" lon="5.48003">
        <ele>-408.3</ele>
        <time>2015-06-28T10:07:06Z</time>
      </trkpt>
      <trkpt lat="44.77021" lon="5.48007">
        <ele>-418.7</ele>
        <time>2015-06-28T10:07:14Z</time>
      </trkpt>
      <trkpt lat="44.77014" lon="5.48015">
        <ele>-432.1</ele>
        <time>2015-06-28T10:07:24Z</time>
      </trkpt>
      <trkpt lat="44.7702" lon="5.48025">
        <ele>-445.1</ele>
        <time>2015-06-28T10:07:47Z</time>
      </trkpt>
      <trkpt lat="44.7703" lon="5.48026">
        <ele>-409.3</ele>
        <time>2015-06-28T10:08:04Z</time>
      </trkpt>
      <trkpt lat="44.77038" lon="5.48034">
        <ele>-369</ele>
        <time>2015-06-28T10:08:17Z</time>
      </trkpt>
      <trkpt lat="44.77047" lon="5.48036">
        <ele>-334.9</ele>
        <time>2015-06-28T10:08:27Z</time>
      </trkpt>
      <trkpt lat="44.77053" lon="5.48044">
        <ele>-295.9</ele>
        <time>2015-06-28T10:08:38Z</time>
      </trkpt>
      <trkpt lat="44.77062" lon="5.4805">
        <ele>-259.7</ele>
        <time>2015-06-28T10:08:48Z</time>
      </trkpt>
      <trkpt lat="44.77069" lon="5.4806">
        <ele>-226.8</ele>
        <time>2015-06-28T10:08:57Z</time>
      </trkpt>
      <trkpt lat="44.77063" lon="5.48071">
        <ele>-123.9</ele>
        <time>2015-06-28T10:09:25Z</time>
      </trkpt>
      <trkpt lat="44.77066" lon="5.48083">
        <ele>-42.7</ele>
        <time>2015-06-28T10:09:47Z</time>
      </trkpt>
      <trkpt lat="44.77072" lon="5.48094">
        <ele>20</ele>
        <time>2015-06-28T10:10:04Z</time>
      </trkpt>
      <trkpt lat="44.77078" lon="5.48104">
        <ele>79</ele>
        <time>2015-06-28T10:10:20Z</time>
      </trkpt>
      <trkpt lat="44.77084" lon="5.48114">
        <ele>127</ele>
        <time>2015-06-28T10:10:33Z</time>
      </trkpt>
      <trkpt lat="44.77078" lon="5.48124">
        <ele>407.4</ele>
        <time>2015-06-28T10:11:49Z</time>
      </trkpt>
      <trkpt lat="44.77069" lon="5.48125">
        <ele>470.2</ele>
        <time>2015-06-28T10:12:06Z</time>
      </trkpt>
      <trkpt lat="44.77066" lon="5.48137">
        <ele>536.6</ele>
        <time>2015-06-28T10:12:24Z</time>
      </trkpt>
      <trkpt lat="44.77061" lon="5.48148">
        <ele>595.6</ele>
        <time>2015-06-28T10:12:40Z</time>
      </trkpt>
      <trkpt lat="44.77058" lon="5.4816">
        <ele>676.8</ele>
        <time>2015-06-28T10:13:02Z</time>
      </trkpt>
      <trkpt lat="44.7705" lon="5.48167">
        <ele>743.2</ele>
        <time>2015-06-28T10:13:20Z</time>
      </trkpt>
      <trkpt lat="44.7706" lon="5.48169">
        <ele>791.2</ele>
        <time>2015-06-28T10:13:33Z</time>
      </trkpt>
      <trkpt lat="44.77061" lon="5.48182">
        <ele>868.7</ele>
        <time>2015-06-28T10:13:54Z</time>
      </trkpt>
      <trkpt lat="44.77054" lon="5.48191">
        <ele>931.5</ele>
        <time>2015-06-28T10:14:11Z</time>
      </trkpt>
      <trkpt lat="44.77061" lon="5.482">
        <ele>1053.2</ele>
        <time>2015-06-28T10:14:44Z</time>
      </trkpt>
      <trkpt lat="44.77067" lon="5.4821">
        <ele>1097.5</ele>
        <time>2015-06-28T10:14:56Z</time>
      </trkpt>
      <trkpt lat="44.77074" lon="5.48219">
        <ele>1175</ele>
        <time>2015-06-28T10:15:17Z</time>
      </trkpt>
      <trkpt lat="44.77083" lon="5.48222">
        <ele>1230.4</ele>
        <time>2015-06-28T10:15:32Z</time>
      </trkpt>
      <trkpt lat="44.77092" lon="5.48222">
        <ele>1256.2</ele>
        <time>2015-06-28T10:15:39Z</time>
      </trkpt>
      <trkpt lat="44.77091" lon="5.48235">
        <ele>1300.5</ele>
        <time>2015-06-28T10:15:51Z</time>
      </trkpt>
      <trkpt lat="44.77085" lon="5.48244">
        <ele>1344.8</ele>
        <time>2015-06-28T10:16:03Z</time>
      </trkpt>
      <trkpt lat="44.7708" lon="5.48256">
        <ele>1385.4</ele>
        <time>2015-06-28T10:16:14Z</time>
      </trkpt>
      <trkpt lat="44.77072" lon="5.48262">
        <ele>1455.5</ele>
        <time>2015-06-28T10:16:33Z</time>
      </trkpt>
      <trkpt lat="44.77081" lon="5.48267">
        <ele>1547.7</ele>
        <time>2015-06-28T10:16:58Z</time>
      </trkpt>
      <trkpt lat="44.77088" lon="5.48275">
        <ele>1604.6</ele>
        <time>2015-06-28T10:17:14Z</time>
      </trkpt>
      <trkpt lat="44.77096" lon="5.48281">
        <ele>1626.2</ele>
        <time>2015-06-28T10:17:25Z</time>
      </trkpt>
      <trkpt lat="44.77106" lon="5.48285">
        <ele>1638.7</ele>
        <time>2015-06-28T10:17:39Z</time>
      </trkpt>
      <trkpt lat="44.77109" lon="5.48298">
        <ele>1643.5</ele>
        <time>2015-06-28T10:17:52Z</time>
      </trkpt>
      <trkpt lat="44.77104" lon="5.48309">
        <ele>1645.7</ele>
        <time>2015-06-28T10:18:06Z</time>
      </trkpt>
      <trkpt lat="44.77113" lon="5.48314">
        <ele>1646.7</ele>
        <time>2015-06-28T10:18:22Z</time>
      </trkpt>
      <trkpt lat="44.77117" lon="5.48325">
        <ele>1647</ele>
        <time>2015-06-28T10:18:40Z</time>
      </trkpt>
      <trkpt lat="44.77125" lon="5.48333">
        <ele>1647.1</ele>
        <time>2015-06-28T10:18:53Z</time>
      </trkpt>
      <trkpt lat="44.77125" lon="5.48346">
        <ele>1647.2</ele>
        <time>2015-06-28T10:19:09Z</time>
      </trkpt>
      <trkpt lat="44.77118" lon="5.48355">
        <ele>1647.2</ele>
        <time>2015-06-28T10:19:32Z</time>
      </trkpt>
      <trkpt lat="44.77111" lon="5.48362">
        <ele>1647.2</ele>
        <time>2015-06-28T10:19:54Z</time>
      </trkpt>
      <trkpt lat="44.77101" lon="5.48363">
        <ele>1647.2</ele>
        <time>2015-06-28T10:20:08Z</time>
      </trkpt>
      <trkpt lat="44.77105" lon="5.48375">
        <ele>1647.2</ele>
        <time>2015-06-28T10:20:24Z</time>
      </trkpt>
      <trkpt lat="44.77106" lon="5.48388">
        <ele>1647.2</ele>
        <time>2015-06-28T10:20:40Z</time>
      </trkpt>
      <trkpt lat="44.77114" lon="5.48393">
        <ele>1647.2</ele>
        <time>2015-06-28T10:20:57Z</time>
      </trkpt>
      <trkpt lat="44.77118" lon="5.48405">
        <ele>1647.2</ele>
        <time>2015-06-28T10:22:28Z</time>
      </trkpt>
      <trkpt lat="44.77117" lon="5.48418">
        <ele>1647.2</ele>
        <time>2015-06-28T10:25:49Z</time>
      </trkpt>
      <trkpt lat="44.77118" lon="5.48431">
        <ele>1647.2</ele>
        <time>2015-06-28T10:26:14Z</time>
      </trkpt>
      <trkpt lat="44.77119" lon="5.48444">
        <ele>1647.2</ele>
        <time>2015-06-28T10:26:37Z</time>
      </trkpt>
      <trkpt lat="44.77113" lon="5.48454">
        <ele>1647.2</ele>
        <time>2015-06-28T10:27:34Z</time>
      </trkpt>
      <trkpt lat="44.77114" lon="5.48467">
        <ele>1647.2</ele>
        <time>2015-06-28T10:28:04Z</time>
      </trkpt>
      <trkpt lat="44.77105" lon="5.48469">
        <ele>1647.2</ele>
        <time>2015-06-28T10:28:32Z</time>
      </trkpt>
      <trkpt lat="44.77103" lon="5.48482">
        <ele>1647.2</ele>
        <time>2015-06-28T10:29:03Z</time>
      </trkpt>
      <trkpt lat="44.77099" lon="5.48493">
        <ele>1647.2</ele>
        <time>2015-06-28T10:29:34Z</time>
      </trkpt>
      <trkpt lat="44.77097" lon="5.48505">
        <ele>1647.2</ele>
        <time>2015-06-28T10:30:22Z</time>
      </trkpt>
      <trkpt lat="44.77088" lon="5.48511">
        <ele>1647.2</ele>
        <time>2015-06-28T10:31:08Z</time>
      </trkpt>
      <trkpt lat="44.77088" lon="5.48524">
        <ele>1647.2</ele>
        <time>2015-06-28T10:32:11Z</time>
      </trkpt>
      <trkpt lat="44.77089" lon="5.48538">
        <ele>1647.2</ele>
        <time>2015-06-28T10:32:32Z</time>
      </trkpt>
      <trkpt lat="44.77096" lon="5.48547">
        <ele>1647.2</ele>
        <time>2015-06-28T10:32:53Z</time>
      </trkpt>
      <trkpt lat="44.77103" lon="5.48555">
        <ele>1647.2</ele>
        <time>2015-06-28T10:33:11Z</time>
      </trkpt>
      <trkpt lat="44.77111" lon="5.4855">
        <ele>1647.2</ele>
        <time>2015-06-28T10:33:26Z</time>
      </trkpt>
      <trkpt lat="44.77116" lon="5.48538">
        <ele>1647.2</ele>
        <time>2015-06-28T10:33:42Z</time>
      </trkpt>
      <trkpt lat="44.77125" lon="5.48536">
        <ele>1647.2</ele>
        <time>2015-06-28T10:33:54Z</time>
      </trkpt>
      <trkpt lat="44.77132" lon="5.48545">
        <ele>1647.2</ele>
        <time>2015-06-28T10:34:07Z</time>
      </trkpt>
      <trkpt lat="44.7713" lon="5.48557">
        <ele>1647.2</ele>
        <time>2015-06-28T10:34:52Z</time>
      </trkpt>
      <trkpt lat="44.77133" lon="5.48569">
        <ele>1647.2</ele>
        <time>2015-06-28T10:35:10Z</time>
      </trkpt>
      <trkpt lat="44.77126" lon="5.48578">
        <ele>1647.2</ele>
        <time>2015-06-28T10:35:41Z</time>
      </trkpt>
      <trkpt lat="44.77123" lon="5.4859">
        <ele>1647.2</ele>
        <time>2015-06-28T10:36:03Z</time>
      </trkpt>
      <trkpt lat="44.77114" lon="5.48591">
        <ele>1647.2</ele>
        <time>2015-06-28T10:36:22Z</time>
      </trkpt>
      <trkpt lat="44.77104" lon="5.4859">
        <ele>1647.2</ele>
        <time>2015-06-28T10:36:34Z</time>
      </trkpt>
      <trkpt lat="44.77095" lon="5.48587">
        <ele>1647.2</ele>
        <time>2015-06-28T10:36:46Z</time>
      </trkpt>
      <trkpt lat="44.77085" lon="5.48589">
        <ele>1647.2</ele>
        <time>2015-06-28T10:36:55Z</time>
      </trkpt>
      <trkpt lat="44.77076" lon="5.4859">
        <ele>1647.2</ele>
        <time>2015-06-28T10:37:07Z</time>
      </trkpt>
      <trkpt lat="44.77071" lon="5.48578">
        <ele>1647.2</ele>
        <time>2015-06-28T10:37:17Z</time>
      </trkpt>
      <trkpt lat="44.77065" lon="5.48567">
        <ele>1647.2</ele>
        <time>2015-06-28T10:37:31Z</time>
      </trkpt>
      <trkpt lat="44.77058" lon="5.48559">
        <ele>1647.2</ele>
        <time>2015-06-28T10:37:41Z</time>
      </trkpt>
      <trkpt lat="44.77051" lon="5.48551">
        <ele>1647.2</ele>
        <time>2015-06-28T10:37:49Z</time>
      </trkpt>
      <trkpt lat="44.77043" lon="5.48545">
        <ele>1647.2</ele>
        <time>2015-06-28T10:37:57Z</time>
      </trkpt>
      <trkpt lat="44.77034" lon="5.48539">
        <ele>1647.2</ele>
        <time>2015-06-28T10:38:08Z</time>
      </trkpt>
      <trkpt lat="44.77026" lon="5.4853">
        <ele>1647.2</ele>
        <time>2015-06-28T10:38:18Z</time>
      </trkpt>
      <trkpt lat="44.77016" lon="5.48524">
        <ele>1647.2</ele>
        <time>2015-06-28T10:38:27Z</time>
      </trkpt>
      <trkpt lat="44.77009" lon="5.48517">
        <ele>1647.2</ele>
        <time>2015-06-28T10:38:37Z</time>
      </trkpt>
      <trkpt lat="44.76999" lon="5.48516">
        <ele>1647.2</ele>
        <time>2015-06-28T10:38:48Z</time>
      </trkpt>
      <trkpt lat="44.76992" lon="5.48506">
        <ele>1647.2</ele>
        <time>2015-06-28T10:38:55Z</time>
      </trkpt>
      <trkpt lat="44.76982" lon="5.48505">
        <ele>1647.2</ele>
        <time>2015-06-28T10:39:05Z</time>
      </trkpt>
      <trkpt lat="44.76973" lon="5.48504">
        <ele>1647.2</ele>
        <time>2015-06-28T10:39:15Z</time>
      </trkpt>
      <trkpt lat="44.76964" lon="5.48501">
        <ele>1647.2</ele>
        <time>2015-06-28T10:39:25Z</time>
      </trkpt>
      <trkpt lat="44.76954" lon="5.48498">
        <ele>1647.2</ele>
        <time>2015-06-28T10:39:34Z</time>
      </trkpt>
      <trkpt lat="44.76945" lon="5.48496">
        <ele>1647.2</ele>
        <time>2015-06-28T10:39:45Z</time>
      </trkpt>
      <trkpt lat="44.76936" lon="5.48495">
        <ele>1647.2</ele>
        <time>2015-06-28T10:39:55Z</time>
      </trkpt>
      <trkpt lat="44.76926" lon="5.48495">
        <ele>1647.2</ele>
        <time>2015-06-28T10:40:05Z</time>
      </trkpt>
      <trkpt lat="44.76916" lon="5.48498">
        <ele>1647.2</ele>
        <time>2015-06-28T10:40:28Z</time>
      </trkpt>
      <trkpt lat="44.76912" lon="5.48509">
        <ele>1647.2</ele>
        <time>2015-06-28T10:40:48Z</time>
      </trkpt>
      <trkpt lat="44.76903" lon="5.48501">
        <ele>1647.2</ele>
        <time>2015-06-28T10:41:05Z</time>
      </trkpt>
      <trkpt lat="44.76894" lon="5.485">
        <ele>1647.2</ele>
        <time>2015-06-28T10:41:25Z</time>
      </trkpt>
      <trkpt lat="44.76885" lon="5.48497">
        <ele>1647.2</ele>
        <time>2015-06-28T10:41:40Z</time>
      </trkpt>
      <trkpt lat="44.76876" lon="5.48495">
        <ele>1647.2</ele>
        <time>2015-06-28T10:41:58Z</time>
      </trkpt>
      <trkpt lat="44.76866" lon="5.48493">
        <ele>1647.2</ele>
        <time>2015-06-28T10:42:06Z</time>
      </trkpt>
      <trkpt lat="44.76857" lon="5.48499">
        <ele>1647.2</ele>
        <time>2015-06-28T10:42:48Z</time>
      </trkpt>
      <trkpt lat="44.76848" lon="5.48496">
        <ele>1647.2</ele>
        <time>2015-06-28T10:42:59Z</time>
      </trkpt>
      <trkpt lat="44.76839" lon="5.48494">
        <ele>1647.2</ele>
        <time>2015-06-28T10:43:11Z</time>
      </trkpt>
      <trkpt lat="44.76829" lon="5.48494">
        <ele>1647.2</ele>
        <time>2015-06-28T10:43:21Z</time>
      </trkpt>
      <trkpt lat="44.7682" lon="5.48497">
        <ele>1647.2</ele>
        <time>2015-06-28T10:43:34Z</time>
      </trkpt>
      <trkpt lat="44.76811" lon="5.48498">
        <ele>1647.2</ele>
        <time>2015-06-28T10:43:47Z</time>
      </trkpt>
      <trkpt lat="44.76801" lon="5.48501">
        <ele>1647.2</ele>
        <time>2015-06-28T10:44:03Z</time>
      </trkpt>
      <trkpt lat="44.76792" lon="5.48503">
        <ele>1647.2</ele>
        <time>2015-06-28T10:44:15Z</time>
      </trkpt>
      <trkpt lat="44.76783" lon="5.48503">
        <ele>1647.2</ele>
        <time>2015-06-28T10:44:26Z</time>
      </trkpt>
      <trkpt lat="44.76773" lon="5.48501">
        <ele>1647.2</ele>
        <time>2015-06-28T10:44:37Z</time>
      </trkpt>
      <trkpt lat="44.76764" lon="5.48497">
        <ele>1647.2</ele>
        <time>2015-06-28T10:44:57Z</time>
      </trkpt>
      <trkpt lat="44.76754" lon="5.48496">
        <ele>1647.2</ele>
        <time>2015-06-28T10:45:10Z</time>
      </trkpt>
      <trkpt lat="44.76746" lon="5.48491">
        <ele>1647.2</ele>
        <time>2015-06-28T10:45:21Z</time>
      </trkpt>
      <trkpt lat="44.76736" lon="5.48487">
        <ele>1647.2</ele>
        <time>2015-06-28T10:45:30Z</time>
      </trkpt>
      <trkpt lat="44.76728" lon="5.48484">
        <ele>1647.2</ele>
        <time>2015-06-28T10:45:41Z</time>
      </trkpt>
      <trkpt lat="44.76719" lon="5.48479">
        <ele>1647.2</ele>
        <time>2015-06-28T10:45:55Z</time>
      </trkpt>
      <trkpt lat="44.76709" lon="5.48475">
        <ele>1647.2</ele>
        <time>2015-06-28T10:46:05Z</time>
      </trkpt>
      <trkpt lat="44.76701" lon="5.48469">
        <ele>1647.2</ele>
        <time>2015-06-28T10:46:19Z</time>
      </trkpt>
      <trkpt lat="44.76693" lon="5.48463">
        <ele>1647.2</ele>
        <time>2015-06-28T10:46:36Z</time>
      </trkpt>
      <trkpt lat="44.76683" lon="5.4846">
        <ele>1647.2</ele>
        <time>2015-06-28T10:46:50Z</time>
      </trkpt>
      <trkpt lat="44.76675" lon="5.48453">
        <ele>1647.2</ele>
        <time>2015-06-28T10:47:02Z</time>
      </trkpt>
      <trkpt lat="44.76666" lon="5.48447">
        <ele>1647.2</ele>
        <time>2015-06-28T10:47:14Z</time>
      </trkpt>
      <trkpt lat="44.7666" lon="5.48437">
        <ele>1647.2</ele>
        <time>2015-06-28T10:47:28Z</time>
      </trkpt>
      <trkpt lat="44.76651" lon="5.48434">
        <ele>1647.2</ele>
        <time>2015-06-28T10:47:40Z</time>
      </trkpt>
      <trkpt lat="44.76642" lon="5.48429">
        <ele>1647.2</ele>
        <time>2015-06-28T10:48:04Z</time>
      </trkpt>
      <trkpt lat="44.76634" lon="5.48421">
        <ele>1647.2</ele>
        <time>2015-06-28T10:48:18Z</time>
      </trkpt>
      <trkpt lat="44.76624" lon="5.48425">
        <ele>1647.2</ele>
        <time>2015-06-28T10:48:25Z</time>
      </trkpt>
      <trkpt lat="44.76614" lon="5.48425">
        <ele>1647.2</ele>
        <time>2015-06-28T10:48:38Z</time>
      </trkpt>
      <trkpt lat="44.76605" lon="5.48423">
        <ele>1647.2</ele>
        <time>2015-06-28T10:48:56Z</time>
      </trkpt>
      <trkpt lat="44.76596" lon="5.48418">
        <ele>1647.2</ele>
        <time>2015-06-28T10:49:16Z</time>
      </trkpt>
      <trkpt lat="44.76588" lon="5.48412">
        <ele>1647.2</ele>
        <time>2015-06-28T10:49:37Z</time>
      </trkpt>
      <trkpt lat="44.7658" lon="5.48407">
        <ele>1647.2</ele>
        <time>2015-06-28T10:49:50Z</time>
      </trkpt>
      <trkpt lat="44.76572" lon="5.48399">
        <ele>1647.2</ele>
        <time>2015-06-28T10:50:02Z</time>
      </trkpt>
      <trkpt lat="44.76563" lon="5.48396">
        <ele>1647.2</ele>
        <time>2015-06-28T10:50:19Z</time>
      </trkpt>
      <trkpt lat="44.76554" lon="5.48391">
        <ele>1647.2</ele>
        <time>2015-06-28T10:50:34Z</time>
      </trkpt>
      <trkpt lat="44.76545" lon="5.48388">
        <ele>1647.2</ele>
        <time>2015-06-28T10:50:44Z</time>
      </trkpt>
      <trkpt lat="44.76536" lon="5.48386">
        <ele>1647</ele>
        <time>2015-06-28T10:50:56Z</time>
      </trkpt>
      <trkpt lat="44.76536" lon="5.48373">
        <ele>1647.2</ele>
        <time>2015-06-28T10:51:26Z</time>
      </trkpt>
      <trkpt lat="44.76529" lon="5.48365">
        <ele>1647</ele>
        <time>2015-06-28T10:51:46Z</time>
      </trkpt>
      <trkpt lat="44.76519" lon="5.48356">
        <ele>1647</ele>
        <time>2015-06-28T10:51:58Z</time>
      </trkpt>
      <trkpt lat="44.76506" lon="5.48353">
        <ele>1647</ele>
        <time>2015-06-28T10:52:10Z</time>
      </trkpt>
      <trkpt lat="44.76495" lon="5.48355">
        <ele>1647</ele>
        <time>2015-06-28T10:52:22Z</time>
      </trkpt>
      <trkpt lat="44.76485" lon="5.48356">
        <ele>1647</ele>
        <time>2015-06-28T10:52:34Z</time>
      </trkpt>
      <trkpt lat="44.7647" lon="5.48367">
        <ele>1647</ele>
        <time>2015-06-28T10:52:54Z</time>
      </trkpt>
      <trkpt lat="44.76464" lon="5.48376">
        <ele>1647.2</ele>
        <time>2015-06-28T10:52:57Z</time>
      </trkpt>
      <trkpt lat="44.76457" lon="5.48387">
        <ele>1647.2</ele>
        <time>2015-06-28T10:53:03Z</time>
      </trkpt>
      <trkpt lat="44.76449" lon="5.48395">
        <ele>1647.2</ele>
        <time>2015-06-28T10:53:11Z</time>
      </trkpt>
      <trkpt lat="44.76443" lon="5.48404">
        <ele>1647.2</ele>
        <time>2015-06-28T10:53:22Z</time>
      </trkpt>
      <trkpt lat="44.76435" lon="5.48411">
        <ele>1647.2</ele>
        <time>2015-06-28T10:53:31Z</time>
      </trkpt>
      <trkpt lat="44.7643" lon="5.48423">
        <ele>1647.2</ele>
        <time>2015-06-28T10:53:43Z</time>
      </trkpt>
      <trkpt lat="44.76421" lon="5.48435">
        <ele>1647</ele>
        <time>2015-06-28T10:53:56Z</time>
      </trkpt>
      <trkpt lat="44.76411" lon="5.48446">
        <ele>1647</ele>
        <time>2015-06-28T10:54:08Z</time>
      </trkpt>
      <trkpt lat="44.76406" lon="5.48457">
        <ele>1647</ele>
        <time>2015-06-28T10:54:24Z</time>
      </trkpt>
      <trkpt lat="44.76408" lon="5.48438">
        <ele>1647</ele>
        <time>2015-06-28T10:54:48Z</time>
      </trkpt>
      <trkpt lat="44.76405" lon="5.48424">
        <ele>1647</ele>
        <time>2015-06-28T10:55:12Z</time>
      </trkpt>
      <trkpt lat="44.76396" lon="5.4842">
        <ele>1647</ele>
        <time>2015-06-28T10:55:36Z</time>
      </trkpt>
      <trkpt lat="44.76404" lon="5.4841">
        <ele>1647.2</ele>
        <time>2015-06-28T10:55:55Z</time>
      </trkpt>
      <trkpt lat="44.76404" lon="5.48396">
        <ele>1647.2</ele>
        <time>2015-06-28T10:56:19Z</time>
      </trkpt>
      <trkpt lat="44.76394" lon="5.48391">
        <ele>1647.2</ele>
        <time>2015-06-28T10:57:25Z</time>
      </trkpt>
      <trkpt lat="44.76388" lon="5.48381">
        <ele>1647.2</ele>
        <time>2015-06-28T10:57:48Z</time>
      </trkpt>
      <trkpt lat="44.76385" lon="5.48367">
        <ele>1647.2</ele>
        <time>2015-06-28T10:57:55Z</time>
      </trkpt>
      <trkpt lat="44.76381" lon="5.48354">
        <ele>1647.2</ele>
        <time>2015-06-28T10:58:00Z</time>
      </trkpt>
      <trkpt lat="44.76377" lon="5.48342">
        <ele>1647.2</ele>
        <time>2015-06-28T10:58:11Z</time>
      </trkpt>
      <trkpt lat="44.76373" lon="5.48331">
        <ele>1647.2</ele>
        <time>2015-06-28T10:58:18Z</time>
      </trkpt>
      <trkpt lat="44.76368" lon="5.48315">
        <ele>1647.2</ele>
        <time>2015-06-28T10:58:24Z</time>
      </trkpt>
      <trkpt lat="44.76363" lon="5.483">
        <ele>1647.2</ele>
        <time>2015-06-28T10:58:26Z</time>
      </trkpt>
      <trkpt lat="44.76359" lon="5.48286">
        <ele>1647.2</ele>
        <time>2015-06-28T10:58:28Z</time>
      </trkpt>
      <trkpt lat="44.76355" lon="5.4827">
        <ele>1647.2</ele>
        <time>2015-06-28T10:58:30Z</time>
      </trkpt>
      <trkpt lat="44.76349" lon="5.48251">
        <ele>1647.2</ele>
        <time>2015-06-28T10:58:32Z</time>
      </trkpt>
      <trkpt lat="44.76345" lon="5.48238">
        <ele>1647.2</ele>
        <time>2015-06-28T10:58:34Z</time>
      </trkpt>
      <trkpt lat="44.76341" lon="5.48224">
        <ele>1647.2</ele>
        <time>2015-06-28T10:58:37Z</time>
      </trkpt>
      <trkpt lat="44.76336" lon="5.4821">
        <ele>1647.2</ele>
        <time>2015-06-28T10:58:39Z</time>
      </trkpt>
      <trkpt lat="44.76334" lon="5.48196">
        <ele>1647.2</ele>
        <time>2015-06-28T10:58:47Z</time>
      </trkpt>
      <trkpt lat="44.76331" lon="5.4818">
        <ele>1647.2</ele>
        <time>2015-06-28T10:58:55Z</time>
      </trkpt>
      <trkpt lat="44.76327" lon="5.48168">
        <ele>1647.2</ele>
        <time>2015-06-28T10:58:58Z</time>
      </trkpt>
      <trkpt lat="44.76324" lon="5.48155">
        <ele>1647.2</ele>
        <time>2015-06-28T10:59:01Z</time>
      </trkpt>
      <trkpt lat="44.7632" lon="5.48143">
        <ele>1647.2</ele>
        <time>2015-06-28T10:59:03Z</time>
      </trkpt>
      <trkpt lat="44.76315" lon="5.48126">
        <ele>1647.2</ele>
        <time>2015-06-28T10:59:06Z</time>
      </trkpt>
      <trkpt lat="44.76309" lon="5.48112">
        <ele>1647.2</ele>
        <time>2015-06-28T10:59:33Z</time>
      </trkpt>
      <trkpt lat="44.76304" lon="5.481">
        <ele>1647.2</ele>
        <time>2015-06-28T10:59:35Z</time>
      </trkpt>
      <trkpt lat="44.76299" lon="5.48084">
        <ele>1647.2</ele>
        <time>2015-06-28T10:59:37Z</time>
      </trkpt>
      <trkpt lat="44.76294" lon="5.4807">
        <ele>1647.2</ele>
        <time>2015-06-28T10:59:39Z</time>
      </trkpt>
      <trkpt lat="44.7629" lon="5.48083">
        <ele>1647.2</ele>
        <time>2015-06-28T11:00:28Z</time>
      </trkpt>
      <trkpt lat="44.76293" lon="5.48095">
        <ele>1647.2</ele>
        <time>2015-06-28T11:00:41Z</time>
      </trkpt>
      <trkpt lat="44.76297" lon="5.48107">
        <ele>1647.2</ele>
        <time>2015-06-28T11:00:57Z</time>
      </trkpt>
      <trkpt lat="44.763" lon="5.4812">
        <ele>1647.2</ele>
        <time>2015-06-28T11:01:16Z</time>
      </trkpt>
      <trkpt lat="44.76307" lon="5.48129">
        <ele>1647.2</ele>
        <time>2015-06-28T11:01:27Z</time>
      </trkpt>
      <trkpt lat="44.76312" lon="5.48141">
        <ele>1647.2</ele>
        <time>2015-06-28T11:01:40Z</time>
      </trkpt>
      <trkpt lat="44.76316" lon="5.48155">
        <ele>1647.2</ele>
        <time>2015-06-28T11:01:43Z</time>
      </trkpt>
      <trkpt lat="44.76321" lon="5.4817">
        <ele>1647.2</ele>
        <time>2015-06-28T11:01:46Z</time>
      </trkpt>
      <trkpt lat="44.76326" lon="5.48183">
        <ele>1647.2</ele>
        <time>2015-06-28T11:01:50Z</time>
      </trkpt>
      <trkpt lat="44.76331" lon="5.48194">
        <ele>1647.2</ele>
        <time>2015-06-28T11:01:55Z</time>
      </trkpt>
      <trkpt lat="44.76335" lon="5.48206">
        <ele>1647.2</ele>
        <time>2015-06-28T11:02:01Z</time>
      </trkpt>
      <trkpt lat="44.76351" lon="5.48256">
        <ele>1647</ele>
        <time>2015-06-28T11:02:06Z</time>
      </trkpt>
      <trkpt lat="44.76362" lon="5.48286">
        <ele>1647.2</ele>
        <time>2015-06-28T11:02:11Z</time>
      </trkpt>
      <trkpt lat="44.76367" lon="5.48297">
        <ele>1647.2</ele>
        <time>2015-06-28T11:02:13Z</time>
      </trkpt>
      <trkpt lat="44.76371" lon="5.4831">
        <ele>1647.2</ele>
        <time>2015-06-28T11:02:15Z</time>
      </trkpt>
      <trkpt lat="44.76376" lon="5.48325">
        <ele>1647.2</ele>
        <time>2015-06-28T11:02:18Z</time>
      </trkpt>
      <trkpt lat="44.76379" lon="5.48338">
        <ele>1647.2</ele>
        <time>2015-06-28T11:02:24Z</time>
      </trkpt>
      <trkpt lat="44.76382" lon="5.48351">
        <ele>1647.2</ele>
        <time>2015-06-28T11:02:28Z</time>
      </trkpt>
      <trkpt lat="44.76387" lon="5.48364">
        <ele>1647.2</ele>
        <time>2015-06-28T11:02:34Z</time>
      </trkpt>
      <trkpt lat="44.76389" lon="5.48377">
        <ele>1647.2</ele>
        <time>2015-06-28T11:02:46Z</time>
      </trkpt>
      <trkpt lat="44.76397" lon="5.48385">
        <ele>1647.2</ele>
        <time>2015-06-28T11:03:08Z</time>
      </trkpt>
      <trkpt lat="44.764" lon="5.48398">
        <ele>1647.2</ele>
        <time>2015-06-28T11:03:21Z</time>
      </trkpt>
      <trkpt lat="44.76401" lon="5.4841">
        <ele>1647.2</ele>
        <time>2015-06-28T11:03:52Z</time>
      </trkpt>
      <trkpt lat="44.76407" lon="5.48421">
        <ele>1647.2</ele>
        <time>2015-06-28T11:06:20Z</time>
      </trkpt>
      <trkpt lat="44.76398" lon="5.48427">
        <ele>1647.2</ele>
        <time>2015-06-28T11:08:15Z</time>
      </trkpt>
      <trkpt lat="44.76389" lon="5.48431">
        <ele>1647</ele>
        <time>2015-06-28T11:08:45Z</time>
      </trkpt>
      <trkpt lat="44.7638" lon="5.48435">
        <ele>1647.2</ele>
        <time>2015-06-28T11:09:00Z</time>
      </trkpt>
      <trkpt lat="44.76374" lon="5.48446">
        <ele>1647.2</ele>
        <time>2015-06-28T11:09:13Z</time>
      </trkpt>
      <trkpt lat="44.76372" lon="5.4846">
        <ele>1647.2</ele>
        <time>2015-06-28T11:09:21Z</time>
      </trkpt>
      <trkpt lat="44.76363" lon="5.48465">
        <ele>1647.2</ele>
        <time>2015-06-28T11:09:35Z</time>
      </trkpt>
      <trkpt lat="44.76353" lon="5.48464">
        <ele>1647.2</ele>
        <time>2015-06-28T11:09:44Z</time>
      </trkpt>
      <trkpt lat="44.76343" lon="5.48465">
        <ele>1647.2</ele>
        <time>2015-06-28T11:09:53Z</time>
      </trkpt>
      <trkpt lat="44.76334" lon="5.48466">
        <ele>1647.2</ele>
        <time>2015-06-28T11:10:07Z</time>
      </trkpt>
      <trkpt lat="44.76331" lon="5.48478">
        <ele>1647.2</ele>
        <time>2015-06-28T11:10:56Z</time>
      </trkpt>
      <trkpt lat="44.76331" lon="5.48492">
        <ele>1647.2</ele>
        <time>2015-06-28T11:11:08Z</time>
      </trkpt>
      <trkpt lat="44.76334" lon="5.48504">
        <ele>1647.2</ele>
        <time>2015-06-28T11:11:21Z</time>
      </trkpt>
      <trkpt lat="44.76337" lon="5.48517">
        <ele>1647.2</ele>
        <time>2015-06-28T11:11:33Z</time>
      </trkpt>
      <trkpt lat="44.76336" lon="5.48531">
        <ele>1647.2</ele>
        <time>2015-06-28T11:11:42Z</time>
      </trkpt>
      <trkpt lat="44.76336" lon="5.48544">
        <ele>1647.2</ele>
        <time>2015-06-28T11:11:52Z</time>
      </trkpt>
      <trkpt lat="44.76333" lon="5.48557">
        <ele>1647.2</ele>
        <time>2015-06-28T11:12:02Z</time>
      </trkpt>
      <trkpt lat="44.76327" lon="5.48568">
        <ele>1647.2</ele>
        <time>2015-06-28T11:12:16Z</time>
      </trkpt>
      <trkpt lat="44.76321" lon="5.48576">
        <ele>1647.2</ele>
        <time>2015-06-28T11:12:24Z</time>
      </trkpt>
      <trkpt lat="44.76316" lon="5.48588">
        <ele>1647.2</ele>
        <time>2015-06-28T11:12:31Z</time>
      </trkpt>
      <trkpt lat="44.76308" lon="5.48596">
        <ele>1647.2</ele>
        <time>2015-06-28T11:12:39Z</time>
      </trkpt>
      <trkpt lat="44.76302" lon="5.48605">
        <ele>1647.2</ele>
        <time>2015-06-28T11:12:52Z</time>
      </trkpt>
      <trkpt lat="44.76295" lon="5.48613">
        <ele>1647.2</ele>
        <time>2015-06-28T11:13:17Z</time>
      </trkpt>
      <trkpt lat="44.76289" lon="5.48604">
        <ele>1647.2</ele>
        <time>2015-06-28T11:13:33Z</time>
      </trkpt>
      <trkpt lat="44.76298" lon="5.48603">
        <ele>1647.2</ele>
        <time>2015-06-28T11:14:20Z</time>
      </trkpt>
      <trkpt lat="44.76305" lon="5.48594">
        <ele>1647.2</ele>
        <time>2015-06-28T11:16:09Z</time>
      </trkpt>
      <trkpt lat="44.76294" lon="5.48598">
        <ele>1647.2</ele>
        <time>2015-06-28T11:16:54Z</time>
      </trkpt>
      <trkpt lat="44.76284" lon="5.48595">
        <ele>1647.2</ele>
        <time>2015-06-28T11:16:59Z</time>
      </trkpt>
      <trkpt lat="44.76275" lon="5.48591">
        <ele>1647.2</ele>
        <time>2015-06-28T11:17:05Z</time>
      </trkpt>
      <trkpt lat="44.76266" lon="5.48589">
        <ele>1647.2</ele>
        <time>2015-06-28T11:17:13Z</time>
      </trkpt>
      <trkpt lat="44.76257" lon="5.48593">
        <ele>1647.2</ele>
        <time>2015-06-28T11:17:26Z</time>
      </trkpt>
      <trkpt lat="44.76247" lon="5.48596">
        <ele>1647.2</ele>
        <time>2015-06-28T11:17:35Z</time>
      </trkpt>
      <trkpt lat="44.76238" lon="5.486">
        <ele>1647.2</ele>
        <time>2015-06-28T11:17:46Z</time>
      </trkpt>
      <trkpt lat="44.76228" lon="5.48603">
        <ele>1647.2</ele>
        <time>2015-06-28T11:18:11Z</time>
      </trkpt>
      <trkpt lat="44.76219" lon="5.48602">
        <ele>1647.2</ele>
        <time>2015-06-28T11:18:26Z</time>
      </trkpt>
      <trkpt lat="44.76217" lon="5.48616">
        <ele>1647.2</ele>
        <time>2015-06-28T11:18:36Z</time>
      </trkpt>
      <trkpt lat="44.76208" lon="5.4862">
        <ele>1647.2</ele>
        <time>2015-06-28T11:18:49Z</time>
      </trkpt>
      <trkpt lat="44.762" lon="5.48613">
        <ele>1647.2</ele>
        <time>2015-06-28T11:19:01Z</time>
      </trkpt>
      <trkpt lat="44.76191" lon="5.48611">
        <ele>1647.2</ele>
        <time>2015-06-28T11:19:10Z</time>
      </trkpt>
      <trkpt lat="44.76182" lon="5.48614">
        <ele>1647.2</ele>
        <time>2015-06-28T11:19:22Z</time>
      </trkpt>
      <trkpt lat="44.76172" lon="5.48618">
        <ele>1647.2</ele>
        <time>2015-06-28T11:19:33Z</time>
      </trkpt>
      <trkpt lat="44.76164" lon="5.48625">
        <ele>1647.2</ele>
        <time>2015-06-28T11:19:43Z</time>
      </trkpt>
      <trkpt lat="44.76155" lon="5.48631">
        <ele>1647.2</ele>
        <time>2015-06-28T11:19:54Z</time>
      </trkpt>
      <trkpt lat="44.76145" lon="5.48636">
        <ele>1647.2</ele>
        <time>2015-06-28T11:20:08Z</time>
      </trkpt>
      <trkpt lat="44.76136" lon="5.48639">
        <ele>1647.2</ele>
        <time>2015-06-28T11:20:16Z</time>
      </trkpt>
      <trkpt lat="44.76127" lon="5.48645">
        <ele>1647.2</ele>
        <time>2015-06-28T11:20:28Z</time>
      </trkpt>
      <trkpt lat="44.76119" lon="5.48652">
        <ele>1647.2</ele>
        <time>2015-06-28T11:20:44Z</time>
      </trkpt>
      <trkpt lat="44.76112" lon="5.4866">
        <ele>1647.2</ele>
        <time>2015-06-28T11:20:57Z</time>
      </trkpt>
      <trkpt lat="44.76102" lon="5.48663">
        <ele>1647.2</ele>
        <time>2015-06-28T11:21:12Z</time>
      </trkpt>
      <trkpt lat="44.76094" lon="5.4867">
        <ele>1647.2</ele>
        <time>2015-06-28T11:21:24Z</time>
      </trkpt>
      <trkpt lat="44.76087" lon="5.48679">
        <ele>1647.2</ele>
        <time>2015-06-28T11:21:33Z</time>
      </trkpt>
      <trkpt lat="44.76079" lon="5.48685">
        <ele>1647.2</ele>
        <time>2015-06-28T11:21:47Z</time>
      </trkpt>
      <trkpt lat="44.76069" lon="5.48684">
        <ele>1647.2</ele>
        <time>2015-06-28T11:22:00Z</time>
      </trkpt>
      <trkpt lat="44.7606" lon="5.48684">
        <ele>1647.2</ele>
        <time>2015-06-28T11:22:16Z</time>
      </trkpt>
      <trkpt lat="44.7605" lon="5.48684">
        <ele>1647.2</ele>
        <time>2015-06-28T11:22:27Z</time>
      </trkpt>
      <trkpt lat="44.76041" lon="5.48683">
        <ele>1647.2</ele>
        <time>2015-06-28T11:22:36Z</time>
      </trkpt>
      <trkpt lat="44.76035" lon="5.48694">
        <ele>1647.2</ele>
        <time>2015-06-28T11:22:43Z</time>
      </trkpt>
      <trkpt lat="44.76028" lon="5.48703">
        <ele>1647.2</ele>
        <time>2015-06-28T11:22:50Z</time>
      </trkpt>
      <trkpt lat="44.76018" lon="5.48703">
        <ele>1647.2</ele>
        <time>2015-06-28T11:22:58Z</time>
      </trkpt>
      <trkpt lat="44.7601" lon="5.48697">
        <ele>1647.2</ele>
        <time>2015-06-28T11:23:07Z</time>
      </trkpt>
      <trkpt lat="44.76001" lon="5.487">
        <ele>1647.2</ele>
        <time>2015-06-28T11:23:21Z</time>
      </trkpt>
      <trkpt lat="44.75993" lon="5.48709">
        <ele>1647.2</ele>
        <time>2015-06-28T11:23:36Z</time>
      </trkpt>
      <trkpt lat="44.75988" lon="5.48719">
        <ele>1647.2</ele>
        <time>2015-06-28T11:23:44Z</time>
      </trkpt>
      <trkpt lat="44.75983" lon="5.4873">
        <ele>1647.2</ele>
        <time>2015-06-28T11:24:20Z</time>
      </trkpt>
      <trkpt lat="44.7598" lon="5.48743">
        <ele>1647.2</ele>
        <time>2015-06-28T11:24:30Z</time>
      </trkpt>
      <trkpt lat="44.75977" lon="5.48757">
        <ele>1647.2</ele>
        <time>2015-06-28T11:24:39Z</time>
      </trkpt>
      <trkpt lat="44.75978" lon="5.4877">
        <ele>1647.2</ele>
        <time>2015-06-28T11:24:49Z</time>
      </trkpt>
      <trkpt lat="44.75974" lon="5.48783">
        <ele>1647.2</ele>
        <time>2015-06-28T11:25:00Z</time>
      </trkpt>
      <trkpt lat="44.7597" lon="5.48795">
        <ele>1647.2</ele>
        <time>2015-06-28T11:25:10Z</time>
      </trkpt>
      <trkpt lat="44.75969" lon="5.48808">
        <ele>1647.2</ele>
        <time>2015-06-28T11:25:20Z</time>
      </trkpt>
      <trkpt lat="44.75966" lon="5.4882">
        <ele>1647.2</ele>
        <time>2015-06-28T11:25:31Z</time>
      </trkpt>
      <trkpt lat="44.75964" lon="5.48833">
        <ele>1647.2</ele>
        <time>2015-06-28T11:25:41Z</time>
      </trkpt>
      <trkpt lat="44.75964" lon="5.48846">
        <ele>1647.2</ele>
        <time>2015-06-28T11:25:52Z</time>
      </trkpt>
      <trkpt lat="44.75958" lon="5.48857">
        <ele>1647.2</ele>
        <time>2015-06-28T11:26:02Z</time>
      </trkpt>
      <trkpt lat="44.75951" lon="5.48866">
        <ele>1647.2</ele>
        <time>2015-06-28T11:26:11Z</time>
      </trkpt>
      <trkpt lat="44.75943" lon="5.48872">
        <ele>1647.2</ele>
        <time>2015-06-28T11:26:22Z</time>
      </trkpt>
      <trkpt lat="44.75939" lon="5.48884">
        <ele>1647</ele>
        <time>2015-06-28T11:26:30Z</time>
      </trkpt>
      <trkpt lat="44.75921" lon="5.48889">
        <ele>1647</ele>
        <time>2015-06-28T11:26:47Z</time>
      </trkpt>
      <trkpt lat="44.75908" lon="5.48896">
        <ele>1647</ele>
        <time>2015-06-28T11:26:59Z</time>
      </trkpt>
      <trkpt lat="44.75904" lon="5.48908">
        <ele>1647.2</ele>
        <time>2015-06-28T11:27:14Z</time>
      </trkpt>
      <trkpt lat="44.75895" lon="5.48913">
        <ele>1647.2</ele>
        <time>2015-06-28T11:27:25Z</time>
      </trkpt>
      <trkpt lat="44.75887" lon="5.48918">
        <ele>1647.2</ele>
        <time>2015-06-28T11:27:41Z</time>
      </trkpt>
      <trkpt lat="44.75878" lon="5.48924">
        <ele>1647.2</ele>
        <time>2015-06-28T11:27:58Z</time>
      </trkpt>
      <trkpt lat="44.75869" lon="5.48927">
        <ele>1647.2</ele>
        <time>2015-06-28T11:28:14Z</time>
      </trkpt>
      <trkpt lat="44.75866" lon="5.48941">
        <ele>1647.2</ele>
        <time>2015-06-28T11:28:23Z</time>
      </trkpt>
      <trkpt lat="44.7586" lon="5.48951">
        <ele>1647.2</ele>
        <time>2015-06-28T11:28:40Z</time>
      </trkpt>
      <trkpt lat="44.75865" lon="5.48963">
        <ele>1647.2</ele>
        <time>2015-06-28T11:29:01Z</time>
      </trkpt>
      <trkpt lat="44.75858" lon="5.4897">
        <ele>1647.2</ele>
        <time>2015-06-28T11:29:31Z</time>
      </trkpt>
      <trkpt lat="44.75856" lon="5.48983">
        <ele>1647.2</ele>
        <time>2015-06-28T11:29:50Z</time>
      </trkpt>
      <trkpt lat="44.75857" lon="5.48996">
        <ele>1647.2</ele>
        <time>2015-06-28T11:30:04Z</time>
      </trkpt>
      <trkpt lat="44.75858" lon="5.49009">
        <ele>1647.2</ele>
        <time>2015-06-28T11:30:14Z</time>
      </trkpt>
      <trkpt lat="44.75857" lon="5.49022">
        <ele>1647.2</ele>
        <time>2015-06-28T11:30:25Z</time>
      </trkpt>
      <trkpt lat="44.75858" lon="5.49036">
        <ele>1647.2</ele>
        <time>2015-06-28T11:30:35Z</time>
      </trkpt>
      <trkpt lat="44.75856" lon="5.49049">
        <ele>1647.2</ele>
        <time>2015-06-28T11:30:45Z</time>
      </trkpt>
      <trkpt lat="44.75858" lon="5.49062">
        <ele>1647.2</ele>
        <time>2015-06-28T11:30:53Z</time>
      </trkpt>
      <trkpt lat="44.75858" lon="5.49081">
        <ele>1647</ele>
        <time>2015-06-28T11:31:05Z</time>
      </trkpt>
      <trkpt lat="44.7586" lon="5.49098">
        <ele>1647</ele>
        <time>2015-06-28T11:31:15Z</time>
      </trkpt>
      <trkpt lat="44.75862" lon="5.49114">
        <ele>1647</ele>
        <time>2015-06-28T11:31:31Z</time>
      </trkpt>
      <trkpt lat="44.75855" lon="5.49123">
        <ele>1647</ele>
        <time>2015-06-28T11:31:43Z</time>
      </trkpt>
      <trkpt lat="44.75845" lon="5.49124">
        <ele>1647.2</ele>
        <time>2015-06-28T11:31:50Z</time>
      </trkpt>
      <trkpt lat="44.75837" lon="5.49132">
        <ele>1647.2</ele>
        <time>2015-06-28T11:32:00Z</time>
      </trkpt>
      <trkpt lat="44.75832" lon="5.49143">
        <ele>1647.2</ele>
        <time>2015-06-28T11:32:09Z</time>
      </trkpt>
      <trkpt lat="44.75825" lon="5.49151">
        <ele>1647.2</ele>
        <time>2015-06-28T11:32:21Z</time>
      </trkpt>
      <trkpt lat="44.75819" lon="5.49162">
        <ele>1647.2</ele>
        <time>2015-06-28T11:32:33Z</time>
      </trkpt>
      <trkpt lat="44.75816" lon="5.49175">
        <ele>1647</ele>
        <time>2015-06-28T11:32:46Z</time>
      </trkpt>
      <trkpt lat="44.75818" lon="5.49193">
        <ele>1647</ele>
        <time>2015-06-28T11:32:57Z</time>
      </trkpt>
      <trkpt lat="44.75808" lon="5.49196">
        <ele>1647.2</ele>
        <time>2015-06-28T11:33:04Z</time>
      </trkpt>
      <trkpt lat="44.75799" lon="5.49197">
        <ele>1647.2</ele>
        <time>2015-06-28T11:33:15Z</time>
      </trkpt>
      <trkpt lat="44.75795" lon="5.49209">
        <ele>1647.2</ele>
        <time>2015-06-28T11:33:39Z</time>
      </trkpt>
      <trkpt lat="44.75796" lon="5.49226">
        <ele>1647</ele>
        <time>2015-06-28T11:33:53Z</time>
      </trkpt>
      <trkpt lat="44.75798" lon="5.49239">
        <ele>1647</ele>
        <time>2015-06-28T11:34:05Z</time>
      </trkpt>
      <trkpt lat="44.75799" lon="5.49253">
        <ele>1647</ele>
        <time>2015-06-28T11:34:21Z</time>
      </trkpt>
      <trkpt lat="44.75798" lon="5.49271">
        <ele>1647</ele>
        <time>2015-06-28T11:34:33Z</time>
      </trkpt>
      <trkpt lat="44.75783" lon="5.49318">
        <ele>1647</ele>
        <time>2015-06-28T11:35:21Z</time>
      </trkpt>
      <trkpt lat="44.75773" lon="5.49327">
        <ele>1647</ele>
        <time>2015-06-28T11:35:31Z</time>
      </trkpt>
      <trkpt lat="44.75757" lon="5.4934">
        <ele>1647</ele>
        <time>2015-06-28T11:35:51Z</time>
      </trkpt>
      <trkpt lat="44.75759" lon="5.49354">
        <ele>1647</ele>
        <time>2015-06-28T11:36:03Z</time>
      </trkpt>
      <trkpt lat="44.7575" lon="5.49364">
        <ele>1647</ele>
        <time>2015-06-28T11:36:19Z</time>
      </trkpt>
      <trkpt lat="44.75746" lon="5.49378">
        <ele>1647</ele>
        <time>2015-06-28T11:36:39Z</time>
      </trkpt>
      <trkpt lat="44.75739" lon="5.49389">
        <ele>1647</ele>
        <time>2015-06-28T11:36:55Z</time>
      </trkpt>
      <trkpt lat="44.75729" lon="5.49394">
        <ele>1647.2</ele>
        <time>2015-06-28T11:37:06Z</time>
      </trkpt>
      <trkpt lat="44.75724" lon="5.49406">
        <ele>1647.2</ele>
        <time>2015-06-28T11:37:18Z</time>
      </trkpt>
      <trkpt lat="44.75715" lon="5.49409">
        <ele>1647.2</ele>
        <time>2015-06-28T11:37:29Z</time>
      </trkpt>
      <trkpt lat="44.7571" lon="5.49421">
        <ele>1647.2</ele>
        <time>2015-06-28T11:37:44Z</time>
      </trkpt>
      <trkpt lat="44.75702" lon="5.49425">
        <ele>1647.2</ele>
        <time>2015-06-28T11:38:09Z</time>
      </trkpt>
      <trkpt lat="44.75707" lon="5.49436">
        <ele>1647.2</ele>
        <time>2015-06-28T11:38:22Z</time>
      </trkpt>
      <trkpt lat="44.75721" lon="5.49439">
        <ele>1647</ele>
        <time>2015-06-28T11:40:23Z</time>
      </trkpt>
      <trkpt lat="44.75717" lon="5.49454">
        <ele>1647</ele>
        <time>2015-06-28T11:40:57Z</time>
      </trkpt>
      <trkpt lat="44.75707" lon="5.49465">
        <ele>1647</ele>
        <time>2015-06-28T11:49:22Z</time>
      </trkpt>
      <trkpt lat="44.75699" lon="5.49473">
        <ele>1647</ele>
        <time>2015-06-28T11:57:44Z</time>
      </trkpt>
      <trkpt lat="44.75685" lon="5.49466">
        <ele>1647</ele>
        <time>2015-06-28T11:59:27Z</time>
      </trkpt>
      <trkpt lat="44.75694" lon="5.49471">
        <ele>1647</ele>
        <time>2015-06-28T12:00:13Z</time>
      </trkpt>
      <trkpt lat="44.75703" lon="5.49469">
        <ele>1647</ele>
        <time>2015-06-28T12:01:45Z</time>
      </trkpt>
      <trkpt lat="44.75702" lon="5.49485">
        <ele>1647</ele>
        <time>2015-06-28T12:02:01Z</time>
      </trkpt>
      <trkpt lat="44.75697" lon="5.49497">
        <ele>1647</ele>
        <time>2015-06-28T12:02:17Z</time>
      </trkpt>
      <trkpt lat="44.75691" lon="5.49509">
        <ele>1647</ele>
        <time>2015-06-28T12:02:29Z</time>
      </trkpt>
      <trkpt lat="44.75682" lon="5.49521">
        <ele>1647</ele>
        <time>2015-06-28T12:02:41Z</time>
      </trkpt>
      <trkpt lat="44.75673" lon="5.49529">
        <ele>1647</ele>
        <time>2015-06-28T12:02:53Z</time>
      </trkpt>
      <trkpt lat="44.7567" lon="5.49542">
        <ele>1647</ele>
        <time>2015-06-28T12:03:05Z</time>
      </trkpt>
      <trkpt lat="44.75668" lon="5.49558">
        <ele>1647</ele>
        <time>2015-06-28T12:03:17Z</time>
      </trkpt>
      <trkpt lat="44.75663" lon="5.49569">
        <ele>1647</ele>
        <time>2015-06-28T12:03:25Z</time>
      </trkpt>
      <trkpt lat="44.75665" lon="5.49583">
        <ele>1647</ele>
        <time>2015-06-28T12:03:37Z</time>
      </trkpt>
      <trkpt lat="44.75661" lon="5.49602">
        <ele>1647</ele>
        <time>2015-06-28T12:03:49Z</time>
      </trkpt>
      <trkpt lat="44.75658" lon="5.49618">
        <ele>1647</ele>
        <time>2015-06-28T12:04:01Z</time>
      </trkpt>
      <trkpt lat="44.75658" lon="5.49632">
        <ele>1647.2</ele>
        <time>2015-06-28T12:04:21Z</time>
      </trkpt>
      <trkpt lat="44.75653" lon="5.49642">
        <ele>1647.2</ele>
        <time>2015-06-28T12:04:38Z</time>
      </trkpt>
      <trkpt lat="44.7565" lon="5.49654">
        <ele>1647.2</ele>
        <time>2015-06-28T12:04:53Z</time>
      </trkpt>
      <trkpt lat="44.75643" lon="5.49664">
        <ele>1647.2</ele>
        <time>2015-06-28T12:05:02Z</time>
      </trkpt>
      <trkpt lat="44.75644" lon="5.49677">
        <ele>1647.2</ele>
        <time>2015-06-28T12:05:10Z</time>
      </trkpt>
      <trkpt lat="44.75645" lon="5.4969">
        <ele>1647.2</ele>
        <time>2015-06-28T12:05:23Z</time>
      </trkpt>
      <trkpt lat="44.75654" lon="5.49691">
        <ele>1647.2</ele>
        <time>2015-06-28T12:06:10Z</time>
      </trkpt>
      <trkpt lat="44.75656" lon="5.49704">
        <ele>1647.2</ele>
        <time>2015-06-28T12:07:32Z</time>
      </trkpt>
      <trkpt lat="44.75664" lon="5.49707">
        <ele>1647.2</ele>
        <time>2015-06-28T12:08:19Z</time>
      </trkpt>
      <trkpt lat="44.75673" lon="5.4971">
        <ele>1647.2</ele>
        <time>2015-06-28T12:08:44Z</time>
      </trkpt>
      <trkpt lat="44.75681" lon="5.497">
        <ele>1647.2</ele>
        <time>2015-06-28T12:09:09Z</time>
      </trkpt>
      <trkpt lat="44.75685" lon="5.49711">
        <ele>1647.2</ele>
        <time>2015-06-28T12:09:28Z</time>
      </trkpt>
      <trkpt lat="44.75691" lon="5.49721">
        <ele>1647.2</ele>
        <time>2015-06-28T12:09:45Z</time>
      </trkpt>
      <trkpt lat="44.757" lon="5.49724">
        <ele>1647.2</ele>
        <time>2015-06-28T12:10:35Z</time>
      </trkpt>
      <trkpt lat="44.75708" lon="5.49731">
        <ele>1647.2</ele>
        <time>2015-06-28T12:10:52Z</time>
      </trkpt>
      <trkpt lat="44.75714" lon="5.49741">
        <ele>1647.2</ele>
        <time>2015-06-28T12:11:04Z</time>
      </trkpt>
      <trkpt lat="44.75721" lon="5.49749">
        <ele>1647.2</ele>
        <time>2015-06-28T12:11:19Z</time>
      </trkpt>
      <trkpt lat="44.7573" lon="5.49752">
        <ele>1647.2</ele>
        <time>2015-06-28T12:11:34Z</time>
      </trkpt>
      <trkpt lat="44.75739" lon="5.49755">
        <ele>1647.2</ele>
        <time>2015-06-28T12:11:46Z</time>
      </trkpt>
      <trkpt lat="44.75747" lon="5.49763">
        <ele>1647.2</ele>
        <time>2015-06-28T12:12:03Z</time>
      </trkpt>
      <trkpt lat="44.75756" lon="5.49768">
        <ele>1647.2</ele>
        <time>2015-06-28T12:12:17Z</time>
      </trkpt>
      <trkpt lat="44.75765" lon="5.49763">
        <ele>1647.2</ele>
        <time>2015-06-28T12:13:35Z</time>
      </trkpt>
      <trkpt lat="44.75774" lon="5.49764">
        <ele>1647.2</ele>
        <time>2015-06-28T12:13:48Z</time>
      </trkpt>
      <trkpt lat="44.75782" lon="5.49757">
        <ele>1647.2</ele>
        <time>2015-06-28T12:14:10Z</time>
      </trkpt>
      <trkpt lat="44.75787" lon="5.49746">
        <ele>1647.2</ele>
        <time>2015-06-28T12:14:42Z</time>
      </trkpt>
      <trkpt lat="44.75794" lon="5.49755">
        <ele>1647.2</ele>
        <time>2015-06-28T12:15:04Z</time>
      </trkpt>
      <trkpt lat="44.75797" lon="5.49767">
        <ele>1647.2</ele>
        <time>2015-06-28T12:15:17Z</time>
      </trkpt>
      <trkpt lat="44.75794" lon="5.49779">
        <ele>1647.2</ele>
        <time>2015-06-28T12:15:47Z</time>
      </trkpt>
      <trkpt lat="44.75798" lon="5.49792">
        <ele>1647</ele>
        <time>2015-06-28T12:16:31Z</time>
      </trkpt>
      <trkpt lat="44.75802" lon="5.49804">
        <ele>1647</ele>
        <time>2015-06-28T12:16:59Z</time>
      </trkpt>
      <trkpt lat="44.75809" lon="5.49813">
        <ele>1647.2</ele>
        <time>2015-06-28T12:18:03Z</time>
      </trkpt>
      <trkpt lat="44.75817" lon="5.49822">
        <ele>1647.2</ele>
        <time>2015-06-28T12:18:22Z</time>
      </trkpt>
      <trkpt lat="44.75823" lon="5.49834">
        <ele>1647.2</ele>
        <time>2015-06-28T12:18:32Z</time>
      </trkpt>
      <trkpt lat="44.75832" lon="5.49836">
        <ele>1647.2</ele>
        <time>2015-06-28T12:18:45Z</time>
      </trkpt>
      <trkpt lat="44.75841" lon="5.49833">
        <ele>1647.2</ele>
        <time>2015-06-28T12:18:57Z</time>
      </trkpt>
      <trkpt lat="44.7585" lon="5.49834">
        <ele>1647.2</ele>
        <time>2015-06-28T12:19:28Z</time>
      </trkpt>
      <trkpt lat="44.7586" lon="5.49835">
        <ele>1647.2</ele>
        <time>2015-06-28T12:19:51Z</time>
      </trkpt>
      <trkpt lat="44.75869" lon="5.49838">
        <ele>1647.2</ele>
        <time>2015-06-28T12:20:01Z</time>
      </trkpt>
      <trkpt lat="44.75878" lon="5.49841">
        <ele>1647.2</ele>
        <time>2015-06-28T12:20:10Z</time>
      </trkpt>
      <trkpt lat="44.75887" lon="5.49847">
        <ele>1647.2</ele>
        <time>2015-06-28T12:20:19Z</time>
      </trkpt>
      <trkpt lat="44.75896" lon="5.49852">
        <ele>1647.2</ele>
        <time>2015-06-28T12:20:27Z</time>
      </trkpt>
      <trkpt lat="44.75905" lon="5.49858">
        <ele>1647.2</ele>
        <time>2015-06-28T12:20:36Z</time>
      </trkpt>
      <trkpt lat="44.75914" lon="5.49859">
        <ele>1647.2</ele>
        <time>2015-06-28T12:20:45Z</time>
      </trkpt>
      <trkpt lat="44.75922" lon="5.49867">
        <ele>1647.2</ele>
        <time>2015-06-28T12:20:54Z</time>
      </trkpt>
      <trkpt lat="44.75931" lon="5.49871">
        <ele>1647.2</ele>
        <time>2015-06-28T12:21:01Z</time>
      </trkpt>
      <trkpt lat="44.75941" lon="5.49872">
        <ele>1647.2</ele>
        <time>2015-06-28T12:21:56Z</time>
      </trkpt>
      <trkpt lat="44.7595" lon="5.49868">
        <ele>1647.2</ele>
        <time>2015-06-28T12:22:06Z</time>
      </trkpt>
      <trkpt lat="44.75959" lon="5.49862">
        <ele>1647.2</ele>
        <time>2015-06-28T12:22:14Z</time>
      </trkpt>
      <trkpt lat="44.75968" lon="5.49861">
        <ele>1647.2</ele>
        <time>2015-06-28T12:22:26Z</time>
      </trkpt>
      <trkpt lat="44.75978" lon="5.4986">
        <ele>1647.2</ele>
        <time>2015-06-28T12:22:34Z</time>
      </trkpt>
      <trkpt lat="44.75987" lon="5.49855">
        <ele>1647.2</ele>
        <time>2015-06-28T12:22:43Z</time>
      </trkpt>
      <trkpt lat="44.75995" lon="5.49861">
        <ele>1647.2</ele>
        <time>2015-06-28T12:22:53Z</time>
      </trkpt>
      <trkpt lat="44.76" lon="5.49874">
        <ele>1647.2</ele>
        <time>2015-06-28T12:22:59Z</time>
      </trkpt>
      <trkpt lat="44.75999" lon="5.49889">
        <ele>1647.2</ele>
        <time>2015-06-28T12:23:03Z</time>
      </trkpt>
      <trkpt lat="44.76" lon="5.49902">
        <ele>1647.2</ele>
        <time>2015-06-28T12:23:25Z</time>
      </trkpt>
      <trkpt lat="44.76009" lon="5.49905">
        <ele>1647.2</ele>
        <time>2015-06-28T12:25:01Z</time>
      </trkpt>
      <trkpt lat="44.76017" lon="5.49899">
        <ele>1647.2</ele>
        <time>2015-06-28T12:25:30Z</time>
      </trkpt>
      <trkpt lat="44.76024" lon="5.49887">
        <ele>1647</ele>
        <time>2015-06-28T12:25:46Z</time>
      </trkpt>
      <trkpt lat="44.76028" lon="5.49874">
        <ele>1647</ele>
        <time>2015-06-28T12:25:58Z</time>
      </trkpt>
      <trkpt lat="44.76031" lon="5.4986">
        <ele>1647.2</ele>
        <time>2015-06-28T12:26:09Z</time>
      </trkpt>
      <trkpt lat="44.76032" lon="5.49847">
        <ele>1647.2</ele>
        <time>2015-06-28T12:26:17Z</time>
      </trkpt>
      <trkpt lat="44.76038" lon="5.49837">
        <ele>1647.2</ele>
        <time>2015-06-28T12:26:30Z</time>
      </trkpt>
      <trkpt lat="44.76046" lon="5.49828">
        <ele>1647.2</ele>
        <time>2015-06-28T12:26:51Z</time>
      </trkpt>
      <trkpt lat="44.76054" lon="5.49823">
        <ele>1647.2</ele>
        <time>2015-06-28T12:27:00Z</time>
      </trkpt>
      <trkpt lat="44.76062" lon="5.49816">
        <ele>1647.2</ele>
        <time>2015-06-28T12:27:13Z</time>
      </trkpt>
      <trkpt lat="44.76069" lon="5.49808">
        <ele>1647.2</ele>
        <time>2015-06-28T12:27:23Z</time>
      </trkpt>
      <trkpt lat="44.76074" lon="5.49797">
        <ele>1647.2</ele>
        <time>2015-06-28T12:27:45Z</time>
      </trkpt>
      <trkpt lat="44.76074" lon="5.49783">
        <ele>1647.2</ele>
        <time>2015-06-28T12:28:02Z</time>
      </trkpt>
      <trkpt lat="44.76076" lon="5.4977">
        <ele>1647.2</ele>
        <time>2015-06-28T12:28:12Z</time>
      </trkpt>
      <trkpt lat="44.76082" lon="5.4976">
        <ele>1647.2</ele>
        <time>2015-06-28T12:28:27Z</time>
      </trkpt>
      <trkpt lat="44.7609" lon="5.49753">
        <ele>1647</ele>
        <time>2015-06-28T12:28:58Z</time>
      </trkpt>
      <trkpt lat="44.76091" lon="5.49769">
        <ele>1647</ele>
        <time>2015-06-28T12:29:06Z</time>
      </trkpt>
      <trkpt lat="44.76088" lon="5.49781">
        <ele>1647</ele>
        <time>2015-06-28T12:29:14Z</time>
      </trkpt>
      <trkpt lat="44.76084" lon="5.49796">
        <ele>1647</ele>
        <time>2015-06-28T12:29:22Z</time>
      </trkpt>
      <trkpt lat="44.7608" lon="5.49816">
        <ele>1647</ele>
        <time>2015-06-28T12:29:30Z</time>
      </trkpt>
      <trkpt lat="44.76078" lon="5.49833">
        <ele>1647</ele>
        <time>2015-06-28T12:29:38Z</time>
      </trkpt>
      <trkpt lat="44.7608" lon="5.49845">
        <ele>1647</ele>
        <time>2015-06-28T12:29:50Z</time>
      </trkpt>
      <trkpt lat="44.76077" lon="5.49863">
        <ele>1647</ele>
        <time>2015-06-28T12:30:02Z</time>
      </trkpt>
      <trkpt lat="44.7607" lon="5.49876">
        <ele>1647</ele>
        <time>2015-06-28T12:30:14Z</time>
      </trkpt>
      <trkpt lat="44.76064" lon="5.49888">
        <ele>1647.2</ele>
        <time>2015-06-28T12:30:31Z</time>
      </trkpt>
      <trkpt lat="44.76056" lon="5.49895">
        <ele>1647.2</ele>
        <time>2015-06-28T12:30:38Z</time>
      </trkpt>
      <trkpt lat="44.76051" lon="5.49907">
        <ele>1647.2</ele>
        <time>2015-06-28T12:30:46Z</time>
      </trkpt>
      <trkpt lat="44.76044" lon="5.49924">
        <ele>1647</ele>
        <time>2015-06-28T12:30:56Z</time>
      </trkpt>
      <trkpt lat="44.76037" lon="5.49934">
        <ele>1647</ele>
        <time>2015-06-28T12:31:00Z</time>
      </trkpt>
      <trkpt lat="44.76028" lon="5.49953">
        <ele>1647</ele>
        <time>2015-06-28T12:31:08Z</time>
      </trkpt>
      <trkpt lat="44.76025" lon="5.49967">
        <ele>1647</ele>
        <time>2015-06-28T12:31:16Z</time>
      </trkpt>
      <trkpt lat="44.76035" lon="5.49964">
        <ele>1647</ele>
        <time>2015-06-28T12:31:29Z</time>
      </trkpt>
      <trkpt lat="44.76029" lon="5.49978">
        <ele>1647</ele>
        <time>2015-06-28T12:31:37Z</time>
      </trkpt>
      <trkpt lat="44.76041" lon="5.49971">
        <ele>1647.2</ele>
        <time>2015-06-28T12:31:46Z</time>
      </trkpt>
      <trkpt lat="44.76049" lon="5.49964">
        <ele>1647.2</ele>
        <time>2015-06-28T12:31:49Z</time>
      </trkpt>
      <trkpt lat="44.76044" lon="5.49974">
        <ele>1647.2</ele>
        <time>2015-06-28T12:32:29Z</time>
      </trkpt>
      <trkpt lat="44.76043" lon="5.49989">
        <ele>1647.2</ele>
        <time>2015-06-28T12:32:45Z</time>
      </trkpt>
      <trkpt lat="44.76038" lon="5.50003">
        <ele>1647.2</ele>
        <time>2015-06-28T12:32:49Z</time>
      </trkpt>
      <trkpt lat="44.76046" lon="5.50011">
        <ele>1647.2</ele>
        <time>2015-06-28T12:33:04Z</time>
      </trkpt>
      <trkpt lat="44.76046" lon="5.50024">
        <ele>1647.2</ele>
        <time>2015-06-28T12:33:13Z</time>
      </trkpt>
      <trkpt lat="44.76041" lon="5.50037">
        <ele>1647.2</ele>
        <time>2015-06-28T12:33:19Z</time>
      </trkpt>
      <trkpt lat="44.76037" lon="5.50051">
        <ele>1647.2</ele>
        <time>2015-06-28T12:33:23Z</time>
      </trkpt>
      <trkpt lat="44.76046" lon="5.50057">
        <ele>1647.2</ele>
        <time>2015-06-28T12:33:36Z</time>
      </trkpt>
      <trkpt lat="44.76041" lon="5.50046">
        <ele>1647.2</ele>
        <time>2015-06-28T12:34:05Z</time>
      </trkpt>
      <trkpt lat="44.76037" lon="5.50058">
        <ele>1647.2</ele>
        <time>2015-06-28T12:34:24Z</time>
      </trkpt>
      <trkpt lat="44.76038" lon="5.50071">
        <ele>1647.2</ele>
        <time>2015-06-28T12:34:44Z</time>
      </trkpt>
      <trkpt lat="44.76029" lon="5.50077">
        <ele>1647.2</ele>
        <time>2015-06-28T12:35:07Z</time>
      </trkpt>
      <trkpt lat="44.76026" lon="5.50064">
        <ele>1647.2</ele>
        <time>2015-06-28T12:37:11Z</time>
      </trkpt>
      <trkpt lat="44.76021" lon="5.50075">
        <ele>1647.2</ele>
        <time>2015-06-28T12:38:09Z</time>
      </trkpt>
      <trkpt lat="44.76025" lon="5.50063">
        <ele>1647.2</ele>
        <time>2015-06-28T12:38:59Z</time>
      </trkpt>
      <trkpt lat="44.76025" lon="5.50076">
        <ele>1647.2</ele>
        <time>2015-06-28T12:40:34Z</time>
      </trkpt>
      <trkpt lat="44.76018" lon="5.50085">
        <ele>1647.2</ele>
        <time>2015-06-28T12:41:16Z</time>
      </trkpt>
      <trkpt lat="44.7601" lon="5.50091">
        <ele>1647.2</ele>
        <time>2015-06-28T12:41:33Z</time>
      </trkpt>
      <trkpt lat="44.76002" lon="5.50099">
        <ele>1647.2</ele>
        <time>2015-06-28T12:41:47Z</time>
      </trkpt>
      <trkpt lat="44.76005" lon="5.50113">
        <ele>1647.2</ele>
        <time>2015-06-28T12:42:04Z</time>
      </trkpt>
      <trkpt lat="44.76001" lon="5.50125">
        <ele>1647.2</ele>
        <time>2015-06-28T12:42:12Z</time>
      </trkpt>
      <trkpt lat="44.75994" lon="5.50132">
        <ele>1647.2</ele>
        <time>2015-06-28T12:42:32Z</time>
      </trkpt>
      <trkpt lat="44.75988" lon="5.50142">
        <ele>1647.2</ele>
        <time>2015-06-28T12:42:44Z</time>
      </trkpt>
      <trkpt lat="44.75986" lon="5.50156">
        <ele>1647.2</ele>
        <time>2015-06-28T12:43:13Z</time>
      </trkpt>
      <trkpt lat="44.75981" lon="5.50168">
        <ele>1647.2</ele>
        <time>2015-06-28T12:43:24Z</time>
      </trkpt>
      <trkpt lat="44.75975" lon="5.50177">
        <ele>1647.2</ele>
        <time>2015-06-28T12:43:44Z</time>
      </trkpt>
      <trkpt lat="44.75977" lon="5.5019">
        <ele>1647.2</ele>
        <time>2015-06-28T12:44:00Z</time>
      </trkpt>
      <trkpt lat="44.75983" lon="5.50199">
        <ele>1647.2</ele>
        <time>2015-06-28T12:44:14Z</time>
      </trkpt>
      <trkpt lat="44.75983" lon="5.50213">
        <ele>1647.2</ele>
        <time>2015-06-28T12:44:22Z</time>
      </trkpt>
      <trkpt lat="44.75989" lon="5.50223">
        <ele>1647.2</ele>
        <time>2015-06-28T12:45:38Z</time>
      </trkpt>
      <trkpt lat="44.75985" lon="5.50236">
        <ele>1647.2</ele>
        <time>2015-06-28T12:45:44Z</time>
      </trkpt>
      <trkpt lat="44.7598" lon="5.50248">
        <ele>1647.2</ele>
        <time>2015-06-28T12:45:51Z</time>
      </trkpt>
      <trkpt lat="44.7598" lon="5.5026">
        <ele>1647.2</ele>
        <time>2015-06-28T12:46:00Z</time>
      </trkpt>
      <trkpt lat="44.75978" lon="5.50273">
        <ele>1647.2</ele>
        <time>2015-06-28T12:46:07Z</time>
      </trkpt>
      <trkpt lat="44.75972" lon="5.50283">
        <ele>1647.2</ele>
        <time>2015-06-28T12:46:14Z</time>
      </trkpt>
      <trkpt lat="44.75964" lon="5.50292">
        <ele>1647.2</ele>
        <time>2015-06-28T12:46:22Z</time>
      </trkpt>
      <trkpt lat="44.7596" lon="5.50305">
        <ele>1647.2</ele>
        <time>2015-06-28T12:46:36Z</time>
      </trkpt>
      <trkpt lat="44.75954" lon="5.50316">
        <ele>1647.2</ele>
        <time>2015-06-28T12:46:44Z</time>
      </trkpt>
      <trkpt lat="44.75947" lon="5.50324">
        <ele>1647</ele>
        <time>2015-06-28T12:46:54Z</time>
      </trkpt>
      <trkpt lat="44.75937" lon="5.50331">
        <ele>1647</ele>
        <time>2015-06-28T12:47:06Z</time>
      </trkpt>
      <trkpt lat="44.75928" lon="5.50339">
        <ele>1647</ele>
        <time>2015-06-28T12:47:26Z</time>
      </trkpt>
      <trkpt lat="44.75938" lon="5.50344">
        <ele>1647</ele>
        <time>2015-06-28T12:47:50Z</time>
      </trkpt>
      <trkpt lat="44.75945" lon="5.50359">
        <ele>1647</ele>
        <time>2015-06-28T12:48:02Z</time>
      </trkpt>
      <trkpt lat="44.75949" lon="5.50377">
        <ele>1647</ele>
        <time>2015-06-28T12:48:14Z</time>
      </trkpt>
      <trkpt lat="44.75955" lon="5.50389">
        <ele>1647</ele>
        <time>2015-06-28T12:48:26Z</time>
      </trkpt>
      <trkpt lat="44.75964" lon="5.50393">
        <ele>1647</ele>
        <time>2015-06-28T12:48:34Z</time>
      </trkpt>
      <trkpt lat="44.75974" lon="5.50396">
        <ele>1647</ele>
        <time>2015-06-28T12:48:42Z</time>
      </trkpt>
      <trkpt lat="44.75985" lon="5.50407">
        <ele>1647</ele>
        <time>2015-06-28T12:48:54Z</time>
      </trkpt>
      <trkpt lat="44.75982" lon="5.50423">
        <ele>1647</ele>
        <time>2015-06-28T12:49:06Z</time>
      </trkpt>
      <trkpt lat="44.75974" lon="5.50429">
        <ele>1647.2</ele>
        <time>2015-06-28T12:49:23Z</time>
      </trkpt>
      <trkpt lat="44.75967" lon="5.50437">
        <ele>1647.2</ele>
        <time>2015-06-28T12:49:26Z</time>
      </trkpt>
      <trkpt lat="44.75958" lon="5.50446">
        <ele>1647.2</ele>
        <time>2015-06-28T12:49:29Z</time>
      </trkpt>
      <trkpt lat="44.7595" lon="5.50451">
        <ele>1647.2</ele>
        <time>2015-06-28T12:49:33Z</time>
      </trkpt>
      <trkpt lat="44.75946" lon="5.50437">
        <ele>1647.2</ele>
        <time>2015-06-28T12:49:42Z</time>
      </trkpt>
      <trkpt lat="44.75936" lon="5.50437">
        <ele>1647.2</ele>
        <time>2015-06-28T12:49:53Z</time>
      </trkpt>
      <trkpt lat="44.75927" lon="5.50438">
        <ele>1647.2</ele>
        <time>2015-06-28T12:50:00Z</time>
      </trkpt>
      <trkpt lat="44.75918" lon="5.50438">
        <ele>1647.2</ele>
        <time>2015-06-28T12:50:07Z</time>
      </trkpt>
      <trkpt lat="44.75909" lon="5.50441">
        <ele>1647.2</ele>
        <time>2015-06-28T12:50:15Z</time>
      </trkpt>
      <trkpt lat="44.75899" lon="5.50444">
        <ele>1647.2</ele>
        <time>2015-06-28T12:50:25Z</time>
      </trkpt>
      <trkpt lat="44.75889" lon="5.50445">
        <ele>1647.2</ele>
        <time>2015-06-28T12:50:31Z</time>
      </trkpt>
      <trkpt lat="44.7588" lon="5.50447">
        <ele>1647.2</ele>
        <time>2015-06-28T12:50:39Z</time>
      </trkpt>
      <trkpt lat="44.75869" lon="5.50443">
        <ele>1647</ele>
        <time>2015-06-28T12:50:52Z</time>
      </trkpt>
      <trkpt lat="44.7586" lon="5.50449">
        <ele>1647</ele>
        <time>2015-06-28T12:51:12Z</time>
      </trkpt>
      <trkpt lat="44.75852" lon="5.50455">
        <ele>1647</ele>
        <time>2015-06-28T12:51:20Z</time>
      </trkpt>
      <trkpt lat="44.75845" lon="5.50463">
        <ele>1647.2</ele>
        <time>2015-06-28T12:51:27Z</time>
      </trkpt>
      <trkpt lat="44.75837" lon="5.50471">
        <ele>1647.2</ele>
        <time>2015-06-28T12:51:35Z</time>
      </trkpt>
      <trkpt lat="44.75829" lon="5.5048">
        <ele>1647.2</ele>
        <time>2015-06-28T12:51:39Z</time>
      </trkpt>
      <trkpt lat="44.75822" lon="5.50487">
        <ele>1647.2</ele>
        <time>2015-06-28T12:51:43Z</time>
      </trkpt>
      <trkpt lat="44.75814" lon="5.50494">
        <ele>1647.2</ele>
        <time>2015-06-28T12:51:47Z</time>
      </trkpt>
      <trkpt lat="44.75805" lon="5.505">
        <ele>1647.2</ele>
        <time>2015-06-28T12:51:51Z</time>
      </trkpt>
      <trkpt lat="44.75796" lon="5.50506">
        <ele>1647.2</ele>
        <time>2015-06-28T12:51:55Z</time>
      </trkpt>
      <trkpt lat="44.75789" lon="5.50515">
        <ele>1647.2</ele>
        <time>2015-06-28T12:51:59Z</time>
      </trkpt>
      <trkpt lat="44.75781" lon="5.50523">
        <ele>1647.2</ele>
        <time>2015-06-28T12:52:03Z</time>
      </trkpt>
      <trkpt lat="44.75773" lon="5.50532">
        <ele>1647.2</ele>
        <time>2015-06-28T12:52:14Z</time>
      </trkpt>
      <trkpt lat="44.75764" lon="5.50539">
        <ele>1647.2</ele>
        <time>2015-06-28T12:52:27Z</time>
      </trkpt>
      <trkpt lat="44.75757" lon="5.50547">
        <ele>1647.2</ele>
        <time>2015-06-28T12:52:31Z</time>
      </trkpt>
      <trkpt lat="44.75747" lon="5.50554">
        <ele>1647.2</ele>
        <time>2015-06-28T12:52:35Z</time>
      </trkpt>
      <trkpt lat="44.7574" lon="5.50562">
        <ele>1647.2</ele>
        <time>2015-06-28T12:52:39Z</time>
      </trkpt>
      <trkpt lat="44.75733" lon="5.50571">
        <ele>1647.2</ele>
        <time>2015-06-28T12:52:45Z</time>
      </trkpt>
      <trkpt lat="44.7574" lon="5.50561">
        <ele>1647.2</ele>
        <time>2015-06-28T12:52:54Z</time>
      </trkpt>
      <trkpt lat="44.75747" lon="5.50554">
        <ele>1647.2</ele>
        <time>2015-06-28T12:53:03Z</time>
      </trkpt>
      <trkpt lat="44.7574" lon="5.50563">
        <ele>1647.2</ele>
        <time>2015-06-28T12:53:15Z</time>
      </trkpt>
      <trkpt lat="44.75733" lon="5.50573">
        <ele>1647.2</ele>
        <time>2015-06-28T12:53:25Z</time>
      </trkpt>
      <trkpt lat="44.75726" lon="5.50584">
        <ele>1647.2</ele>
        <time>2015-06-28T12:53:33Z</time>
      </trkpt>
      <trkpt lat="44.75719" lon="5.50592">
        <ele>1647.2</ele>
        <time>2015-06-28T12:53:40Z</time>
      </trkpt>
      <trkpt lat="44.7571" lon="5.50603">
        <ele>1647.2</ele>
        <time>2015-06-28T12:53:46Z</time>
      </trkpt>
      <trkpt lat="44.75702" lon="5.50611">
        <ele>1647.2</ele>
        <time>2015-06-28T12:54:02Z</time>
      </trkpt>
      <trkpt lat="44.75695" lon="5.50619">
        <ele>1647.2</ele>
        <time>2015-06-28T12:54:09Z</time>
      </trkpt>
      <trkpt lat="44.75689" lon="5.50629">
        <ele>1647.2</ele>
        <time>2015-06-28T12:54:18Z</time>
      </trkpt>
      <trkpt lat="44.75683" lon="5.5064">
        <ele>1647.2</ele>
        <time>2015-06-28T12:54:40Z</time>
      </trkpt>
      <trkpt lat="44.75688" lon="5.50627">
        <ele>1647</ele>
        <time>2015-06-28T12:54:48Z</time>
      </trkpt>
      <trkpt lat="44.75697" lon="5.50626">
        <ele>1647.2</ele>
        <time>2015-06-28T12:55:00Z</time>
      </trkpt>
      <trkpt lat="44.75706" lon="5.50629">
        <ele>1647</ele>
        <time>2015-06-28T12:55:08Z</time>
      </trkpt>
      <trkpt lat="44.75718" lon="5.50613">
        <ele>1647</ele>
        <time>2015-06-28T12:55:16Z</time>
      </trkpt>
      <trkpt lat="44.75723" lon="5.50601">
        <ele>1647.2</ele>
        <time>2015-06-28T12:55:20Z</time>
      </trkpt>
      <trkpt lat="44.75714" lon="5.50606">
        <ele>1647.2</ele>
        <time>2015-06-28T12:55:58Z</time>
      </trkpt>
      <trkpt lat="44.7571" lon="5.50618">
        <ele>1647.2</ele>
        <time>2015-06-28T12:56:14Z</time>
      </trkpt>
      <trkpt lat="44.75704" lon="5.50631">
        <ele>1647</ele>
        <time>2015-06-28T12:56:31Z</time>
      </trkpt>
      <trkpt lat="44.75696" lon="5.50638">
        <ele>1647</ele>
        <time>2015-06-28T12:56:47Z</time>
      </trkpt>
      <trkpt lat="44.75685" lon="5.50636">
        <ele>1647</ele>
        <time>2015-06-28T12:56:59Z</time>
      </trkpt>
      <trkpt lat="44.75676" lon="5.50633">
        <ele>1647.2</ele>
        <time>2015-06-28T12:57:09Z</time>
      </trkpt>
      <trkpt lat="44.75666" lon="5.50635">
        <ele>1647.2</ele>
        <time>2015-06-28T12:57:18Z</time>
      </trkpt>
      <trkpt lat="44.75656" lon="5.50637">
        <ele>1647.2</ele>
        <time>2015-06-28T12:57:23Z</time>
      </trkpt>
      <trkpt lat="44.75647" lon="5.5064">
        <ele>1647.2</ele>
        <time>2015-06-28T12:57:28Z</time>
      </trkpt>
      <trkpt lat="44.75637" lon="5.50642">
        <ele>1647.2</ele>
        <time>2015-06-28T12:57:33Z</time>
      </trkpt>
      <trkpt lat="44.75627" lon="5.50645">
        <ele>1647.2</ele>
        <time>2015-06-28T12:57:40Z</time>
      </trkpt>
      <trkpt lat="44.75619" lon="5.50653">
        <ele>1647.2</ele>
        <time>2015-06-28T12:57:57Z</time>
      </trkpt>
      <trkpt lat="44.75611" lon="5.5066">
        <ele>1647.2</ele>
        <time>2015-06-28T12:59:13Z</time>
      </trkpt>
      <trkpt lat="44.75602" lon="5.50668">
        <ele>1647.2</ele>
        <time>2015-06-28T12:59:25Z</time>
      </trkpt>
      <trkpt lat="44.75592" lon="5.50668">
        <ele>1647.2</ele>
        <time>2015-06-28T12:59:31Z</time>
      </trkpt>
      <trkpt lat="44.75583" lon="5.50668">
        <ele>1647.2</ele>
        <time>2015-06-28T12:59:36Z</time>
      </trkpt>
      <trkpt lat="44.75574" lon="5.50667">
        <ele>1647.2</ele>
        <time>2015-06-28T12:59:43Z</time>
      </trkpt>
      <trkpt lat="44.75564" lon="5.50666">
        <ele>1647.2</ele>
        <time>2015-06-28T12:59:53Z</time>
      </trkpt>
      <trkpt lat="44.75556" lon="5.50671">
        <ele>1647.2</ele>
        <time>2015-06-28T13:00:06Z</time>
      </trkpt>
      <trkpt lat="44.75546" lon="5.50673">
        <ele>1647.2</ele>
        <time>2015-06-28T13:00:13Z</time>
      </trkpt>
      <trkpt lat="44.75538" lon="5.50678">
        <ele>1647.2</ele>
        <time>2015-06-28T13:00:23Z</time>
      </trkpt>
      <trkpt lat="44.75532" lon="5.50687">
        <ele>1647.2</ele>
        <time>2015-06-28T13:00:37Z</time>
      </trkpt>
      <trkpt lat="44.75523" lon="5.50689">
        <ele>1647.2</ele>
        <time>2015-06-28T13:00:51Z</time>
      </trkpt>
      <trkpt lat="44.75514" lon="5.50694">
        <ele>1647.2</ele>
        <time>2015-06-28T13:00:56Z</time>
      </trkpt>
      <trkpt lat="44.75506" lon="5.50699">
        <ele>1647.2</ele>
        <time>2015-06-28T13:01:01Z</time>
      </trkpt>
      <trkpt lat="44.75496" lon="5.50701">
        <ele>1647.2</ele>
        <time>2015-06-28T13:01:08Z</time>
      </trkpt>
      <trkpt lat="44.75488" lon="5.50707">
        <ele>1647.2</ele>
        <time>2015-06-28T13:01:20Z</time>
      </trkpt>
      <trkpt lat="44.75478" lon="5.50711">
        <ele>1647.2</ele>
        <time>2015-06-28T13:01:26Z</time>
      </trkpt>
      <trkpt lat="44.7547" lon="5.5072">
        <ele>1647.2</ele>
        <time>2015-06-28T13:01:37Z</time>
      </trkpt>
      <trkpt lat="44.75462" lon="5.50727">
        <ele>1647.2</ele>
        <time>2015-06-28T13:01:49Z</time>
      </trkpt>
      <trkpt lat="44.75453" lon="5.50731">
        <ele>1647.2</ele>
        <time>2015-06-28T13:01:57Z</time>
      </trkpt>
      <trkpt lat="44.75445" lon="5.50735">
        <ele>1647.2</ele>
        <time>2015-06-28T13:02:09Z</time>
      </trkpt>
      <trkpt lat="44.75437" lon="5.50743">
        <ele>1647.2</ele>
        <time>2015-06-28T13:02:22Z</time>
      </trkpt>
      <trkpt lat="44.75429" lon="5.5075">
        <ele>1647.2</ele>
        <time>2015-06-28T13:02:33Z</time>
      </trkpt>
      <trkpt lat="44.75419" lon="5.5075">
        <ele>1647.2</ele>
        <time>2015-06-28T13:02:40Z</time>
      </trkpt>
      <trkpt lat="44.75409" lon="5.50749">
        <ele>1647.2</ele>
        <time>2015-06-28T13:02:47Z</time>
      </trkpt>
      <trkpt lat="44.754" lon="5.50751">
        <ele>1647.2</ele>
        <time>2015-06-28T13:02:54Z</time>
      </trkpt>
      <trkpt lat="44.75391" lon="5.50755">
        <ele>1647.2</ele>
        <time>2015-06-28T13:03:08Z</time>
      </trkpt>
      <trkpt lat="44.75382" lon="5.50754">
        <ele>1647.2</ele>
        <time>2015-06-28T13:03:15Z</time>
      </trkpt>
      <trkpt lat="44.75373" lon="5.50756">
        <ele>1647.2</ele>
        <time>2015-06-28T13:03:22Z</time>
      </trkpt>
      <trkpt lat="44.75362" lon="5.50757">
        <ele>1647.2</ele>
        <time>2015-06-28T13:03:28Z</time>
      </trkpt>
      <trkpt lat="44.75354" lon="5.5076">
        <ele>1647.2</ele>
        <time>2015-06-28T13:03:36Z</time>
      </trkpt>
      <trkpt lat="44.75345" lon="5.50765">
        <ele>1647.2</ele>
        <time>2015-06-28T13:03:51Z</time>
      </trkpt>
      <trkpt lat="44.75335" lon="5.50768">
        <ele>1647.2</ele>
        <time>2015-06-28T13:04:00Z</time>
      </trkpt>
      <trkpt lat="44.75325" lon="5.50767">
        <ele>1647.2</ele>
        <time>2015-06-28T13:04:06Z</time>
      </trkpt>
      <trkpt lat="44.75316" lon="5.50767">
        <ele>1647.2</ele>
        <time>2015-06-28T13:04:12Z</time>
      </trkpt>
      <trkpt lat="44.75307" lon="5.50765">
        <ele>1647.2</ele>
        <time>2015-06-28T13:04:17Z</time>
      </trkpt>
      <trkpt lat="44.75296" lon="5.50764">
        <ele>1647.2</ele>
        <time>2015-06-28T13:04:23Z</time>
      </trkpt>
      <trkpt lat="44.75287" lon="5.50766">
        <ele>1647.2</ele>
        <time>2015-06-28T13:04:29Z</time>
      </trkpt>
      <trkpt lat="44.75277" lon="5.50769">
        <ele>1647.2</ele>
        <time>2015-06-28T13:04:36Z</time>
      </trkpt>
      <trkpt lat="44.75268" lon="5.50772">
        <ele>1647.2</ele>
        <time>2015-06-28T13:04:44Z</time>
      </trkpt>
      <trkpt lat="44.75259" lon="5.50777">
        <ele>1647.2</ele>
        <time>2015-06-28T13:04:59Z</time>
      </trkpt>
      <trkpt lat="44.7525" lon="5.50778">
        <ele>1647.2</ele>
        <time>2015-06-28T13:05:10Z</time>
      </trkpt>
      <trkpt lat="44.75241" lon="5.50779">
        <ele>1647.2</ele>
        <time>2015-06-28T13:05:20Z</time>
      </trkpt>
      <trkpt lat="44.75231" lon="5.5078">
        <ele>1647.2</ele>
        <time>2015-06-28T13:05:29Z</time>
      </trkpt>
      <trkpt lat="44.75222" lon="5.50776">
        <ele>1647.2</ele>
        <time>2015-06-28T13:05:39Z</time>
      </trkpt>
      <trkpt lat="44.75213" lon="5.5077">
        <ele>1647.2</ele>
        <time>2015-06-28T13:05:51Z</time>
      </trkpt>
      <trkpt lat="44.75204" lon="5.50767">
        <ele>1647.2</ele>
        <time>2015-06-28T13:06:01Z</time>
      </trkpt>
      <trkpt lat="44.75195" lon="5.50762">
        <ele>1647.2</ele>
        <time>2015-06-28T13:06:09Z</time>
      </trkpt>
      <trkpt lat="44.75187" lon="5.50756">
        <ele>1647.2</ele>
        <time>2015-06-28T13:06:16Z</time>
      </trkpt>
      <trkpt lat="44.75178" lon="5.5075">
        <ele>1647.2</ele>
        <time>2015-06-28T13:06:23Z</time>
      </trkpt>
      <trkpt lat="44.75171" lon="5.5074">
        <ele>1647.2</ele>
        <time>2015-06-28T13:06:29Z</time>
      </trkpt>
      <trkpt lat="44.75161" lon="5.50734">
        <ele>1647.2</ele>
        <time>2015-06-28T13:06:36Z</time>
      </trkpt>
      <trkpt lat="44.75152" lon="5.50731">
        <ele>1647.2</ele>
        <time>2015-06-28T13:06:41Z</time>
      </trkpt>
      <trkpt lat="44.75144" lon="5.50723">
        <ele>1647.2</ele>
        <time>2015-06-28T13:06:51Z</time>
      </trkpt>
      <trkpt lat="44.75139" lon="5.5071">
        <ele>1647.2</ele>
        <time>2015-06-28T13:06:58Z</time>
      </trkpt>
      <trkpt lat="44.75135" lon="5.50699">
        <ele>1647.2</ele>
        <time>2015-06-28T13:07:05Z</time>
      </trkpt>
      <trkpt lat="44.75125" lon="5.50697">
        <ele>1647.2</ele>
        <time>2015-06-28T13:07:16Z</time>
      </trkpt>
      <trkpt lat="44.75115" lon="5.50697">
        <ele>1647.2</ele>
        <time>2015-06-28T13:07:24Z</time>
      </trkpt>
      <trkpt lat="44.75106" lon="5.50702">
        <ele>1647.2</ele>
        <time>2015-06-28T13:07:33Z</time>
      </trkpt>
      <trkpt lat="44.75099" lon="5.5071">
        <ele>1647.2</ele>
        <time>2015-06-28T13:07:49Z</time>
      </trkpt>
      <trkpt lat="44.75092" lon="5.50719">
        <ele>1647.2</ele>
        <time>2015-06-28T13:08:07Z</time>
      </trkpt>
      <trkpt lat="44.75085" lon="5.50729">
        <ele>1647.2</ele>
        <time>2015-06-28T13:08:22Z</time>
      </trkpt>
      <trkpt lat="44.7508" lon="5.5074">
        <ele>1647.2</ele>
        <time>2015-06-28T13:08:36Z</time>
      </trkpt>
      <trkpt lat="44.75074" lon="5.5075">
        <ele>1647.2</ele>
        <time>2015-06-28T13:08:48Z</time>
      </trkpt>
      <trkpt lat="44.75067" lon="5.50761">
        <ele>1647.2</ele>
        <time>2015-06-28T13:09:00Z</time>
      </trkpt>
      <trkpt lat="44.75058" lon="5.50768">
        <ele>1647.2</ele>
        <time>2015-06-28T13:09:10Z</time>
      </trkpt>
      <trkpt lat="44.75049" lon="5.50771">
        <ele>1647.2</ele>
        <time>2015-06-28T13:09:16Z</time>
      </trkpt>
      <trkpt lat="44.7504" lon="5.50773">
        <ele>1647.2</ele>
        <time>2015-06-28T13:09:23Z</time>
      </trkpt>
      <trkpt lat="44.7503" lon="5.50773">
        <ele>1647.2</ele>
        <time>2015-06-28T13:09:33Z</time>
      </trkpt>
      <trkpt lat="44.75021" lon="5.50777">
        <ele>1647.2</ele>
        <time>2015-06-28T13:09:41Z</time>
      </trkpt>
      <trkpt lat="44.75013" lon="5.50784">
        <ele>1647.2</ele>
        <time>2015-06-28T13:09:56Z</time>
      </trkpt>
      <trkpt lat="44.75004" lon="5.5079">
        <ele>1647.2</ele>
        <time>2015-06-28T13:10:11Z</time>
      </trkpt>
      <trkpt lat="44.74998" lon="5.50799">
        <ele>1647.2</ele>
        <time>2015-06-28T13:10:20Z</time>
      </trkpt>
      <trkpt lat="44.74993" lon="5.50811">
        <ele>1647.2</ele>
        <time>2015-06-28T13:10:28Z</time>
      </trkpt>
      <trkpt lat="44.74985" lon="5.50816">
        <ele>1647.2</ele>
        <time>2015-06-28T13:10:34Z</time>
      </trkpt>
      <trkpt lat="44.74975" lon="5.50819">
        <ele>1647.2</ele>
        <time>2015-06-28T13:10:43Z</time>
      </trkpt>
      <trkpt lat="44.74966" lon="5.50824">
        <ele>1647.2</ele>
        <time>2015-06-28T13:10:55Z</time>
      </trkpt>
      <trkpt lat="44.74958" lon="5.50828">
        <ele>1647.2</ele>
        <time>2015-06-28T13:11:10Z</time>
      </trkpt>
      <trkpt lat="44.74955" lon="5.50815">
        <ele>1647.2</ele>
        <time>2015-06-28T13:11:28Z</time>
      </trkpt>
      <trkpt lat="44.74953" lon="5.50802">
        <ele>1647.2</ele>
        <time>2015-06-28T13:11:37Z</time>
      </trkpt>
      <trkpt lat="44.7495" lon="5.5079">
        <ele>1647.2</ele>
        <time>2015-06-28T13:11:46Z</time>
      </trkpt>
      <trkpt lat="44.74943" lon="5.50781">
        <ele>1647.2</ele>
        <time>2015-06-28T13:12:02Z</time>
      </trkpt>
      <trkpt lat="44.74934" lon="5.50784">
        <ele>1647.2</ele>
        <time>2015-06-28T13:12:19Z</time>
      </trkpt>
      <trkpt lat="44.74926" lon="5.50791">
        <ele>1647.2</ele>
        <time>2015-06-28T13:12:28Z</time>
      </trkpt>
      <trkpt lat="44.74917" lon="5.50795">
        <ele>1647.2</ele>
        <time>2015-06-28T13:12:36Z</time>
      </trkpt>
      <trkpt lat="44.74907" lon="5.50796">
        <ele>1647.2</ele>
        <time>2015-06-28T13:12:46Z</time>
      </trkpt>
      <trkpt lat="44.74897" lon="5.50793">
        <ele>1647.2</ele>
        <time>2015-06-28T13:12:55Z</time>
      </trkpt>
      <trkpt lat="44.74889" lon="5.50788">
        <ele>1647.2</ele>
        <time>2015-06-28T13:13:02Z</time>
      </trkpt>
      <trkpt lat="44.74879" lon="5.50784">
        <ele>1647.2</ele>
        <time>2015-06-28T13:13:10Z</time>
      </trkpt>
      <trkpt lat="44.7487" lon="5.50779">
        <ele>1647.2</ele>
        <time>2015-06-28T13:13:19Z</time>
      </trkpt>
      <trkpt lat="44.74861" lon="5.50778">
        <ele>1647.2</ele>
        <time>2015-06-28T13:13:32Z</time>
      </trkpt>
      <trkpt lat="44.74851" lon="5.50778">
        <ele>1647.2</ele>
        <time>2015-06-28T13:13:42Z</time>
      </trkpt>
      <trkpt lat="44.74842" lon="5.50783">
        <ele>1647.2</ele>
        <time>2015-06-28T13:13:51Z</time>
      </trkpt>
      <trkpt lat="44.74832" lon="5.50781">
        <ele>1647.2</ele>
        <time>2015-06-28T13:14:01Z</time>
      </trkpt>
      <trkpt lat="44.74823" lon="5.50777">
        <ele>1647.2</ele>
        <time>2015-06-28T13:14:12Z</time>
      </trkpt>
      <trkpt lat="44.74814" lon="5.50774">
        <ele>1647.2</ele>
        <time>2015-06-28T13:14:24Z</time>
      </trkpt>
      <trkpt lat="44.74804" lon="5.50776">
        <ele>1647.2</ele>
        <time>2015-06-28T13:14:34Z</time>
      </trkpt>
      <trkpt lat="44.74795" lon="5.5078">
        <ele>1647.2</ele>
        <time>2015-06-28T13:14:42Z</time>
      </trkpt>
      <trkpt lat="44.74786" lon="5.5078">
        <ele>1647.2</ele>
        <time>2015-06-28T13:14:53Z</time>
      </trkpt>
      <trkpt lat="44.74777" lon="5.50776">
        <ele>1647.2</ele>
        <time>2015-06-28T13:15:03Z</time>
      </trkpt>
      <trkpt lat="44.74769" lon="5.5077">
        <ele>1647.2</ele>
        <time>2015-06-28T13:15:11Z</time>
      </trkpt>
      <trkpt lat="44.74762" lon="5.50761">
        <ele>1647.2</ele>
        <time>2015-06-28T13:15:18Z</time>
      </trkpt>
      <trkpt lat="44.74754" lon="5.50753">
        <ele>1647.2</ele>
        <time>2015-06-28T13:15:25Z</time>
      </trkpt>
      <trkpt lat="44.74745" lon="5.5075">
        <ele>1647.2</ele>
        <time>2015-06-28T13:15:34Z</time>
      </trkpt>
      <trkpt lat="44.74739" lon="5.5074">
        <ele>1647.2</ele>
        <time>2015-06-28T13:15:59Z</time>
      </trkpt>
      <trkpt lat="44.74733" lon="5.50731">
        <ele>1647.2</ele>
        <time>2015-06-28T13:16:08Z</time>
      </trkpt>
      <trkpt lat="44.74726" lon="5.50721">
        <ele>1647.2</ele>
        <time>2015-06-28T13:16:21Z</time>
      </trkpt>
      <trkpt lat="44.74725" lon="5.50706">
        <ele>1647.2</ele>
        <time>2015-06-28T13:16:30Z</time>
      </trkpt>
      <trkpt lat="44.74723" lon="5.50693">
        <ele>1647.2</ele>
        <time>2015-06-28T13:16:36Z</time>
      </trkpt>
      <trkpt lat="44.74722" lon="5.50679">
        <ele>1647.2</ele>
        <time>2015-06-28T13:16:41Z</time>
      </trkpt>
      <trkpt lat="44.74723" lon="5.50665">
        <ele>1647.2</ele>
        <time>2015-06-28T13:16:47Z</time>
      </trkpt>
      <trkpt lat="44.74723" lon="5.50652">
        <ele>1647.2</ele>
        <time>2015-06-28T13:16:55Z</time>
      </trkpt>
      <trkpt lat="44.74716" lon="5.50642">
        <ele>1647.2</ele>
        <time>2015-06-28T13:17:03Z</time>
      </trkpt>
      <trkpt lat="44.74709" lon="5.50633">
        <ele>1647.2</ele>
        <time>2015-06-28T13:17:10Z</time>
      </trkpt>
      <trkpt lat="44.747" lon="5.50627">
        <ele>1647.2</ele>
        <time>2015-06-28T13:17:18Z</time>
      </trkpt>
      <trkpt lat="44.74695" lon="5.50616">
        <ele>1647.2</ele>
        <time>2015-06-28T13:17:27Z</time>
      </trkpt>
      <trkpt lat="44.74692" lon="5.50605">
        <ele>1647.2</ele>
        <time>2015-06-28T13:17:34Z</time>
      </trkpt>
      <trkpt lat="44.74686" lon="5.50594">
        <ele>1647.2</ele>
        <time>2015-06-28T13:17:42Z</time>
      </trkpt>
      <trkpt lat="44.7468" lon="5.50583">
        <ele>1647.2</ele>
        <time>2015-06-28T13:17:54Z</time>
      </trkpt>
      <trkpt lat="44.7468" lon="5.5057">
        <ele>1647.2</ele>
        <time>2015-06-28T13:18:49Z</time>
      </trkpt>
      <trkpt lat="44.74681" lon="5.50557">
        <ele>1647.2</ele>
        <time>2015-06-28T13:18:57Z</time>
      </trkpt>
      <trkpt lat="44.74682" lon="5.50542">
        <ele>1647.2</ele>
        <time>2015-06-28T13:19:03Z</time>
      </trkpt>
      <trkpt lat="44.74683" lon="5.50528">
        <ele>1647.2</ele>
        <time>2015-06-28T13:19:09Z</time>
      </trkpt>
      <trkpt lat="44.74682" lon="5.50515">
        <ele>1647.2</ele>
        <time>2015-06-28T13:19:19Z</time>
      </trkpt>
      <trkpt lat="44.74688" lon="5.50504">
        <ele>1647.2</ele>
        <time>2015-06-28T13:19:30Z</time>
      </trkpt>
      <trkpt lat="44.74692" lon="5.50492">
        <ele>1647.2</ele>
        <time>2015-06-28T13:19:38Z</time>
      </trkpt>
      <trkpt lat="44.74698" lon="5.50481">
        <ele>1647.2</ele>
        <time>2015-06-28T13:19:46Z</time>
      </trkpt>
      <trkpt lat="44.74705" lon="5.50473">
        <ele>1647.2</ele>
        <time>2015-06-28T13:19:58Z</time>
      </trkpt>
      <trkpt lat="44.74703" lon="5.50459">
        <ele>1647.2</ele>
        <time>2015-06-28T13:20:06Z</time>
      </trkpt>
      <trkpt lat="44.74694" lon="5.50458">
        <ele>1647.2</ele>
        <time>2015-06-28T13:20:18Z</time>
      </trkpt>
      <trkpt lat="44.74685" lon="5.50455">
        <ele>1647.2</ele>
        <time>2015-06-28T13:20:25Z</time>
      </trkpt>
      <trkpt lat="44.74676" lon="5.50451">
        <ele>1647.2</ele>
        <time>2015-06-28T13:20:33Z</time>
      </trkpt>
      <trkpt lat="44.74669" lon="5.50442">
        <ele>1647.2</ele>
        <time>2015-06-28T13:20:41Z</time>
      </trkpt>
      <trkpt lat="44.74663" lon="5.50433">
        <ele>1647.2</ele>
        <time>2015-06-28T13:21:17Z</time>
      </trkpt>
      <trkpt lat="44.74655" lon="5.50439">
        <ele>1647.2</ele>
        <time>2015-06-28T13:21:54Z</time>
      </trkpt>
      <trkpt lat="44.74655" lon="5.50452">
        <ele>1647.2</ele>
        <time>2015-06-28T13:22:59Z</time>
      </trkpt>
      <trkpt lat="44.74647" lon="5.50449">
        <ele>1647.2</ele>
        <time>2015-06-28T13:25:26Z</time>
      </trkpt>
    </trkseg>
  </trk>
</gpx>